Darstellungsparameter: Aktuell verwendete Einstellungen:
Skalierung der Graphiken ... ?
xyx+y,   Skalierungsfaktor:      Skalierung: Modus: x, Faktor: 1
Darstellungszeitraum ... ?
Vom - - bis: - -   Zeitraum: 25.05.2014 - 07.06.2014
Min/Max/Avg-Anzeige ... ?
Zeige MMA aktuell
Zeige MMA Monat
Zeige MMA alles
Zeige --A aktuell
Zeige --A Monat
Zeige --A alles
Keine MMA-Anzeige
MMA:
Keine MMA-Graphiken
MMA-Basis: 25.05.2014 - 07.06.2014
Quicknavigation für Darstellung... ?
Tage:      1T, 2T, 3T, 5T -1T -2T -3T -5T +1T +2T +3T +5T
Wochen: 1W, 2W, 3W -1W -2W -3W +1W +2W +3W
Monate: 1M, 3M, 6M -1M -3M -6M +1M +3M +6M
Jahre:    1J, 3J, 5J, 10J -1J -3J -5J -10J +1J +3J +5J +10J
Nutze für die Darstellung ... ?
Originaldaten oder Mittelwerte auf ...
Stundenbasis Tagesbasis Wochenbasis
Monatsbasis Jahresbasis      Datenbasis: Original-Daten
Darstellen als:
Statistik (Auto) Statistik J:M      Darstellung:
Zur Graphik,    zurück zur Übersicht aller Sensoren.
 
Tabellarische Datenbersicht: ?
 
Sensor: Nr:Datum:Temp:Abs-Feuchte:Windchill:Wind:
Aussen-T/F 1 25-05-2014 00:00:00 10.7 C 8.74 g/m*3 10.7 C 0 km/h
2 25-05-2014 00:05:00 10.7 C 8.74 g/m*3 10.7 C 0 km/h
3 25-05-2014 00:10:00 10.6 C 8.69 g/m*3 10.6 C 0 km/h
4 25-05-2014 00:15:00 10.5 C 8.53 g/m*3 10.5 C 1.6 km/h
5 25-05-2014 00:20:00 10.4 C 8.48 g/m*3 10.4 C 1.6 km/h
6 25-05-2014 00:25:00 10.3 C 8.52 g/m*3 10.3 C 0 km/h
7 25-05-2014 00:30:00 10.2 C 8.47 g/m*3 10.2 C 0 km/h
8 25-05-2014 00:35:00 10 C 8.46 g/m*3 10 C 0 km/h
9 25-05-2014 00:40:00 9.9 C 8.4 g/m*3 9.9 C 0 km/h
10 25-05-2014 00:45:00 9.9 C 8.5 g/m*3 9.9 C 0 km/h
11 25-05-2014 00:50:00 9.8 C 8.44 g/m*3 9.8 C 0 km/h
12 25-05-2014 00:55:00 9.8 C 8.44 g/m*3 9.8 C 0 km/h
13 25-05-2014 01:00:00 9.7 C 8.39 g/m*3 9.7 C 0 km/h
14 25-05-2014 01:05:00 9.7 C 8.39 g/m*3 9.7 C 0 km/h
15 25-05-2014 01:10:00 9.6 C 8.34 g/m*3 9.6 C 0 km/h
16 25-05-2014 01:15:00 9.5 C 8.28 g/m*3 9.5 C 0 km/h
17 25-05-2014 01:20:00 9.5 C 8.28 g/m*3 9.5 C 0 km/h
18 25-05-2014 01:25:00 9.4 C 8.23 g/m*3 9.4 C 0 km/h
19 25-05-2014 01:30:00 9.3 C 8.27 g/m*3 9.3 C 0 km/h
20 25-05-2014 01:35:00 9.3 C 8.27 g/m*3 9.3 C 0 km/h
21 25-05-2014 01:40:00 9.3 C 8.27 g/m*3 9.3 C 0 km/h
22 25-05-2014 01:45:00 9.3 C 8.27 g/m*3 9.3 C 0 km/h
23 25-05-2014 01:50:00 9.3 C 8.36 g/m*3 9.3 C 0 km/h
24 25-05-2014 01:55:00 9.3 C 8.36 g/m*3 9.3 C 0 km/h
25 25-05-2014 02:00:00 9.2 C 8.22 g/m*3 9.2 C 0 km/h
Sensor: Nr:Datum:Temp:Abs-Feuchte:Windchill:Wind:
Aussen-T/F 26 25-05-2014 02:05:00 9.1 C 8.16 g/m*3 9.1 C 0 km/h
27 25-05-2014 02:10:00 9 C 8.11 g/m*3 9 C 0 km/h
28 25-05-2014 02:15:00 8.9 C 8.15 g/m*3 8.9 C 0 km/h
29 25-05-2014 02:20:00 8.9 C 8.15 g/m*3 8.9 C 0 km/h
30 25-05-2014 02:25:00 8.9 C 8.15 g/m*3 8.9 C 0 km/h
31 25-05-2014 02:30:00 8.8 C 8.09 g/m*3 8.8 C 0 km/h
32 25-05-2014 02:35:00 8.8 C 8.09 g/m*3 8.8 C 0 km/h
33 25-05-2014 02:40:00 8.7 C 8.04 g/m*3 8.7 C 0 km/h
34 25-05-2014 02:45:00 8.7 C 8.13 g/m*3 8.7 C 0 km/h
35 25-05-2014 02:50:00 8.7 C 8.04 g/m*3 8.7 C 0 km/h
36 25-05-2014 02:55:00 8.7 C 8.13 g/m*3 8.7 C 0 km/h
37 25-05-2014 03:00:00 8.6 C 8.08 g/m*3 8.6 C 0 km/h
38 25-05-2014 03:05:00 8.6 C 8.08 g/m*3 8.6 C 0 km/h
39 25-05-2014 03:10:00 8.5 C 8.03 g/m*3 8.5 C 0 km/h
40 25-05-2014 03:15:00 8.5 C 8.03 g/m*3 8.5 C 0 km/h
41 25-05-2014 03:20:00 8.4 C 7.97 g/m*3 8.4 C 0 km/h
42 25-05-2014 03:25:00 8.3 C 7.92 g/m*3 8.3 C 0 km/h
43 25-05-2014 03:30:00 8.3 C 7.92 g/m*3 8.3 C 0 km/h
44 25-05-2014 03:35:00 8.2 C 7.87 g/m*3 8.2 C 0 km/h
45 25-05-2014 03:40:00 8.2 C 7.87 g/m*3 8.2 C 0 km/h
46 25-05-2014 03:45:00 8.2 C 7.87 g/m*3 8.2 C 0 km/h
47 25-05-2014 03:50:00 8.2 C 7.87 g/m*3 8.2 C 0 km/h
48 25-05-2014 03:55:00 8.1 C 7.9 g/m*3 8.1 C 0 km/h
49 25-05-2014 04:00:00 8.1 C 7.9 g/m*3 8.1 C 0 km/h
50 25-05-2014 04:05:00 8.1 C 7.9 g/m*3 8.1 C 0 km/h
Sensor: Nr:Datum:Temp:Abs-Feuchte:Windchill:Wind:
Aussen-T/F 51 25-05-2014 04:10:00 8 C 7.85 g/m*3 8 C 0 km/h
52 25-05-2014 04:15:00 7.9 C 7.8 g/m*3 7.9 C 0 km/h
53 25-05-2014 04:20:00 7.9 C 7.8 g/m*3 7.9 C 0 km/h
54 25-05-2014 04:25:00 7.9 C 7.8 g/m*3 7.9 C 0 km/h
55 25-05-2014 04:30:00 7.9 C 7.8 g/m*3 7.9 C 0 km/h
56 25-05-2014 04:35:00 7.8 C 7.75 g/m*3 7.8 C 0 km/h
57 25-05-2014 04:40:00 7.8 C 7.75 g/m*3 7.8 C 0 km/h
58 25-05-2014 04:45:00 7.8 C 7.75 g/m*3 7.8 C 0 km/h
59 25-05-2014 04:50:00 7.8 C 7.75 g/m*3 7.8 C 0 km/h
60 25-05-2014 04:55:00 7.7 C 7.7 g/m*3 7.7 C 0 km/h
61 25-05-2014 05:00:00 7.7 C 7.7 g/m*3 7.7 C 0 km/h
62 25-05-2014 05:05:00 7.7 C 7.7 g/m*3 7.7 C 0 km/h
63 25-05-2014 05:10:00 7.7 C 7.7 g/m*3 7.7 C 0 km/h
64 25-05-2014 05:15:00 7.6 C 7.65 g/m*3 7.6 C 0 km/h
65 25-05-2014 05:20:00 7.6 C 7.65 g/m*3 7.6 C 0 km/h
66 25-05-2014 05:25:00 7.5 C 7.6 g/m*3 7.5 C 0 km/h
67 25-05-2014 05:30:00 7.5 C 7.68 g/m*3 7.5 C 0 km/h
68 25-05-2014 05:35:00 7.5 C 7.68 g/m*3 7.5 C 0 km/h
69 25-05-2014 05:40:00 7.5 C 7.68 g/m*3 7.5 C 0 km/h
70 25-05-2014 05:45:00 7.5 C 7.68 g/m*3 7.5 C 0 km/h
71 25-05-2014 05:50:00 7.4 C 7.63 g/m*3 7.4 C 0 km/h
72 25-05-2014 05:55:00 7.4 C 7.63 g/m*3 7.4 C 0 km/h
73 25-05-2014 06:00:00 7.4 C 7.63 g/m*3 7.4 C 0 km/h
74 25-05-2014 06:05:00 7.4 C 7.63 g/m*3 7.4 C 1.6 km/h
75 25-05-2014 06:10:00 7.5 C 7.68 g/m*3 7.5 C 1.6 km/h
Sensor: Nr:Datum:Temp:Abs-Feuchte:Windchill:Wind:
Aussen-T/F 76 25-05-2014 06:15:00 7.5 C 7.68 g/m*3 7.5 C 0 km/h
77 25-05-2014 06:20:00 7.5 C 7.68 g/m*3 7.5 C 0 km/h
78 25-05-2014 06:25:00 7.5 C 7.68 g/m*3 7.5 C 0 km/h
79 25-05-2014 06:30:00 7.5 C 7.68 g/m*3 7.5 C 0 km/h
80 25-05-2014 06:35:00 7.5 C 7.68 g/m*3 7.5 C 0 km/h
81 25-05-2014 06:40:00 7.5 C 7.68 g/m*3 7.5 C 0 km/h
82 25-05-2014 06:45:00 7.5 C 7.68 g/m*3 7.5 C 0 km/h
83 25-05-2014 06:50:00 7.5 C 7.68 g/m*3 7.5 C 0 km/h
84 25-05-2014 06:55:00 7.6 C 7.73 g/m*3 7.6 C 3.2 km/h
85 25-05-2014 07:00:00 7.7 C 7.78 g/m*3 7.7 C 4.8 km/h
86 25-05-2014 07:05:00 7.8 C 7.83 g/m*3 7.8 C 3.2 km/h
87 25-05-2014 07:10:00 7.8 C 7.83 g/m*3 7.8 C 3.2 km/h
88 25-05-2014 07:15:00 7.8 C 7.83 g/m*3 7.8 C 3.2 km/h
89 25-05-2014 07:20:00 7.9 C 7.89 g/m*3 7.9 C 3.2 km/h
90 25-05-2014 07:25:00 7.9 C 7.89 g/m*3 7.9 C 3.2 km/h
91 25-05-2014 07:30:00 8 C 8.02 g/m*3 8 C 0 km/h
92 25-05-2014 07:35:00 8.1 C 8.07 g/m*3 8.1 C 1.6 km/h
93 25-05-2014 07:40:00 8.2 C 8.04 g/m*3 8.2 C 0 km/h
94 25-05-2014 07:45:00 8.3 C 8.18 g/m*3 8.3 C 0 km/h
95 25-05-2014 07:50:00 8.4 C 8.23 g/m*3 8.4 C 1.6 km/h
96 25-05-2014 07:55:00 8.6 C 8.34 g/m*3 8.6 C 0 km/h
97 25-05-2014 08:00:00 8.9 C 8.41 g/m*3 8.9 C 0 km/h
98 25-05-2014 08:05:00 9.1 C 8.52 g/m*3 9.1 C 0 km/h
99 25-05-2014 08:10:00 9.3 C 8.54 g/m*3 9.3 C 0 km/h
100 25-05-2014 08:15:00 9.6 C 8.7 g/m*3 9.6 C 0 km/h
Sensor: Nr:Datum:Temp:Abs-Feuchte:Windchill:Wind:
Aussen-T/F 101 25-05-2014 08:20:00 9.8 C 8.72 g/m*3 9.8 C 0 km/h
102 25-05-2014 08:25:00 10.2 C 8.85 g/m*3 10.2 C 0 km/h
103 25-05-2014 08:30:00 10.3 C 8.91 g/m*3 10.3 C 0 km/h
104 25-05-2014 08:35:00 10.6 C 8.98 g/m*3 10.6 C 0 km/h
105 25-05-2014 08:40:00 10.8 C 8.99 g/m*3 10.8 C 0 km/h
106 25-05-2014 08:45:00 11.1 C 9.07 g/m*3 11.1 C 0 km/h
107 25-05-2014 08:50:00 11.3 C 9.18 g/m*3 11.3 C 0 km/h
108 25-05-2014 08:55:00 11.4 C 9.14 g/m*3 11.4 C 0 km/h
109 25-05-2014 09:00:00 11.6 C 9.25 g/m*3 11.6 C 0 km/h
110 25-05-2014 09:05:00 11.6 C 9.25 g/m*3 11.6 C 0 km/h
111 25-05-2014 09:10:00 11.5 C 9.19 g/m*3 11.5 C 0 km/h
112 25-05-2014 09:15:00 11.4 C 9.24 g/m*3 11.4 C 0 km/h
113 25-05-2014 09:20:00 11.4 C 9.34 g/m*3 11.4 C 0 km/h
114 25-05-2014 09:25:00 11.6 C 9.46 g/m*3 11.6 C 0 km/h
115 25-05-2014 09:30:00 11.7 C 9.62 g/m*3 11.7 C 0 km/h
116 25-05-2014 09:35:00 11.9 C 9.74 g/m*3 11.9 C 0 km/h
117 25-05-2014 09:40:00 12.1 C 9.87 g/m*3 12.1 C 0 km/h
118 25-05-2014 09:45:00 12.3 C 9.88 g/m*3 12.3 C 0 km/h
119 25-05-2014 09:50:00 12.4 C 9.94 g/m*3 12.4 C 0 km/h
120 25-05-2014 09:55:00 12.7 C 10.13 g/m*3 12.7 C 1.6 km/h
121 25-05-2014 10:00:00 13.1 C 10.38 g/m*3 13.1 C 0 km/h
122 25-05-2014 10:05:00 13.6 C 10.59 g/m*3 13.6 C 0 km/h
123 25-05-2014 10:10:00 14.2 C 10.75 g/m*3 14.2 C 0 km/h
124 25-05-2014 10:15:00 14.7 C 10.83 g/m*3 14.7 C 0 km/h
125 25-05-2014 10:20:00 14.9 C 10.96 g/m*3 14.9 C 0 km/h
Sensor: Nr:Datum:Temp:Abs-Feuchte:Windchill:Wind:
Aussen-T/F 126 25-05-2014 10:25:00 15.3 C 10.71 g/m*3 15.3 C 1.6 km/h
127 25-05-2014 10:30:00 15.8 C 10.9 g/m*3 15.8 C 1.6 km/h
128 25-05-2014 10:35:00 16.2 C 11.17 g/m*3 16.2 C 1.6 km/h
129 25-05-2014 10:40:00 16.6 C 10.88 g/m*3 16.6 C 3.2 km/h
130 25-05-2014 10:45:00 16.8 C 11.15 g/m*3 16.8 C 1.6 km/h
131 25-05-2014 10:50:00 16.7 C 11.23 g/m*3 16.7 C 0 km/h
132 25-05-2014 10:55:00 16.7 C 11.37 g/m*3 16.7 C 1.6 km/h
133 25-05-2014 11:00:00 16.8 C 11.15 g/m*3 16.8 C 3.2 km/h
134 25-05-2014 11:05:00 17.2 C 11.42 g/m*3 17.2 C 1.6 km/h
135 25-05-2014 11:10:00 17.4 C 10.97 g/m*3 17.4 C 0 km/h
136 25-05-2014 11:15:00 17.8 C 11.08 g/m*3 17.8 C 1.6 km/h
137 25-05-2014 11:20:00 18.1 C 11.59 g/m*3 18.1 C 0 km/h
138 25-05-2014 11:25:00 18.3 C 11.41 g/m*3 18.3 C 4.8 km/h
139 25-05-2014 11:30:00 18.6 C 10.19 g/m*3 18.6 C 1.6 km/h
140 25-05-2014 11:35:00 18.7 C 10.73 g/m*3 18.7 C 3.2 km/h
141 25-05-2014 11:40:00 19.1 C 10.16 g/m*3 19.1 C 4.8 km/h
142 25-05-2014 11:45:00 19.6 C 9.62 g/m*3 19.6 C 6.4 km/h
143 25-05-2014 11:50:00 20 C 9.85 g/m*3 20 C 3.2 km/h
144 25-05-2014 11:55:00 20.2 C 9.97 g/m*3 20.2 C 8.1 km/h
145 25-05-2014 12:00:00 20.6 C 10.02 g/m*3 20.6 C 8.1 km/h
146 25-05-2014 12:05:00 20.8 C 9.78 g/m*3 20.8 C 9.7 km/h
147 25-05-2014 12:10:00 20.9 C 9.29 g/m*3 20.9 C 11.3 km/h
148 25-05-2014 12:15:00 21.1 C 10.5 g/m*3 21.1 C 11.3 km/h
149 25-05-2014 12:20:00 20.9 C 8.56 g/m*3 20.9 C 4.8 km/h
150 25-05-2014 12:25:00 20.9 C 9.11 g/m*3 20.9 C 8.1 km/h
Sensor: Nr:Datum:Temp:Abs-Feuchte:Windchill:Wind:
Aussen-T/F 151 25-05-2014 12:30:00 21.1 C 9.03 g/m*3 21.1 C 6.4 km/h
152 25-05-2014 12:35:00 21.3 C 9.69 g/m*3 21.3 C 8.1 km/h
153 25-05-2014 12:40:00 21.3 C 8.57 g/m*3 21.3 C 6.4 km/h
154 25-05-2014 12:45:00 21.3 C 8.76 g/m*3 21.3 C 8.1 km/h
155 25-05-2014 12:50:00 21.5 C 8.86 g/m*3 21.5 C 4.8 km/h
156 25-05-2014 12:55:00 21.7 C 9.73 g/m*3 21.7 C 6.4 km/h
157 25-05-2014 13:00:00 22.1 C 8.78 g/m*3 22.1 C 6.4 km/h
158 25-05-2014 13:05:00 22 C 8.93 g/m*3 22 C 9.7 km/h
159 25-05-2014 13:10:00 21.9 C 8.49 g/m*3 21.9 C 8.1 km/h
160 25-05-2014 13:15:00 21.9 C 8.3 g/m*3 21.9 C 8.1 km/h
161 25-05-2014 13:20:00 21.9 C 8.88 g/m*3 21.9 C 9.7 km/h
162 25-05-2014 13:25:00 22.1 C 8.39 g/m*3 22.1 C 9.7 km/h
163 25-05-2014 13:30:00 22.4 C 8.14 g/m*3 22.4 C 11.3 km/h
164 25-05-2014 13:35:00 22.3 C 8.49 g/m*3 22.3 C 3.2 km/h
165 25-05-2014 13:40:00 22.4 C 8.94 g/m*3 22.4 C 8.1 km/h
166 25-05-2014 13:45:00 22.6 C 9.44 g/m*3 22.6 C 6.4 km/h
167 25-05-2014 13:50:00 22.4 C 9.33 g/m*3 22.4 C 4.8 km/h
168 25-05-2014 13:55:00 22.7 C 9.29 g/m*3 22.7 C 9.7 km/h
169 25-05-2014 14:00:00 23.1 C 9.1 g/m*3 23.1 C 8.1 km/h
170 25-05-2014 14:05:00 22.9 C 10.01 g/m*3 22.9 C 4.8 km/h
171 25-05-2014 14:10:00 22.9 C 10.42 g/m*3 22.9 C 6.4 km/h
172 25-05-2014 14:15:00 23.1 C 9.51 g/m*3 23.1 C 4.8 km/h
173 25-05-2014 14:20:00 23.1 C 9.72 g/m*3 23.1 C 8.1 km/h
174 25-05-2014 14:25:00 23.2 C 9.36 g/m*3 23.2 C 8.1 km/h
175 25-05-2014 14:30:00 23.1 C 9.1 g/m*3 23.1 C 9.7 km/h
Sensor: Nr:Datum:Temp:Abs-Feuchte:Windchill:Wind:
Aussen-T/F 176 25-05-2014 14:35:00 22.9 C 8.79 g/m*3 22.9 C 9.7 km/h
177 25-05-2014 14:40:00 23.1 C 9.1 g/m*3 23.1 C 6.4 km/h
178 25-05-2014 14:45:00 23.2 C 9.36 g/m*3 23.2 C 8.1 km/h
179 25-05-2014 14:50:00 23.3 C 9.83 g/m*3 23.3 C 9.7 km/h
180 25-05-2014 14:55:00 23.5 C 9.52 g/m*3 23.5 C 11.3 km/h
181 25-05-2014 15:00:00 23.4 C 9.67 g/m*3 23.4 C 9.7 km/h
182 25-05-2014 15:05:00 23.4 C 9.46 g/m*3 23.4 C 14.5 km/h
183 25-05-2014 15:10:00 23.8 C 9.68 g/m*3 23.8 C 16.1 km/h
184 25-05-2014 15:15:00 23.7 C 8.98 g/m*3 23.7 C 9.7 km/h
185 25-05-2014 15:20:00 23.3 C 9.2 g/m*3 23.3 C 6.4 km/h
186 25-05-2014 15:25:00 23.3 C 8.99 g/m*3 23.3 C 16.1 km/h
187 25-05-2014 15:30:00 23.6 C 8.93 g/m*3 23.6 C 8.1 km/h
188 25-05-2014 15:35:00 23.6 C 9.36 g/m*3 23.6 C 8.1 km/h
189 25-05-2014 15:40:00 23.5 C 9.31 g/m*3 23.5 C 8.1 km/h
190 25-05-2014 15:45:00 23.6 C 9.15 g/m*3 23.6 C 8.1 km/h
191 25-05-2014 15:50:00 23.4 C 9.67 g/m*3 23.4 C 6.4 km/h
192 25-05-2014 15:55:00 23.2 C 8.32 g/m*3 23.2 C 4.8 km/h
193 25-05-2014 16:00:00 22.9 C 10.42 g/m*3 22.9 C 6.4 km/h
194 25-05-2014 16:05:00 22.7 C 9.09 g/m*3 22.7 C 4.8 km/h
195 25-05-2014 16:10:00 22.7 C 9.29 g/m*3 22.7 C 9.7 km/h
196 25-05-2014 16:15:00 23.1 C 9.3 g/m*3 23.1 C 8.1 km/h
197 25-05-2014 16:20:00 23.7 C 10.69 g/m*3 23.7 C 3.2 km/h
198 25-05-2014 16:25:00 23.6 C 9.36 g/m*3 23.6 C 4.8 km/h
199 25-05-2014 16:30:00 23.8 C 9.25 g/m*3 23.8 C 6.4 km/h
200 25-05-2014 16:35:00 23.8 C 9.46 g/m*3 23.8 C 4.8 km/h
Sensor: Nr:Datum:Temp:Abs-Feuchte:Windchill:Wind:
Aussen-T/F 201 25-05-2014 16:40:00 24.1 C 9.41 g/m*3 24.1 C 9.7 km/h
202 25-05-2014 16:45:00 24.6 C 9.45 g/m*3 24.6 C 9.7 km/h
203 25-05-2014 16:50:00 24.7 C 8.83 g/m*3 24.7 C 4.8 km/h
204 25-05-2014 16:55:00 24.8 C 9.56 g/m*3 24.8 C 4.8 km/h
205 25-05-2014 17:00:00 24.8 C 8.88 g/m*3 24.8 C 4.8 km/h
206 25-05-2014 17:05:00 24.6 C 8.78 g/m*3 24.6 C 1.6 km/h
207 25-05-2014 17:10:00 24.5 C 9.4 g/m*3 24.5 C 8.1 km/h
208 25-05-2014 17:15:00 24.4 C 8.9 g/m*3 24.4 C 3.2 km/h
209 25-05-2014 17:20:00 24.4 C 8.9 g/m*3 24.4 C 0 km/h
210 25-05-2014 17:55:00 24.6 C 9.23 g/m*3 24.6 C 3.2 km/h
211 25-05-2014 18:00:00 24.6 C 9.23 g/m*3 24.6 C 4.8 km/h
212 25-05-2014 18:05:00 24.3 C 9.52 g/m*3 24.3 C 4.8 km/h
213 25-05-2014 18:10:00 23.8 C 9.25 g/m*3 23.8 C 3.2 km/h
214 25-05-2014 18:15:00 23.8 C 9.25 g/m*3 23.8 C 4.8 km/h
215 25-05-2014 18:20:00 23.8 C 9.25 g/m*3 23.8 C 4.8 km/h
216 25-05-2014 18:25:00 23.3 C 8.99 g/m*3 23.3 C 3.2 km/h
217 25-05-2014 18:30:00 23.3 C 8.99 g/m*3 23.3 C 6.4 km/h
218 25-05-2014 18:35:00 23.3 C 9.62 g/m*3 23.3 C 6.4 km/h
219 25-05-2014 18:40:00 23.9 C 9.3 g/m*3 23.9 C 6.4 km/h
220 25-05-2014 18:45:00 24.2 C 8.8 g/m*3 24.2 C 8.1 km/h
221 25-05-2014 18:50:00 24 C 10.23 g/m*3 24 C 1.6 km/h
222 25-05-2014 18:55:00 23.4 C 11.78 g/m*3 23.4 C 3.2 km/h
223 25-05-2014 19:00:00 22.8 C 10.36 g/m*3 22.8 C 3.2 km/h
224 25-05-2014 19:05:00 22.3 C 12.24 g/m*3 22.3 C 0 km/h
225 25-05-2014 19:10:00 21.5 C 12.45 g/m*3 21.5 C 0 km/h
Sensor: Nr:Datum:Temp:Abs-Feuchte:Windchill:Wind:
Aussen-T/F 226 25-05-2014 19:15:00 20.7 C 12.06 g/m*3 20.7 C 0 km/h
227 25-05-2014 19:20:00 20.1 C 11.82 g/m*3 20.1 C 0 km/h
228 25-05-2014 19:25:00 19.7 C 11.89 g/m*3 19.7 C 0 km/h
229 25-05-2014 19:30:00 19.3 C 11.78 g/m*3 19.3 C 1.6 km/h
230 25-05-2014 19:35:00 19.1 C 11.8 g/m*3 19.1 C 0 km/h
231 25-05-2014 19:40:00 18.8 C 11.92 g/m*3 18.8 C 1.6 km/h
232 25-05-2014 19:45:00 18.7 C 11.85 g/m*3 18.7 C 0 km/h
233 25-05-2014 19:50:00 18.5 C 11.87 g/m*3 18.5 C 0 km/h
234 25-05-2014 19:55:00 18.4 C 11.95 g/m*3 18.4 C 0 km/h
235 25-05-2014 20:00:00 18.2 C 11.81 g/m*3 18.2 C 0 km/h
236 25-05-2014 20:05:00 18.1 C 11.74 g/m*3 18.1 C 0 km/h
237 25-05-2014 20:10:00 17.9 C 11.6 g/m*3 17.9 C 0 km/h
238 25-05-2014 20:15:00 17.8 C 11.54 g/m*3 17.8 C 1.6 km/h
239 25-05-2014 20:20:00 17.7 C 11.62 g/m*3 17.7 C 0 km/h
240 25-05-2014 20:25:00 17.6 C 11.4 g/m*3 17.6 C 1.6 km/h
241 25-05-2014 20:30:00 17.5 C 11.48 g/m*3 17.5 C 0 km/h
242 25-05-2014 20:35:00 17.4 C 11.41 g/m*3 17.4 C 1.6 km/h
243 25-05-2014 20:40:00 17.3 C 11.34 g/m*3 17.3 C 1.6 km/h
244 25-05-2014 20:45:00 17.2 C 11.28 g/m*3 17.2 C 1.6 km/h
245 25-05-2014 20:50:00 17.2 C 11.13 g/m*3 17.2 C 1.6 km/h
246 25-05-2014 20:55:00 17.1 C 11.06 g/m*3 17.1 C 1.6 km/h
247 25-05-2014 21:00:00 17 C 11 g/m*3 17 C 1.6 km/h
248 25-05-2014 21:05:00 16.9 C 11.08 g/m*3 16.9 C 1.6 km/h
249 25-05-2014 21:10:00 16.8 C 11.01 g/m*3 16.8 C 3.2 km/h
250 25-05-2014 21:15:00 16.7 C 10.94 g/m*3 16.7 C 0 km/h
Sensor: Nr:Datum:Temp:Abs-Feuchte:Windchill:Wind:
Aussen-T/F 251 25-05-2014 21:20:00 16.6 C 10.88 g/m*3 16.6 C 1.6 km/h
252 25-05-2014 21:25:00 16.6 C 11.16 g/m*3 16.6 C 0 km/h
253 25-05-2014 21:30:00 16.4 C 10.75 g/m*3 16.4 C 0 km/h
254 25-05-2014 21:35:00 16.4 C 10.89 g/m*3 16.4 C 1.6 km/h
255 25-05-2014 21:40:00 16.3 C 10.68 g/m*3 16.3 C 0 km/h
256 25-05-2014 21:45:00 16.3 C 10.68 g/m*3 16.3 C 0 km/h
257 25-05-2014 21:50:00 16.2 C 10.48 g/m*3 16.2 C 0 km/h
258 25-05-2014 21:55:00 16.1 C 10.55 g/m*3 16.1 C 0 km/h
259 25-05-2014 22:00:00 16.1 C 10.55 g/m*3 16.1 C 0 km/h
260 25-05-2014 22:05:00 15.8 C 10.5 g/m*3 15.8 C 0 km/h
261 25-05-2014 22:10:00 15.8 C 10.77 g/m*3 15.8 C 0 km/h
262 25-05-2014 22:15:00 15.7 C 10.57 g/m*3 15.7 C 1.6 km/h
263 25-05-2014 22:20:00 15.7 C 10.7 g/m*3 15.7 C 0 km/h
264 25-05-2014 22:25:00 15.6 C 10.51 g/m*3 15.6 C 0 km/h
265 25-05-2014 22:30:00 15.6 C 10.37 g/m*3 15.6 C 0 km/h
266 25-05-2014 22:35:00 15.6 C 10.37 g/m*3 15.6 C 0 km/h
267 25-05-2014 22:40:00 15.6 C 10.51 g/m*3 15.6 C 0 km/h
268 25-05-2014 22:45:00 15.6 C 10.37 g/m*3 15.6 C 0 km/h
269 25-05-2014 22:50:00 15.6 C 10.64 g/m*3 15.6 C 0 km/h
270 25-05-2014 22:55:00 15.6 C 10.77 g/m*3 15.6 C 0 km/h
271 25-05-2014 23:00:00 15.5 C 10.57 g/m*3 15.5 C 0 km/h
272 25-05-2014 23:05:00 15.5 C 10.57 g/m*3 15.5 C 0 km/h
273 25-05-2014 23:10:00 15.4 C 10.51 g/m*3 15.4 C 0 km/h
274 25-05-2014 23:15:00 15.3 C 10.45 g/m*3 15.3 C 0 km/h
275 25-05-2014 23:20:00 15.3 C 10.45 g/m*3 15.3 C 0 km/h
Sensor: Nr:Datum:Temp:Abs-Feuchte:Windchill:Wind:
Aussen-T/F 276 25-05-2014 23:25:00 15.2 C 10.38 g/m*3 15.2 C 0 km/h
277 25-05-2014 23:30:00 15.1 C 10.19 g/m*3 15.1 C 0 km/h
278 25-05-2014 23:35:00 14.9 C 10.07 g/m*3 14.9 C 0 km/h
279 25-05-2014 23:40:00 14.8 C 10.13 g/m*3 14.8 C 0 km/h
280 25-05-2014 23:45:00 14.8 C 10.13 g/m*3 14.8 C 0 km/h
281 25-05-2014 23:50:00 14.7 C 10.07 g/m*3 14.7 C 0 km/h
282 25-05-2014 23:55:00 14.7 C 10.2 g/m*3 14.7 C 0 km/h
283 26-05-2014 00:00:00 14.6 C 10.26 g/m*3 14.6 C 0 km/h
284 26-05-2014 00:05:00 14.6 C 10.14 g/m*3 14.6 C 0 km/h
285 26-05-2014 00:10:00 14.5 C 10.07 g/m*3 14.5 C 0 km/h
286 26-05-2014 00:15:00 14.4 C 10.14 g/m*3 14.4 C 0 km/h
287 26-05-2014 00:20:00 14.3 C 10.07 g/m*3 14.3 C 0 km/h
288 26-05-2014 00:25:00 14.3 C 10.2 g/m*3 14.3 C 0 km/h
289 26-05-2014 00:30:00 14.2 C 10.14 g/m*3 14.2 C 0 km/h
290 26-05-2014 00:35:00 14.1 C 10.07 g/m*3 14.1 C 0 km/h
291 26-05-2014 00:40:00 13.9 C 9.95 g/m*3 13.9 C 0 km/h
292 26-05-2014 00:45:00 13.9 C 9.95 g/m*3 13.9 C 0 km/h
293 26-05-2014 00:50:00 13.9 C 9.95 g/m*3 13.9 C 0 km/h
294 26-05-2014 00:55:00 13.9 C 9.95 g/m*3 13.9 C 0 km/h
295 26-05-2014 01:00:00 14 C 10.01 g/m*3 14 C 0 km/h
296 26-05-2014 01:05:00 14 C 10.01 g/m*3 14 C 0 km/h
297 26-05-2014 01:10:00 13.9 C 9.95 g/m*3 13.9 C 0 km/h
298 26-05-2014 01:15:00 13.9 C 9.95 g/m*3 13.9 C 0 km/h
299 26-05-2014 01:20:00 13.9 C 9.83 g/m*3 13.9 C 0 km/h
300 26-05-2014 01:25:00 13.9 C 9.95 g/m*3 13.9 C 0 km/h
Sensor: Nr:Datum:Temp:Abs-Feuchte:Windchill:Wind:
Aussen-T/F 301 26-05-2014 01:30:00 13.8 C 9.89 g/m*3 13.8 C 0 km/h
302 26-05-2014 01:35:00 13.8 C 9.89 g/m*3 13.8 C 0 km/h
303 26-05-2014 01:40:00 13.7 C 9.71 g/m*3 13.7 C 0 km/h
304 26-05-2014 01:45:00 13.7 C 9.83 g/m*3 13.7 C 0 km/h
305 26-05-2014 01:50:00 13.7 C 9.95 g/m*3 13.7 C 0 km/h
306 26-05-2014 01:55:00 13.6 C 9.89 g/m*3 13.6 C 0 km/h
307 26-05-2014 02:00:00 13.5 C 9.83 g/m*3 13.5 C 0 km/h
308 26-05-2014 02:05:00 13.4 C 9.88 g/m*3 13.4 C 0 km/h
309 26-05-2014 02:10:00 13.4 C 10 g/m*3 13.4 C 0 km/h
310 26-05-2014 02:15:00 13.4 C 10 g/m*3 13.4 C 0 km/h
311 26-05-2014 02:20:00 13.3 C 9.82 g/m*3 13.3 C 0 km/h
312 26-05-2014 02:25:00 13.3 C 9.82 g/m*3 13.3 C 0 km/h
313 26-05-2014 02:30:00 13.3 C 9.82 g/m*3 13.3 C 0 km/h
314 26-05-2014 02:35:00 13.2 C 9.76 g/m*3 13.2 C 0 km/h
315 26-05-2014 02:40:00 13.2 C 9.87 g/m*3 13.2 C 0 km/h
316 26-05-2014 02:45:00 13.2 C 9.87 g/m*3 13.2 C 0 km/h
317 26-05-2014 02:50:00 13.2 C 9.87 g/m*3 13.2 C 0 km/h
318 26-05-2014 02:55:00 13.1 C 9.81 g/m*3 13.1 C 0 km/h
319 26-05-2014 03:00:00 13.1 C 9.81 g/m*3 13.1 C 0 km/h
320 26-05-2014 03:05:00 13.1 C 9.93 g/m*3 13.1 C 0 km/h
321 26-05-2014 03:10:00 13.1 C 9.93 g/m*3 13.1 C 0 km/h
322 26-05-2014 03:15:00 13 C 9.75 g/m*3 13 C 0 km/h
323 26-05-2014 03:20:00 13 C 9.75 g/m*3 13 C 0 km/h
324 26-05-2014 03:25:00 13 C 9.75 g/m*3 13 C 0 km/h
325 26-05-2014 03:30:00 13 C 9.87 g/m*3 13 C 0 km/h
Sensor: Nr:Datum:Temp:Abs-Feuchte:Windchill:Wind:
Aussen-T/F 326 26-05-2014 03:35:00 12.9 C 9.81 g/m*3 12.9 C 0 km/h
327 26-05-2014 03:40:00 12.9 C 9.81 g/m*3 12.9 C 0 km/h
328 26-05-2014 03:45:00 12.9 C 9.92 g/m*3 12.9 C 0 km/h
329 26-05-2014 03:50:00 12.8 C 9.74 g/m*3 12.8 C 0 km/h
330 26-05-2014 03:55:00 12.8 C 9.74 g/m*3 12.8 C 0 km/h
331 26-05-2014 04:00:00 12.8 C 9.86 g/m*3 12.8 C 0 km/h
332 26-05-2014 04:05:00 12.8 C 9.86 g/m*3 12.8 C 0 km/h
333 26-05-2014 04:10:00 12.8 C 9.86 g/m*3 12.8 C 0 km/h
334 26-05-2014 04:15:00 12.8 C 9.86 g/m*3 12.8 C 0 km/h
335 26-05-2014 04:20:00 12.8 C 9.86 g/m*3 12.8 C 0 km/h
336 26-05-2014 04:25:00 12.8 C 9.86 g/m*3 12.8 C 0 km/h
337 26-05-2014 04:30:00 12.8 C 9.86 g/m*3 12.8 C 0 km/h
338 26-05-2014 04:35:00 12.7 C 9.8 g/m*3 12.7 C 0 km/h
339 26-05-2014 04:40:00 12.8 C 9.86 g/m*3 12.8 C 0 km/h
340 26-05-2014 04:45:00 12.7 C 9.8 g/m*3 12.7 C 0 km/h
341 26-05-2014 04:50:00 12.8 C 9.97 g/m*3 12.8 C 0 km/h
342 26-05-2014 04:55:00 12.8 C 9.97 g/m*3 12.8 C 0 km/h
343 26-05-2014 05:00:00 12.8 C 9.86 g/m*3 12.8 C 0 km/h
344 26-05-2014 05:05:00 12.8 C 9.86 g/m*3 12.8 C 0 km/h
345 26-05-2014 05:10:00 12.8 C 9.86 g/m*3 12.8 C 0 km/h
346 26-05-2014 05:15:00 12.9 C 9.92 g/m*3 12.9 C 0 km/h
347 26-05-2014 05:20:00 13 C 9.98 g/m*3 13 C 0 km/h
348 26-05-2014 05:25:00 13.1 C 10.04 g/m*3 13.1 C 0 km/h
349 26-05-2014 05:30:00 13.1 C 10.04 g/m*3 13.1 C 0 km/h
350 26-05-2014 05:35:00 13.2 C 10.1 g/m*3 13.2 C 0 km/h
Sensor: Nr:Datum:Temp:Abs-Feuchte:Windchill:Wind:
Aussen-T/F 351 26-05-2014 05:40:00 13.2 C 10.1 g/m*3 13.2 C 0 km/h
352 26-05-2014 05:45:00 13.2 C 10.1 g/m*3 13.2 C 0 km/h
353 26-05-2014 05:50:00 13.2 C 10.1 g/m*3 13.2 C 0 km/h
354 26-05-2014 05:55:00 13.2 C 10.1 g/m*3 13.2 C 0 km/h
355 26-05-2014 06:00:00 13.2 C 10.1 g/m*3 13.2 C 0 km/h
356 26-05-2014 06:05:00 13.2 C 10.1 g/m*3 13.2 C 0 km/h
357 26-05-2014 06:10:00 13.2 C 10.22 g/m*3 13.2 C 0 km/h
358 26-05-2014 06:15:00 13.2 C 10.22 g/m*3 13.2 C 0 km/h
359 26-05-2014 06:20:00 13.2 C 10.22 g/m*3 13.2 C 0 km/h
360 26-05-2014 06:25:00 13.2 C 10.22 g/m*3 13.2 C 0 km/h
361 26-05-2014 06:30:00 13.2 C 10.22 g/m*3 13.2 C 0 km/h
362 26-05-2014 06:35:00 13.2 C 10.22 g/m*3 13.2 C 0 km/h
363 26-05-2014 06:40:00 13.2 C 10.22 g/m*3 13.2 C 0 km/h
364 26-05-2014 06:45:00 13.3 C 10.28 g/m*3 13.3 C 0 km/h
365 26-05-2014 06:50:00 13.3 C 10.28 g/m*3 13.3 C 0 km/h
366 26-05-2014 06:55:00 13.3 C 10.4 g/m*3 13.3 C 0 km/h
367 26-05-2014 07:00:00 13.3 C 10.4 g/m*3 13.3 C 0 km/h
368 26-05-2014 07:05:00 13.3 C 10.4 g/m*3 13.3 C 0 km/h
369 26-05-2014 07:10:00 13.3 C 10.4 g/m*3 13.3 C 0 km/h
370 26-05-2014 07:15:00 13.4 C 10.46 g/m*3 13.4 C 1.6 km/h
371 26-05-2014 07:20:00 13.4 C 10.46 g/m*3 13.4 C 0 km/h
372 26-05-2014 07:25:00 13.4 C 10.46 g/m*3 13.4 C 3.2 km/h
373 26-05-2014 07:30:00 13.5 C 10.53 g/m*3 13.5 C 3.2 km/h
374 26-05-2014 07:35:00 13.6 C 10.59 g/m*3 13.6 C 0 km/h
375 26-05-2014 07:40:00 13.7 C 10.66 g/m*3 13.7 C 0 km/h
Sensor: Nr:Datum:Temp:Abs-Feuchte:Windchill:Wind:
Aussen-T/F 376 26-05-2014 07:45:00 13.8 C 10.72 g/m*3 13.8 C 0 km/h
377 26-05-2014 07:50:00 13.8 C 10.72 g/m*3 13.8 C 0 km/h
378 26-05-2014 07:55:00 13.9 C 10.91 g/m*3 13.9 C 0 km/h
379 26-05-2014 08:00:00 14.1 C 11.04 g/m*3 14.1 C 0 km/h
380 26-05-2014 08:05:00 14.2 C 10.99 g/m*3 14.2 C 0 km/h
381 26-05-2014 08:10:00 14.3 C 11.06 g/m*3 14.3 C 0 km/h
382 26-05-2014 08:15:00 14.3 C 11.06 g/m*3 14.3 C 0 km/h
383 26-05-2014 08:20:00 14.4 C 11 g/m*3 14.4 C 0 km/h
384 26-05-2014 08:25:00 14.5 C 11.07 g/m*3 14.5 C 0 km/h
385 26-05-2014 08:30:00 14.6 C 11.14 g/m*3 14.6 C 0 km/h
386 26-05-2014 08:35:00 14.8 C 11.15 g/m*3 14.8 C 1.6 km/h
387 26-05-2014 08:40:00 15 C 11.16 g/m*3 15 C 1.6 km/h
388 26-05-2014 08:45:00 15.2 C 11.16 g/m*3 15.2 C 0 km/h
389 26-05-2014 08:50:00 15.4 C 11.43 g/m*3 15.4 C 1.6 km/h
390 26-05-2014 08:55:00 15.4 C 11.04 g/m*3 15.4 C 1.6 km/h
391 26-05-2014 09:00:00 15.5 C 11.37 g/m*3 15.5 C 0 km/h
392 26-05-2014 09:05:00 15.6 C 11.3 g/m*3 15.6 C 0 km/h
393 26-05-2014 09:10:00 15.6 C 11.17 g/m*3 15.6 C 0 km/h
394 26-05-2014 09:15:00 15.7 C 11.37 g/m*3 15.7 C 0 km/h
395 26-05-2014 09:20:00 15.7 C 11.11 g/m*3 15.7 C 1.6 km/h
396 26-05-2014 09:25:00 15.7 C 10.97 g/m*3 15.7 C 0 km/h
397 26-05-2014 09:30:00 15.8 C 11.31 g/m*3 15.8 C 0 km/h
398 26-05-2014 09:35:00 15.7 C 11.37 g/m*3 15.7 C 0 km/h
399 26-05-2014 09:40:00 15.7 C 11.51 g/m*3 15.7 C 0 km/h
400 26-05-2014 09:45:00 15.6 C 11.3 g/m*3 15.6 C 0 km/h
Sensor: Nr:Datum:Temp:Abs-Feuchte:Windchill:Wind:
Aussen-T/F 401 26-05-2014 09:50:00 15.6 C 11.44 g/m*3 15.6 C 0 km/h
402 26-05-2014 09:55:00 15.6 C 11.3 g/m*3 15.6 C 0 km/h
403 26-05-2014 10:00:00 15.8 C 11.17 g/m*3 15.8 C 1.6 km/h
404 26-05-2014 10:05:00 15.9 C 11.51 g/m*3 15.9 C 0 km/h
405 26-05-2014 10:10:00 15.9 C 11.51 g/m*3 15.9 C 0 km/h
406 26-05-2014 10:15:00 15.9 C 11.1 g/m*3 15.9 C 3.2 km/h
407 26-05-2014 10:20:00 16 C 11.17 g/m*3 16 C 1.6 km/h
408 26-05-2014 10:25:00 16.2 C 11.17 g/m*3 16.2 C 6.4 km/h
409 26-05-2014 10:30:00 16.4 C 11.31 g/m*3 16.4 C 4.8 km/h
410 26-05-2014 10:35:00 16.7 C 11.37 g/m*3 16.7 C 6.4 km/h
411 26-05-2014 10:40:00 16.9 C 11.22 g/m*3 16.9 C 6.4 km/h
412 26-05-2014 10:45:00 17 C 11.14 g/m*3 17 C 1.6 km/h
413 26-05-2014 10:50:00 17.2 C 11.42 g/m*3 17.2 C 4.8 km/h
414 26-05-2014 10:55:00 17.4 C 11.41 g/m*3 17.4 C 6.4 km/h
415 26-05-2014 11:00:00 17.5 C 11.48 g/m*3 17.5 C 8.1 km/h
416 26-05-2014 11:05:00 17.6 C 11.4 g/m*3 17.6 C 3.2 km/h
417 26-05-2014 11:10:00 17.7 C 11.47 g/m*3 17.7 C 6.4 km/h
418 26-05-2014 11:15:00 17.8 C 11.54 g/m*3 17.8 C 6.4 km/h
419 26-05-2014 11:20:00 17.9 C 11.3 g/m*3 17.9 C 6.4 km/h
420 26-05-2014 11:25:00 17.8 C 11.23 g/m*3 17.8 C 6.4 km/h
421 26-05-2014 11:30:00 17.8 C 11.23 g/m*3 17.8 C 6.4 km/h
422 26-05-2014 11:35:00 17.9 C 11.3 g/m*3 17.9 C 8.1 km/h
423 26-05-2014 11:40:00 18 C 11.37 g/m*3 18 C 8.1 km/h
424 26-05-2014 11:45:00 18 C 11.21 g/m*3 18 C 8.1 km/h
425 26-05-2014 11:50:00 18.1 C 11.59 g/m*3 18.1 C 9.7 km/h
Sensor: Nr:Datum:Temp:Abs-Feuchte:Windchill:Wind:
Aussen-T/F 426 26-05-2014 11:55:00 18.2 C 11.5 g/m*3 18.2 C 9.7 km/h
427 26-05-2014 12:00:00 18.3 C 11.73 g/m*3 18.3 C 6.4 km/h
428 26-05-2014 12:05:00 18.3 C 11.57 g/m*3 18.3 C 9.7 km/h
429 26-05-2014 12:10:00 18.3 C 11.73 g/m*3 18.3 C 6.4 km/h
430 26-05-2014 12:15:00 18.2 C 11.66 g/m*3 18.2 C 6.4 km/h
431 26-05-2014 12:20:00 18 C 11.37 g/m*3 18 C 6.4 km/h
432 26-05-2014 12:25:00 17.8 C 11.54 g/m*3 17.8 C 6.4 km/h
433 26-05-2014 12:30:00 17.7 C 11.47 g/m*3 17.7 C 4.8 km/h
434 26-05-2014 12:35:00 17.8 C 11.84 g/m*3 17.8 C 8.1 km/h
435 26-05-2014 12:40:00 17.9 C 11.91 g/m*3 17.9 C 6.4 km/h
436 26-05-2014 12:45:00 18.2 C 11.66 g/m*3 18.2 C 9.7 km/h
437 26-05-2014 12:50:00 18.5 C 12.34 g/m*3 18.5 C 11.3 km/h
438 26-05-2014 12:55:00 18.9 C 12.31 g/m*3 18.9 C 11.3 km/h
439 26-05-2014 13:00:00 19.3 C 12.44 g/m*3 19.3 C 9.7 km/h
440 26-05-2014 13:05:00 19.3 C 12.11 g/m*3 19.3 C 12.9 km/h
441 26-05-2014 13:10:00 19.6 C 12.83 g/m*3 19.6 C 12.9 km/h
442 26-05-2014 13:15:00 19.9 C 12.2 g/m*3 19.9 C 11.3 km/h
443 26-05-2014 13:20:00 19.8 C 12.3 g/m*3 19.8 C 9.7 km/h
444 26-05-2014 13:25:00 19.7 C 12.06 g/m*3 19.7 C 9.7 km/h
445 26-05-2014 13:30:00 19.9 C 12.2 g/m*3 19.9 C 8.1 km/h
446 26-05-2014 13:35:00 19.9 C 12.37 g/m*3 19.9 C 8.1 km/h
447 26-05-2014 13:40:00 19.8 C 11.96 g/m*3 19.8 C 8.1 km/h
448 26-05-2014 13:45:00 19.6 C 11.99 g/m*3 19.6 C 6.4 km/h
449 26-05-2014 13:50:00 19.6 C 12.15 g/m*3 19.6 C 4.8 km/h
450 26-05-2014 13:55:00 19.6 C 12.15 g/m*3 19.6 C 4.8 km/h
Sensor: Nr:Datum:Temp:Abs-Feuchte:Windchill:Wind:
Aussen-T/F 451 26-05-2014 14:00:00 19.6 C 11.99 g/m*3 19.6 C 4.8 km/h
452 26-05-2014 14:05:00 19.7 C 12.23 g/m*3 19.7 C 8.1 km/h
453 26-05-2014 14:10:00 19.8 C 12.3 g/m*3 19.8 C 9.7 km/h
454 26-05-2014 14:15:00 20.1 C 12.34 g/m*3 20.1 C 9.7 km/h
455 26-05-2014 14:20:00 20.3 C 12.49 g/m*3 20.3 C 8.1 km/h
456 26-05-2014 14:25:00 20.6 C 12.35 g/m*3 20.6 C 9.7 km/h
457 26-05-2014 14:30:00 20.7 C 12.24 g/m*3 20.7 C 8.1 km/h
458 26-05-2014 14:35:00 20.9 C 12.02 g/m*3 20.9 C 11.3 km/h
459 26-05-2014 14:40:00 20.9 C 12.2 g/m*3 20.9 C 12.9 km/h
460 26-05-2014 14:45:00 20.9 C 11.84 g/m*3 20.9 C 11.3 km/h
461 26-05-2014 14:50:00 20.7 C 11.88 g/m*3 20.7 C 14.5 km/h
462 26-05-2014 14:55:00 20.8 C 12.31 g/m*3 20.8 C 9.7 km/h
463 26-05-2014 15:00:00 21 C 12.46 g/m*3 21 C 9.7 km/h
464 26-05-2014 15:05:00 21.2 C 12.42 g/m*3 21.2 C 8.1 km/h
465 26-05-2014 15:10:00 21.2 C 11.86 g/m*3 21.2 C 3.2 km/h
466 26-05-2014 15:15:00 21.2 C 12.05 g/m*3 21.2 C 6.4 km/h
467 26-05-2014 15:20:00 21.1 C 11.98 g/m*3 21.1 C 8.1 km/h
468 26-05-2014 15:25:00 21 C 11.91 g/m*3 21 C 4.8 km/h
469 26-05-2014 15:30:00 21 C 11.91 g/m*3 21 C 4.8 km/h
470 26-05-2014 15:35:00 21.1 C 12.16 g/m*3 21.1 C 3.2 km/h
471 26-05-2014 15:40:00 21.1 C 12.16 g/m*3 21.1 C 6.4 km/h
472 26-05-2014 15:45:00 21.2 C 11.86 g/m*3 21.2 C 4.8 km/h
473 26-05-2014 15:50:00 21.6 C 12.52 g/m*3 21.6 C 4.8 km/h
474 26-05-2014 15:55:00 21.6 C 12.14 g/m*3 21.6 C 9.7 km/h
475 26-05-2014 16:00:00 21.5 C 12.07 g/m*3 21.5 C 6.4 km/h
Sensor: Nr:Datum:Temp:Abs-Feuchte:Windchill:Wind:
Aussen-T/F 476 26-05-2014 16:05:00 21.6 C 12.33 g/m*3 21.6 C 8.1 km/h
477 26-05-2014 16:10:00 21.7 C 12.21 g/m*3 21.7 C 6.4 km/h
478 26-05-2014 16:15:00 21.7 C 12.4 g/m*3 21.7 C 8.1 km/h
479 26-05-2014 16:20:00 21.9 C 11.96 g/m*3 21.9 C 8.1 km/h
480 26-05-2014 16:25:00 22.1 C 12.49 g/m*3 22.1 C 9.7 km/h
481 26-05-2014 16:30:00 22.1 C 12.3 g/m*3 22.1 C 8.1 km/h
482 26-05-2014 16:35:00 22.1 C 12.49 g/m*3 22.1 C 4.8 km/h
483 26-05-2014 16:40:00 22.1 C 11.91 g/m*3 22.1 C 1.6 km/h
484 26-05-2014 16:45:00 22 C 12.23 g/m*3 22 C 3.2 km/h
485 26-05-2014 16:50:00 21.8 C 12.28 g/m*3 21.8 C 4.8 km/h
486 26-05-2014 16:55:00 21.8 C 12.47 g/m*3 21.8 C 8.1 km/h
487 26-05-2014 17:00:00 21.8 C 12.66 g/m*3 21.8 C 4.8 km/h
488 26-05-2014 17:05:00 21.9 C 12.54 g/m*3 21.9 C 6.4 km/h
489 26-05-2014 17:10:00 21.9 C 12.35 g/m*3 21.9 C 6.4 km/h
490 26-05-2014 17:15:00 21.9 C 12.16 g/m*3 21.9 C 4.8 km/h
491 26-05-2014 17:20:00 21.8 C 12.47 g/m*3 21.8 C 6.4 km/h
492 26-05-2014 17:25:00 21.6 C 11.95 g/m*3 21.6 C 3.2 km/h
493 26-05-2014 17:30:00 21.5 C 12.63 g/m*3 21.5 C 3.2 km/h
494 26-05-2014 17:35:00 21.4 C 13.31 g/m*3 21.4 C 1.6 km/h
495 26-05-2014 17:40:00 21.3 C 12.12 g/m*3 21.3 C 4.8 km/h
496 26-05-2014 17:45:00 21.3 C 12.3 g/m*3 21.3 C 3.2 km/h
497 26-05-2014 17:50:00 21.4 C 12.19 g/m*3 21.4 C 3.2 km/h
498 26-05-2014 17:55:00 21.5 C 12.82 g/m*3 21.5 C 1.6 km/h
499 26-05-2014 18:00:00 21.4 C 13.12 g/m*3 21.4 C 3.2 km/h
500 26-05-2014 18:05:00 21.3 C 13.05 g/m*3 21.3 C 0 km/h
Sensor: Nr:Datum:Temp:Abs-Feuchte:Windchill:Wind:
Aussen-T/F 501 26-05-2014 18:10:00 21.2 C 13.53 g/m*3 21.2 C 0 km/h
502 26-05-2014 18:15:00 20.9 C 13.48 g/m*3 20.9 C 0 km/h
503 26-05-2014 18:20:00 20.6 C 13.6 g/m*3 20.6 C 0 km/h
504 26-05-2014 18:25:00 20.5 C 13.52 g/m*3 20.5 C 0 km/h
505 26-05-2014 18:30:00 20.4 C 12.56 g/m*3 20.4 C 6.4 km/h
506 26-05-2014 18:35:00 20.4 C 12.38 g/m*3 20.4 C 4.8 km/h
507 26-05-2014 18:40:00 20.6 C 12.71 g/m*3 20.6 C 4.8 km/h
508 26-05-2014 18:45:00 20.6 C 12.89 g/m*3 20.6 C 3.2 km/h
509 26-05-2014 18:50:00 20.6 C 12.71 g/m*3 20.6 C 4.8 km/h
510 26-05-2014 18:55:00 20.6 C 12.89 g/m*3 20.6 C 0 km/h
511 26-05-2014 19:00:00 20.4 C 12.91 g/m*3 20.4 C 0 km/h
512 26-05-2014 19:05:00 20.3 C 13.01 g/m*3 20.3 C 0 km/h
513 26-05-2014 19:10:00 20.2 C 12.94 g/m*3 20.2 C 0 km/h
514 26-05-2014 19:15:00 20.1 C 13.21 g/m*3 20.1 C 0 km/h
515 26-05-2014 19:20:00 19.9 C 13.4 g/m*3 19.9 C 0 km/h
516 26-05-2014 19:25:00 19.8 C 13.32 g/m*3 19.8 C 0 km/h
517 26-05-2014 19:30:00 19.6 C 13.17 g/m*3 19.6 C 0 km/h
518 26-05-2014 19:35:00 19.6 C 13.51 g/m*3 19.6 C 0 km/h
519 26-05-2014 19:40:00 19.5 C 12.92 g/m*3 19.5 C 0 km/h
520 26-05-2014 19:45:00 19.4 C 13.35 g/m*3 19.4 C 0 km/h
521 26-05-2014 19:50:00 19.4 C 12.85 g/m*3 19.4 C 0 km/h
522 26-05-2014 19:55:00 19.4 C 13.01 g/m*3 19.4 C 0 km/h
523 26-05-2014 20:00:00 19.4 C 13.35 g/m*3 19.4 C 1.6 km/h
524 26-05-2014 20:05:00 19.3 C 13.27 g/m*3 19.3 C 0 km/h
525 26-05-2014 20:10:00 19.2 C 13.19 g/m*3 19.2 C 0 km/h
Sensor: Nr:Datum:Temp:Abs-Feuchte:Windchill:Wind:
Aussen-T/F 526 26-05-2014 20:15:00 19.1 C 12.79 g/m*3 19.1 C 0 km/h
527 26-05-2014 20:20:00 18.9 C 12.8 g/m*3 18.9 C 0 km/h
528 26-05-2014 20:25:00 18.7 C 12.65 g/m*3 18.7 C 0 km/h
529 26-05-2014 20:30:00 18.6 C 12.89 g/m*3 18.6 C 1.6 km/h
530 26-05-2014 20:35:00 18.3 C 12.98 g/m*3 18.3 C 0 km/h
531 26-05-2014 20:40:00 18.1 C 12.82 g/m*3 18.1 C 1.6 km/h
532 26-05-2014 20:45:00 17.9 C 12.67 g/m*3 17.9 C 0 km/h
533 26-05-2014 20:50:00 17.7 C 12.52 g/m*3 17.7 C 0 km/h
534 26-05-2014 20:55:00 17.7 C 12.52 g/m*3 17.7 C 0 km/h
535 26-05-2014 21:00:00 17.7 C 12.52 g/m*3 17.7 C 3.2 km/h
536 26-05-2014 21:05:00 17.6 C 12.45 g/m*3 17.6 C 0 km/h
537 26-05-2014 21:10:00 17.5 C 12.52 g/m*3 17.5 C 0 km/h
538 26-05-2014 21:15:00 17.4 C 12.45 g/m*3 17.4 C 0 km/h
539 26-05-2014 21:20:00 17.3 C 12.52 g/m*3 17.3 C 0 km/h
540 26-05-2014 21:25:00 17.3 C 12.67 g/m*3 17.3 C 0 km/h
541 26-05-2014 21:30:00 17.3 C 12.67 g/m*3 17.3 C 0 km/h
542 26-05-2014 21:35:00 17.3 C 12.67 g/m*3 17.3 C 0 km/h
543 26-05-2014 21:40:00 17.3 C 12.67 g/m*3 17.3 C 0 km/h
544 26-05-2014 21:45:00 17.3 C 12.67 g/m*3 17.3 C 0 km/h
545 26-05-2014 21:50:00 17.3 C 12.67 g/m*3 17.3 C 0 km/h
546 26-05-2014 21:55:00 17.3 C 12.52 g/m*3 17.3 C 0 km/h
547 26-05-2014 22:00:00 17.3 C 12.52 g/m*3 17.3 C 0 km/h
548 26-05-2014 22:05:00 17.4 C 12.45 g/m*3 17.4 C 0 km/h
549 26-05-2014 22:10:00 17.4 C 12.45 g/m*3 17.4 C 1.6 km/h
550 26-05-2014 22:15:00 17.5 C 12.52 g/m*3 17.5 C 1.6 km/h
Sensor: Nr:Datum:Temp:Abs-Feuchte:Windchill:Wind:
Aussen-T/F 551 26-05-2014 22:20:00 17.6 C 12.6 g/m*3 17.6 C 0 km/h
552 26-05-2014 22:25:00 17.6 C 12.9 g/m*3 17.6 C 0 km/h
553 26-05-2014 22:30:00 17.4 C 12.89 g/m*3 17.4 C 0 km/h
554 26-05-2014 22:35:00 17.3 C 12.96 g/m*3 17.3 C 1.6 km/h
555 26-05-2014 22:40:00 17.2 C 13.03 g/m*3 17.2 C 0 km/h
556 26-05-2014 22:45:00 17.1 C 12.96 g/m*3 17.1 C 0 km/h
557 26-05-2014 22:50:00 16.9 C 12.94 g/m*3 16.9 C 1.6 km/h
558 26-05-2014 22:55:00 16.8 C 12.87 g/m*3 16.8 C 0 km/h
559 26-05-2014 23:00:00 16.8 C 13.01 g/m*3 16.8 C 1.6 km/h
560 26-05-2014 23:05:00 16.7 C 12.93 g/m*3 16.7 C 0 km/h
561 26-05-2014 23:10:00 16.7 C 13.07 g/m*3 16.7 C 4.8 km/h
562 26-05-2014 23:15:00 16.6 C 13 g/m*3 16.6 C 3.2 km/h
563 26-05-2014 23:20:00 16.6 C 13 g/m*3 16.6 C 0 km/h
564 26-05-2014 23:25:00 16.5 C 13.06 g/m*3 16.5 C 3.2 km/h
565 26-05-2014 23:30:00 16.4 C 12.98 g/m*3 16.4 C 0 km/h
566 26-05-2014 23:35:00 16.3 C 12.9 g/m*3 16.3 C 0 km/h
567 26-05-2014 23:40:00 16.3 C 13.04 g/m*3 16.3 C 1.6 km/h
568 26-05-2014 23:45:00 16.3 C 13.04 g/m*3 16.3 C 0 km/h
569 26-05-2014 23:50:00 16.2 C 12.96 g/m*3 16.2 C 1.6 km/h
570 26-05-2014 23:55:00 16.2 C 12.96 g/m*3 16.2 C 0 km/h
571 27-05-2014 00:00:00 16.2 C 12.96 g/m*3 16.2 C 0 km/h
572 27-05-2014 00:40:00 15.8 C 12.79 g/m*3 15.8 C 0 km/h
573 27-05-2014 00:45:00 15.8 C 12.79 g/m*3 15.8 C 0 km/h
574 27-05-2014 00:50:00 15.7 C 12.71 g/m*3 15.7 C 0 km/h
575 27-05-2014 00:55:00 15.7 C 12.71 g/m*3 15.7 C 0 km/h
Sensor: Nr:Datum:Temp:Abs-Feuchte:Windchill:Wind:
Aussen-T/F 576 27-05-2014 01:00:00 15.7 C 12.71 g/m*3 15.7 C 0 km/h
577 27-05-2014 01:05:00 15.7 C 12.84 g/m*3 15.7 C 0 km/h
578 27-05-2014 01:10:00 15.6 C 12.77 g/m*3 15.6 C 0 km/h
579 27-05-2014 01:15:00 15.6 C 12.77 g/m*3 15.6 C 0 km/h
580 27-05-2014 01:20:00 15.4 C 12.61 g/m*3 15.4 C 0 km/h
581 27-05-2014 01:25:00 15.3 C 12.41 g/m*3 15.3 C 0 km/h
582 27-05-2014 01:30:00 15.2 C 12.33 g/m*3 15.2 C 0 km/h
583 27-05-2014 01:35:00 15.2 C 12.46 g/m*3 15.2 C 0 km/h
584 27-05-2014 01:40:00 15.1 C 12.39 g/m*3 15.1 C 0 km/h
585 27-05-2014 01:45:00 15.1 C 12.39 g/m*3 15.1 C 0 km/h
586 27-05-2014 01:50:00 15 C 12.31 g/m*3 15 C 0 km/h
587 27-05-2014 01:55:00 14.9 C 12.24 g/m*3 14.9 C 0 km/h
588 27-05-2014 02:00:00 14.9 C 12.24 g/m*3 14.9 C 0 km/h
589 27-05-2014 02:05:00 14.9 C 12.24 g/m*3 14.9 C 0 km/h
590 27-05-2014 02:10:00 14.8 C 12.16 g/m*3 14.8 C 0 km/h
591 27-05-2014 02:15:00 14.8 C 12.16 g/m*3 14.8 C 0 km/h
592 27-05-2014 02:20:00 14.8 C 12.16 g/m*3 14.8 C 0 km/h
593 27-05-2014 02:25:00 14.8 C 12.16 g/m*3 14.8 C 0 km/h
594 27-05-2014 02:30:00 14.8 C 12.16 g/m*3 14.8 C 0 km/h
595 27-05-2014 02:35:00 14.8 C 12.29 g/m*3 14.8 C 0 km/h
596 27-05-2014 02:40:00 14.8 C 12.29 g/m*3 14.8 C 0 km/h
597 27-05-2014 02:45:00 14.8 C 12.29 g/m*3 14.8 C 0 km/h
598 27-05-2014 02:50:00 14.8 C 12.29 g/m*3 14.8 C 0 km/h
599 27-05-2014 02:55:00 14.8 C 12.29 g/m*3 14.8 C 0 km/h
600 27-05-2014 03:00:00 14.8 C 12.29 g/m*3 14.8 C 0 km/h
Sensor: Nr:Datum:Temp:Abs-Feuchte:Windchill:Wind:
Aussen-T/F 601 27-05-2014 03:05:00 14.8 C 12.16 g/m*3 14.8 C 0 km/h
602 27-05-2014 03:10:00 14.8 C 12.16 g/m*3 14.8 C 0 km/h
603 27-05-2014 03:15:00 14.8 C 12.29 g/m*3 14.8 C 0 km/h
604 27-05-2014 03:20:00 14.8 C 12.29 g/m*3 14.8 C 0 km/h
605 27-05-2014 03:25:00 14.7 C 12.21 g/m*3 14.7 C 0 km/h
606 27-05-2014 03:30:00 14.7 C 12.21 g/m*3 14.7 C 0 km/h
607 27-05-2014 03:35:00 14.7 C 12.21 g/m*3 14.7 C 0 km/h
608 27-05-2014 03:40:00 14.7 C 12.21 g/m*3 14.7 C 0 km/h
609 27-05-2014 03:45:00 14.7 C 12.21 g/m*3 14.7 C 0 km/h
610 27-05-2014 03:50:00 14.7 C 12.21 g/m*3 14.7 C 0 km/h
611 27-05-2014 03:55:00 14.7 C 12.21 g/m*3 14.7 C 0 km/h
612 27-05-2014 04:00:00 14.7 C 12.21 g/m*3 14.7 C 0 km/h
613 27-05-2014 04:05:00 14.7 C 12.21 g/m*3 14.7 C 0 km/h
614 27-05-2014 04:10:00 14.7 C 12.21 g/m*3 14.7 C 0 km/h
615 27-05-2014 04:15:00 14.7 C 12.21 g/m*3 14.7 C 0 km/h
616 27-05-2014 04:20:00 14.7 C 12.21 g/m*3 14.7 C 0 km/h
617 27-05-2014 04:25:00 14.7 C 12.21 g/m*3 14.7 C 0 km/h
618 27-05-2014 04:30:00 14.7 C 12.21 g/m*3 14.7 C 0 km/h
619 27-05-2014 04:35:00 14.7 C 12.21 g/m*3 14.7 C 0 km/h
620 27-05-2014 04:40:00 14.7 C 12.21 g/m*3 14.7 C 0 km/h
621 27-05-2014 04:45:00 14.7 C 12.21 g/m*3 14.7 C 0 km/h
622 27-05-2014 04:50:00 14.6 C 12.14 g/m*3 14.6 C 0 km/h
623 27-05-2014 04:55:00 14.6 C 12.14 g/m*3 14.6 C 0 km/h
624 27-05-2014 05:00:00 14.6 C 12.14 g/m*3 14.6 C 0 km/h
625 27-05-2014 05:05:00 14.6 C 12.14 g/m*3 14.6 C 0 km/h
Sensor: Nr:Datum:Temp:Abs-Feuchte:Windchill:Wind:
Aussen-T/F 626 27-05-2014 05:10:00 14.5 C 12.06 g/m*3 14.5 C 0 km/h
627 27-05-2014 05:15:00 14.5 C 12.06 g/m*3 14.5 C 0 km/h
628 27-05-2014 05:20:00 14.5 C 12.06 g/m*3 14.5 C 0 km/h
629 27-05-2014 05:25:00 14.5 C 12.06 g/m*3 14.5 C 0 km/h
630 27-05-2014 05:30:00 14.4 C 11.99 g/m*3 14.4 C 0 km/h
631 27-05-2014 05:35:00 14.4 C 11.99 g/m*3 14.4 C 0 km/h
632 27-05-2014 05:40:00 14.3 C 11.92 g/m*3 14.3 C 0 km/h
633 27-05-2014 05:45:00 14.3 C 11.92 g/m*3 14.3 C 0 km/h
634 27-05-2014 05:50:00 14.3 C 11.92 g/m*3 14.3 C 0 km/h
635 27-05-2014 05:55:00 14.3 C 11.92 g/m*3 14.3 C 0 km/h
636 27-05-2014 06:00:00 14.3 C 11.92 g/m*3 14.3 C 0 km/h
637 27-05-2014 06:05:00 14.3 C 11.92 g/m*3 14.3 C 0 km/h
638 27-05-2014 06:10:00 14.4 C 11.99 g/m*3 14.4 C 0 km/h
639 27-05-2014 06:15:00 14.4 C 11.99 g/m*3 14.4 C 0 km/h
640 27-05-2014 06:20:00 14.4 C 11.99 g/m*3 14.4 C 0 km/h
641 27-05-2014 06:25:00 14.4 C 11.99 g/m*3 14.4 C 0 km/h
642 27-05-2014 06:30:00 14.4 C 11.99 g/m*3 14.4 C 0 km/h
643 27-05-2014 06:35:00 14.5 C 12.06 g/m*3 14.5 C 0 km/h
644 27-05-2014 06:40:00 14.6 C 12.14 g/m*3 14.6 C 0 km/h
645 27-05-2014 06:45:00 14.6 C 12.14 g/m*3 14.6 C 0 km/h
646 27-05-2014 06:50:00 14.6 C 12.14 g/m*3 14.6 C 0 km/h
647 27-05-2014 06:55:00 14.7 C 12.34 g/m*3 14.7 C 0 km/h
648 27-05-2014 07:00:00 14.7 C 12.34 g/m*3 14.7 C 0 km/h
649 27-05-2014 07:05:00 14.7 C 12.34 g/m*3 14.7 C 0 km/h
650 27-05-2014 07:10:00 14.7 C 12.34 g/m*3 14.7 C 1.6 km/h
Sensor: Nr:Datum:Temp:Abs-Feuchte:Windchill:Wind:
Aussen-T/F 651 27-05-2014 07:15:00 14.8 C 12.41 g/m*3 14.8 C 1.6 km/h
652 27-05-2014 07:20:00 14.8 C 12.41 g/m*3 14.8 C 0 km/h
653 27-05-2014 07:25:00 14.9 C 12.49 g/m*3 14.9 C 3.2 km/h
654 27-05-2014 07:30:00 14.9 C 12.49 g/m*3 14.9 C 0 km/h
655 27-05-2014 07:35:00 14.9 C 12.49 g/m*3 14.9 C 1.6 km/h
656 27-05-2014 07:40:00 15 C 12.57 g/m*3 15 C 3.2 km/h
657 27-05-2014 07:45:00 15 C 12.57 g/m*3 15 C 1.6 km/h
658 27-05-2014 07:50:00 15 C 12.57 g/m*3 15 C 3.2 km/h
659 27-05-2014 07:55:00 15.1 C 12.64 g/m*3 15.1 C 3.2 km/h
660 27-05-2014 08:00:00 15 C 12.57 g/m*3 15 C 1.6 km/h
661 27-05-2014 08:05:00 14.9 C 12.49 g/m*3 14.9 C 1.6 km/h
662 27-05-2014 08:10:00 14.9 C 12.36 g/m*3 14.9 C 0 km/h
663 27-05-2014 08:15:00 14.9 C 12.36 g/m*3 14.9 C 1.6 km/h
664 27-05-2014 08:20:00 15 C 12.44 g/m*3 15 C 1.6 km/h
665 27-05-2014 08:25:00 14.9 C 12.36 g/m*3 14.9 C 8.1 km/h
666 27-05-2014 08:30:00 14.9 C 12.36 g/m*3 14.9 C 1.6 km/h
667 27-05-2014 08:35:00 15 C 12.44 g/m*3 15 C 0 km/h
668 27-05-2014 08:40:00 15.1 C 12.51 g/m*3 15.1 C 1.6 km/h
669 27-05-2014 08:45:00 15 C 12.44 g/m*3 15 C 1.6 km/h
670 27-05-2014 08:50:00 15 C 12.44 g/m*3 15 C 0 km/h
671 27-05-2014 08:55:00 14.9 C 12.36 g/m*3 14.9 C 8.1 km/h
672 27-05-2014 09:00:00 14.9 C 12.36 g/m*3 14.9 C 0 km/h
673 27-05-2014 09:05:00 14.8 C 12.29 g/m*3 14.8 C 1.6 km/h
674 27-05-2014 09:10:00 14.8 C 12.29 g/m*3 14.8 C 4.8 km/h
675 27-05-2014 09:15:00 14.8 C 12.29 g/m*3 14.8 C 6.4 km/h
Sensor: Nr:Datum:Temp:Abs-Feuchte:Windchill:Wind:
Aussen-T/F 676 27-05-2014 09:20:00 14.7 C 12.09 g/m*3 14.7 C 6.4 km/h
677 27-05-2014 09:25:00 14.7 C 12.09 g/m*3 14.7 C 3.2 km/h
678 27-05-2014 09:30:00 14.7 C 12.09 g/m*3 14.7 C 8.1 km/h
679 27-05-2014 09:35:00 14.7 C 12.09 g/m*3 14.7 C 8.1 km/h
680 27-05-2014 09:40:00 14.7 C 12.09 g/m*3 14.7 C 9.7 km/h
681 27-05-2014 09:45:00 14.7 C 12.09 g/m*3 14.7 C 8.1 km/h
682 27-05-2014 09:50:00 14.8 C 12.16 g/m*3 14.8 C 3.2 km/h
683 27-05-2014 09:55:00 14.8 C 12.16 g/m*3 14.8 C 3.2 km/h
684 27-05-2014 10:00:00 14.9 C 12.24 g/m*3 14.9 C 0 km/h
685 27-05-2014 10:05:00 14.8 C 12.03 g/m*3 14.8 C 3.2 km/h
686 27-05-2014 10:10:00 14.8 C 12.03 g/m*3 14.8 C 1.6 km/h
687 27-05-2014 10:15:00 14.8 C 12.03 g/m*3 14.8 C 9.7 km/h
688 27-05-2014 10:20:00 14.8 C 12.03 g/m*3 14.8 C 6.4 km/h
689 27-05-2014 10:25:00 14.8 C 12.03 g/m*3 14.8 C 1.6 km/h
690 27-05-2014 10:30:00 14.8 C 12.03 g/m*3 14.8 C 6.4 km/h
691 27-05-2014 10:35:00 14.9 C 12.11 g/m*3 14.9 C 4.8 km/h
692 27-05-2014 10:40:00 14.9 C 12.11 g/m*3 14.9 C 6.4 km/h
693 27-05-2014 10:45:00 15 C 12.18 g/m*3 15 C 4.8 km/h
694 27-05-2014 10:50:00 15.1 C 12.26 g/m*3 15.1 C 4.8 km/h
695 27-05-2014 10:55:00 15.2 C 12.33 g/m*3 15.2 C 4.8 km/h
696 27-05-2014 11:00:00 15.3 C 12.41 g/m*3 15.3 C 4.8 km/h
697 27-05-2014 11:05:00 15.4 C 12.48 g/m*3 15.4 C 1.6 km/h
698 27-05-2014 11:10:00 15.4 C 12.48 g/m*3 15.4 C 1.6 km/h
699 27-05-2014 11:15:00 15.4 C 12.35 g/m*3 15.4 C 3.2 km/h
700 27-05-2014 11:20:00 15.4 C 12.35 g/m*3 15.4 C 1.6 km/h
Sensor: Nr:Datum:Temp:Abs-Feuchte:Windchill:Wind:
Aussen-T/F 701 27-05-2014 11:25:00 15.4 C 12.22 g/m*3 15.4 C 3.2 km/h
702 27-05-2014 11:30:00 15.4 C 12.22 g/m*3 15.4 C 1.6 km/h
703 27-05-2014 11:35:00 15.4 C 12.35 g/m*3 15.4 C 0 km/h
704 27-05-2014 11:40:00 15.4 C 12.35 g/m*3 15.4 C 8.1 km/h
705 27-05-2014 11:45:00 15.4 C 12.35 g/m*3 15.4 C 1.6 km/h
706 27-05-2014 11:50:00 15.3 C 12.28 g/m*3 15.3 C 3.2 km/h
707 27-05-2014 11:55:00 15.2 C 12.2 g/m*3 15.2 C 3.2 km/h
708 27-05-2014 12:00:00 15.2 C 12.2 g/m*3 15.2 C 9.7 km/h
709 27-05-2014 12:05:00 15.2 C 12.07 g/m*3 15.2 C 6.4 km/h
710 27-05-2014 12:10:00 15.2 C 12.2 g/m*3 15.2 C 3.2 km/h
711 27-05-2014 12:15:00 15.2 C 12.2 g/m*3 15.2 C 3.2 km/h
712 27-05-2014 12:20:00 15.3 C 12.14 g/m*3 15.3 C 6.4 km/h
713 27-05-2014 12:25:00 15.4 C 12.22 g/m*3 15.4 C 4.8 km/h
714 27-05-2014 12:30:00 15.6 C 12.23 g/m*3 15.6 C 6.4 km/h
715 27-05-2014 12:35:00 15.7 C 12.18 g/m*3 15.7 C 12.9 km/h
716 27-05-2014 12:40:00 15.8 C 12.25 g/m*3 15.8 C 4.8 km/h
717 27-05-2014 12:45:00 15.9 C 12.32 g/m*3 15.9 C 14.5 km/h
718 27-05-2014 12:50:00 16.1 C 12.47 g/m*3 16.1 C 4.8 km/h
719 27-05-2014 12:55:00 16.3 C 12.49 g/m*3 16.3 C 3.2 km/h
720 27-05-2014 13:00:00 16.6 C 12.71 g/m*3 16.6 C 3.2 km/h
721 27-05-2014 13:05:00 16.9 C 13.09 g/m*3 16.9 C 9.7 km/h
722 27-05-2014 13:10:00 17.2 C 13.18 g/m*3 17.2 C 6.4 km/h
723 27-05-2014 13:15:00 17.3 C 12.82 g/m*3 17.3 C 6.4 km/h
724 27-05-2014 13:20:00 17.5 C 12.97 g/m*3 17.5 C 14.5 km/h
725 27-05-2014 13:25:00 17.6 C 12.6 g/m*3 17.6 C 11.3 km/h
Sensor: Nr:Datum:Temp:Abs-Feuchte:Windchill:Wind:
Aussen-T/F 726 27-05-2014 13:30:00 17.6 C 12.75 g/m*3 17.6 C 4.8 km/h
727 27-05-2014 13:35:00 17.6 C 12.75 g/m*3 17.6 C 8.1 km/h
728 27-05-2014 13:40:00 17.6 C 12.75 g/m*3 17.6 C 4.8 km/h
729 27-05-2014 13:45:00 17.6 C 12.75 g/m*3 17.6 C 1.6 km/h
730 27-05-2014 14:10:00 18.4 C 15.73 g/m*3 18.4 C 9.7 km/h
731 27-05-2014 14:15:00 18.4 C 15.73 g/m*3 18.4 C 9.7 km/h
732 27-05-2014 15:30:00 16.5 C 11.8 g/m*3 16.5 C 6.4 km/h
733 27-05-2014 15:35:00 16.5 C 11.8 g/m*3 16.5 C 3.2 km/h
734 27-05-2014 15:40:00 16.3 C 11.65 g/m*3 16.3 C 12.9 km/h
735 27-05-2014 15:45:00 16.3 C 11.65 g/m*3 16.3 C 3.2 km/h
736 27-05-2014 15:50:00 16.3 C 11.65 g/m*3 16.3 C 1.6 km/h
737 27-05-2014 15:55:00 16.3 C 11.65 g/m*3 16.3 C 3.2 km/h
738 27-05-2014 16:00:00 16.2 C 11.58 g/m*3 16.2 C 6.4 km/h
739 27-05-2014 16:05:00 16.2 C 11.58 g/m*3 16.2 C 3.2 km/h
740 27-05-2014 16:10:00 16.2 C 11.58 g/m*3 16.2 C 1.6 km/h
741 27-05-2014 16:15:00 16.2 C 11.86 g/m*3 16.2 C 1.6 km/h
742 27-05-2014 16:20:00 16.2 C 11.86 g/m*3 16.2 C 1.6 km/h
743 27-05-2014 17:00:00 15.4 C 12.22 g/m*3 15.4 C 3.2 km/h
744 27-05-2014 17:05:00 15.3 C 12.28 g/m*3 15.3 C 1.6 km/h
745 27-05-2014 17:10:00 15.3 C 12.28 g/m*3 15.3 C 1.6 km/h
746 27-05-2014 17:15:00 15.3 C 12.28 g/m*3 15.3 C 1.6 km/h
747 27-05-2014 17:35:00 15.3 C 12.41 g/m*3 15.3 C 3.2 km/h
748 27-05-2014 17:40:00 15.3 C 12.28 g/m*3 15.3 C 1.6 km/h
749 27-05-2014 17:45:00 15.3 C 12.28 g/m*3 15.3 C 3.2 km/h
750 27-05-2014 18:10:00 16.4 C 13.96 g/m*3 16.4 C 11.3 km/h
Sensor: Nr:Datum:Temp:Abs-Feuchte:Windchill:Wind:
Aussen-T/F 751 27-05-2014 18:15:00 16.4 C 13.96 g/m*3 16.4 C 4.8 km/h
752 27-05-2014 18:20:00 16.4 C 13.96 g/m*3 16.4 C 8.1 km/h
753 27-05-2014 18:25:00 16.4 C 13.96 g/m*3 16.4 C 4.8 km/h
754 27-05-2014 19:35:00 15.3 C 13.06 g/m*3 15.3 C 0 km/h
755 27-05-2014 19:40:00 15.4 C 12.61 g/m*3 15.4 C 0 km/h
756 27-05-2014 19:45:00 15.4 C 12.61 g/m*3 15.4 C 0 km/h
757 27-05-2014 19:50:00 15.4 C 12.61 g/m*3 15.4 C 0 km/h
758 27-05-2014 19:55:00 15.4 C 12.61 g/m*3 15.4 C 0 km/h
759 27-05-2014 20:00:00 15.4 C 12.61 g/m*3 15.4 C 0 km/h
760 27-05-2014 20:05:00 15.4 C 12.61 g/m*3 15.4 C 0 km/h
761 27-05-2014 20:10:00 15.3 C 12.54 g/m*3 15.3 C 0 km/h
762 27-05-2014 20:15:00 15.3 C 12.54 g/m*3 15.3 C 0 km/h
763 27-05-2014 20:20:00 15.3 C 12.54 g/m*3 15.3 C 0 km/h
764 27-05-2014 20:25:00 15.2 C 12.46 g/m*3 15.2 C 1.6 km/h
765 27-05-2014 20:30:00 15.1 C 12.39 g/m*3 15.1 C 0 km/h
766 27-05-2014 20:35:00 14.9 C 12.11 g/m*3 14.9 C 4.8 km/h
767 27-05-2014 20:40:00 14.8 C 11.78 g/m*3 14.8 C 6.4 km/h
768 27-05-2014 20:45:00 14.8 C 11.65 g/m*3 14.8 C 3.2 km/h
769 27-05-2014 20:50:00 14.8 C 11.53 g/m*3 14.8 C 3.2 km/h
770 27-05-2014 20:55:00 14.8 C 11.65 g/m*3 14.8 C 3.2 km/h
771 27-05-2014 21:00:00 14.8 C 11.65 g/m*3 14.8 C 1.6 km/h
772 27-05-2014 21:05:00 14.6 C 11.51 g/m*3 14.6 C 1.6 km/h
773 27-05-2014 21:10:00 14.6 C 11.51 g/m*3 14.6 C 3.2 km/h
774 27-05-2014 21:15:00 14.5 C 11.32 g/m*3 14.5 C 3.2 km/h
775 27-05-2014 21:20:00 14.5 C 11.32 g/m*3 14.5 C 4.8 km/h
Sensor: Nr:Datum:Temp:Abs-Feuchte:Windchill:Wind:
Aussen-T/F 776 27-05-2014 21:25:00 14.6 C 11.26 g/m*3 14.6 C 1.6 km/h
777 27-05-2014 21:30:00 14.6 C 11.51 g/m*3 14.6 C 1.6 km/h
778 27-05-2014 21:35:00 14.4 C 11.37 g/m*3 14.4 C 1.6 km/h
779 27-05-2014 21:40:00 14.4 C 11.25 g/m*3 14.4 C 6.4 km/h
780 27-05-2014 21:45:00 14.4 C 11.25 g/m*3 14.4 C 8.1 km/h
781 27-05-2014 21:50:00 14.4 C 11.25 g/m*3 14.4 C 6.4 km/h
782 28-05-2014 10:35:00 15.6 C 13.3 g/m*3 15.6 C 9.7 km/h
783 28-05-2014 10:40:00 15.6 C 13.3 g/m*3 15.6 C 8.1 km/h
784 28-05-2014 10:45:00 15.6 C 13.3 g/m*3 15.6 C 6.4 km/h
785 28-05-2014 10:50:00 15.6 C 13.3 g/m*3 15.6 C 3.2 km/h
786 28-05-2014 10:55:00 15.6 C 13.3 g/m*3 15.6 C 6.4 km/h
787 28-05-2014 11:00:00 15.6 C 13.3 g/m*3 15.6 C 9.7 km/h
788 28-05-2014 11:05:00 15.6 C 13.3 g/m*3 15.6 C 6.4 km/h
789 28-05-2014 17:30:00 16.7 C 10.37 g/m*3 16.7 C 3.2 km/h
790 28-05-2014 17:35:00 16.4 C 11.58 g/m*3 16.4 C 0 km/h
791 28-05-2014 17:40:00 16.3 C 11.65 g/m*3 16.3 C 0 km/h
792 28-05-2014 17:45:00 16.2 C 11.31 g/m*3 16.2 C 0 km/h
793 28-05-2014 17:50:00 16.2 C 11.17 g/m*3 16.2 C 0 km/h
794 28-05-2014 17:55:00 16.3 C 11.65 g/m*3 16.3 C 0 km/h
795 28-05-2014 18:00:00 16.4 C 11.58 g/m*3 16.4 C 0 km/h
796 28-05-2014 18:05:00 16.6 C 11.44 g/m*3 16.6 C 0 km/h
797 28-05-2014 18:10:00 16.8 C 11.29 g/m*3 16.8 C 0 km/h
798 28-05-2014 18:15:00 17.1 C 11.21 g/m*3 17.1 C 0 km/h
799 28-05-2014 18:20:00 17.2 C 11.57 g/m*3 17.2 C 0 km/h
800 28-05-2014 18:25:00 17.2 C 11.86 g/m*3 17.2 C 0 km/h
Sensor: Nr:Datum:Temp:Abs-Feuchte:Windchill:Wind:
Aussen-T/F 801 28-05-2014 18:30:00 17.1 C 11.06 g/m*3 17.1 C 0 km/h
802 28-05-2014 18:35:00 17.1 C 11.79 g/m*3 17.1 C 0 km/h
803 28-05-2014 18:40:00 16.9 C 11.65 g/m*3 16.9 C 0 km/h
804 28-05-2014 18:45:00 16.7 C 11.94 g/m*3 16.7 C 1.6 km/h
805 28-05-2014 18:50:00 16.4 C 11.86 g/m*3 16.4 C 1.6 km/h
806 28-05-2014 18:55:00 16.3 C 11.79 g/m*3 16.3 C 0 km/h
807 28-05-2014 19:00:00 16.3 C 11.79 g/m*3 16.3 C 0 km/h
808 28-05-2014 19:05:00 16.3 C 11.65 g/m*3 16.3 C 0 km/h
809 28-05-2014 19:10:00 16.2 C 11.72 g/m*3 16.2 C 0 km/h
810 28-05-2014 19:15:00 16.1 C 11.79 g/m*3 16.1 C 1.6 km/h
811 28-05-2014 19:20:00 16.1 C 11.65 g/m*3 16.1 C 0 km/h
812 28-05-2014 19:25:00 16.1 C 11.65 g/m*3 16.1 C 0 km/h
813 28-05-2014 19:30:00 16.2 C 11.86 g/m*3 16.2 C 0 km/h
814 28-05-2014 19:35:00 16.2 C 11.45 g/m*3 16.2 C 0 km/h
815 28-05-2014 19:40:00 16.2 C 11.58 g/m*3 16.2 C 0 km/h
816 28-05-2014 19:45:00 16.1 C 11.51 g/m*3 16.1 C 1.6 km/h
817 28-05-2014 19:50:00 16 C 10.63 g/m*3 16 C 3.2 km/h
818 28-05-2014 19:55:00 16.1 C 11.38 g/m*3 16.1 C 0 km/h
819 28-05-2014 20:00:00 16.1 C 11.65 g/m*3 16.1 C 3.2 km/h
820 28-05-2014 20:05:00 15.9 C 11.38 g/m*3 15.9 C 0 km/h
821 28-05-2014 20:10:00 15.7 C 11.37 g/m*3 15.7 C 1.6 km/h
822 28-05-2014 20:15:00 15.6 C 11.44 g/m*3 15.6 C 0 km/h
823 28-05-2014 20:20:00 15.3 C 11.36 g/m*3 15.3 C 0 km/h
824 28-05-2014 20:25:00 15.2 C 11.16 g/m*3 15.2 C 1.6 km/h
825 28-05-2014 20:30:00 15.2 C 11.42 g/m*3 15.2 C 1.6 km/h
Sensor: Nr:Datum:Temp:Abs-Feuchte:Windchill:Wind:
Aussen-T/F 826 28-05-2014 20:35:00 15.2 C 11.42 g/m*3 15.2 C 0 km/h
827 28-05-2014 20:40:00 15.1 C 11.48 g/m*3 15.1 C 0 km/h
828 28-05-2014 20:45:00 14.9 C 11.34 g/m*3 14.9 C 0 km/h
829 28-05-2014 20:50:00 14.7 C 11.21 g/m*3 14.7 C 0 km/h
830 28-05-2014 20:55:00 14.5 C 11.07 g/m*3 14.5 C 0 km/h
831 28-05-2014 21:00:00 14.3 C 10.93 g/m*3 14.3 C 0 km/h
832 28-05-2014 21:05:00 14.1 C 10.8 g/m*3 14.1 C 0 km/h
833 28-05-2014 21:10:00 13.9 C 10.67 g/m*3 13.9 C 0 km/h
834 28-05-2014 21:15:00 13.7 C 10.54 g/m*3 13.7 C 1.6 km/h
835 28-05-2014 21:20:00 13.6 C 10.59 g/m*3 13.6 C 0 km/h
836 28-05-2014 21:25:00 13.4 C 10.46 g/m*3 13.4 C 0 km/h
837 28-05-2014 21:30:00 13.3 C 10.51 g/m*3 13.3 C 1.6 km/h
838 28-05-2014 21:35:00 13.2 C 10.33 g/m*3 13.2 C 1.6 km/h
839 28-05-2014 21:40:00 13.1 C 10.27 g/m*3 13.1 C 0 km/h
840 28-05-2014 21:45:00 13.1 C 10.27 g/m*3 13.1 C 0 km/h
841 28-05-2014 21:50:00 13 C 10.32 g/m*3 13 C 0 km/h
842 28-05-2014 21:55:00 12.9 C 10.26 g/m*3 12.9 C 0 km/h
843 28-05-2014 22:00:00 12.9 C 10.37 g/m*3 12.9 C 0 km/h
844 28-05-2014 22:05:00 12.8 C 10.3 g/m*3 12.8 C 0 km/h
845 28-05-2014 22:10:00 12.8 C 10.3 g/m*3 12.8 C 0 km/h
846 28-05-2014 22:15:00 12.7 C 10.24 g/m*3 12.7 C 0 km/h
847 28-05-2014 22:20:00 12.6 C 10.18 g/m*3 12.6 C 0 km/h
848 28-05-2014 22:25:00 12.6 C 10.18 g/m*3 12.6 C 0 km/h
849 28-05-2014 22:30:00 12.5 C 10.11 g/m*3 12.5 C 0 km/h
850 28-05-2014 22:35:00 12.4 C 10.05 g/m*3 12.4 C 0 km/h
Sensor: Nr:Datum:Temp:Abs-Feuchte:Windchill:Wind:
Aussen-T/F 851 28-05-2014 22:40:00 12.4 C 10.16 g/m*3 12.4 C 0 km/h
852 28-05-2014 22:45:00 12.3 C 10.1 g/m*3 12.3 C 0 km/h
853 28-05-2014 22:50:00 12.3 C 9.99 g/m*3 12.3 C 0 km/h
854 28-05-2014 22:55:00 12.2 C 9.93 g/m*3 12.2 C 0 km/h
855 28-05-2014 23:00:00 12.1 C 9.87 g/m*3 12.1 C 0 km/h
856 28-05-2014 23:05:00 12.1 C 9.87 g/m*3 12.1 C 0 km/h
857 28-05-2014 23:10:00 11.9 C 9.74 g/m*3 11.9 C 0 km/h
858 28-05-2014 23:15:00 11.9 C 9.85 g/m*3 11.9 C 0 km/h
859 28-05-2014 23:20:00 11.8 C 9.79 g/m*3 11.8 C 0 km/h
860 28-05-2014 23:25:00 11.8 C 9.79 g/m*3 11.8 C 0 km/h
861 28-05-2014 23:30:00 11.7 C 9.73 g/m*3 11.7 C 0 km/h
862 28-05-2014 23:35:00 11.7 C 9.83 g/m*3 11.7 C 0 km/h
863 28-05-2014 23:40:00 11.6 C 9.67 g/m*3 11.6 C 0 km/h
864 28-05-2014 23:45:00 11.5 C 9.71 g/m*3 11.5 C 0 km/h
865 28-05-2014 23:50:00 11.4 C 9.65 g/m*3 11.4 C 0 km/h
866 28-05-2014 23:55:00 11.4 C 9.65 g/m*3 11.4 C 0 km/h
867 29-05-2014 00:00:00 11.4 C 9.65 g/m*3 11.4 C 0 km/h
868 29-05-2014 00:05:00 11.4 C 9.65 g/m*3 11.4 C 0 km/h
869 29-05-2014 00:10:00 11.3 C 9.59 g/m*3 11.3 C 0 km/h
870 29-05-2014 00:15:00 11.2 C 9.53 g/m*3 11.2 C 0 km/h
871 29-05-2014 00:20:00 11.1 C 9.47 g/m*3 11.1 C 0 km/h
872 29-05-2014 00:25:00 11.1 C 9.57 g/m*3 11.1 C 0 km/h
873 29-05-2014 00:30:00 11.1 C 9.57 g/m*3 11.1 C 0 km/h
874 29-05-2014 00:35:00 11.1 C 9.57 g/m*3 11.1 C 0 km/h
875 29-05-2014 00:40:00 11.1 C 9.57 g/m*3 11.1 C 0 km/h
Sensor: Nr:Datum:Temp:Abs-Feuchte:Windchill:Wind:
Aussen-T/F 876 29-05-2014 00:45:00 11.1 C 9.57 g/m*3 11.1 C 0 km/h
877 29-05-2014 00:50:00 11.1 C 9.57 g/m*3 11.1 C 0 km/h
878 29-05-2014 00:55:00 11 C 9.51 g/m*3 11 C 0 km/h
879 29-05-2014 01:00:00 10.9 C 9.45 g/m*3 10.9 C 0 km/h
880 29-05-2014 01:05:00 10.9 C 9.45 g/m*3 10.9 C 0 km/h
881 29-05-2014 01:10:00 10.8 C 9.39 g/m*3 10.8 C 0 km/h
882 29-05-2014 01:15:00 10.8 C 9.39 g/m*3 10.8 C 0 km/h
883 29-05-2014 01:20:00 10.7 C 9.33 g/m*3 10.7 C 0 km/h
884 29-05-2014 01:25:00 10.7 C 9.33 g/m*3 10.7 C 1.6 km/h
885 29-05-2014 01:30:00 10.6 C 9.27 g/m*3 10.6 C 0 km/h
886 29-05-2014 01:35:00 10.6 C 9.27 g/m*3 10.6 C 0 km/h
887 29-05-2014 01:40:00 10.5 C 9.21 g/m*3 10.5 C 0 km/h
888 29-05-2014 01:45:00 10.4 C 9.25 g/m*3 10.4 C 0 km/h
889 29-05-2014 01:50:00 10.4 C 9.16 g/m*3 10.4 C 0 km/h
890 29-05-2014 01:55:00 10.3 C 9.19 g/m*3 10.3 C 1.6 km/h
891 29-05-2014 02:00:00 10.3 C 9.19 g/m*3 10.3 C 1.6 km/h
892 29-05-2014 02:05:00 10.3 C 9.19 g/m*3 10.3 C 0 km/h
893 29-05-2014 02:10:00 10.3 C 9.19 g/m*3 10.3 C 0 km/h
894 29-05-2014 02:15:00 10.2 C 9.14 g/m*3 10.2 C 0 km/h
895 29-05-2014 02:20:00 10.2 C 9.14 g/m*3 10.2 C 0 km/h
896 29-05-2014 02:25:00 10.1 C 9.08 g/m*3 10.1 C 0 km/h
897 29-05-2014 02:30:00 10.2 C 9.14 g/m*3 10.2 C 0 km/h
898 29-05-2014 02:35:00 10.1 C 9.08 g/m*3 10.1 C 0 km/h
899 29-05-2014 02:40:00 10.1 C 9.08 g/m*3 10.1 C 0 km/h
900 29-05-2014 02:45:00 10.1 C 9.08 g/m*3 10.1 C 0 km/h
Sensor: Nr:Datum:Temp:Abs-Feuchte:Windchill:Wind:
Aussen-T/F 901 29-05-2014 02:50:00 9.9 C 8.96 g/m*3 9.9 C 0 km/h
902 29-05-2014 02:55:00 9.9 C 8.96 g/m*3 9.9 C 0 km/h
903 29-05-2014 03:00:00 9.9 C 8.96 g/m*3 9.9 C 0 km/h
904 29-05-2014 03:05:00 9.9 C 8.96 g/m*3 9.9 C 0 km/h
905 29-05-2014 03:10:00 9.9 C 8.96 g/m*3 9.9 C 0 km/h
906 29-05-2014 03:15:00 9.9 C 8.96 g/m*3 9.9 C 0 km/h
907 29-05-2014 03:20:00 9.9 C 8.96 g/m*3 9.9 C 0 km/h
908 29-05-2014 03:25:00 9.9 C 8.96 g/m*3 9.9 C 0 km/h
909 29-05-2014 03:30:00 9.9 C 8.96 g/m*3 9.9 C 0 km/h
910 29-05-2014 03:35:00 9.9 C 8.96 g/m*3 9.9 C 0 km/h
911 29-05-2014 03:40:00 9.8 C 8.91 g/m*3 9.8 C 0 km/h
912 29-05-2014 03:45:00 9.8 C 8.91 g/m*3 9.8 C 0 km/h
913 29-05-2014 03:50:00 9.7 C 8.85 g/m*3 9.7 C 0 km/h
914 29-05-2014 03:55:00 9.6 C 8.79 g/m*3 9.6 C 0 km/h
915 29-05-2014 04:00:00 9.6 C 8.79 g/m*3 9.6 C 0 km/h
916 29-05-2014 04:05:00 9.6 C 8.79 g/m*3 9.6 C 0 km/h
917 29-05-2014 04:10:00 9.5 C 8.74 g/m*3 9.5 C 0 km/h
918 29-05-2014 04:15:00 9.6 C 8.89 g/m*3 9.6 C 0 km/h
919 29-05-2014 04:20:00 9.7 C 8.94 g/m*3 9.7 C 0 km/h
920 29-05-2014 04:25:00 9.8 C 9 g/m*3 9.8 C 0 km/h
921 29-05-2014 04:30:00 9.8 C 9 g/m*3 9.8 C 3.2 km/h
922 29-05-2014 04:35:00 9.9 C 9.06 g/m*3 9.9 C 0 km/h
923 29-05-2014 04:40:00 9.9 C 9.06 g/m*3 9.9 C 4.8 km/h
924 29-05-2014 04:45:00 9.9 C 9.06 g/m*3 9.9 C 0 km/h
925 29-05-2014 04:50:00 9.8 C 8.91 g/m*3 9.8 C 1.6 km/h
Sensor: Nr:Datum:Temp:Abs-Feuchte:Windchill:Wind:
Aussen-T/F 926 29-05-2014 04:55:00 9.7 C 8.94 g/m*3 9.7 C 1.6 km/h
927 29-05-2014 05:00:00 9.7 C 8.94 g/m*3 9.7 C 1.6 km/h
928 29-05-2014 05:05:00 9.7 C 8.85 g/m*3 9.7 C 0 km/h
929 29-05-2014 05:10:00 9.6 C 8.79 g/m*3 9.6 C 0 km/h
930 29-05-2014 05:15:00 9.6 C 8.79 g/m*3 9.6 C 1.6 km/h
931 29-05-2014 05:20:00 9.6 C 8.79 g/m*3 9.6 C 0 km/h
932 29-05-2014 05:25:00 9.6 C 8.79 g/m*3 9.6 C 0 km/h
933 29-05-2014 05:30:00 9.4 C 8.68 g/m*3 9.4 C 0 km/h
934 29-05-2014 05:35:00 9.4 C 8.77 g/m*3 9.4 C 0 km/h
935 29-05-2014 05:40:00 9.4 C 8.77 g/m*3 8.28 C 8.1 km/h
936 29-05-2014 05:45:00 9.4 C 8.77 g/m*3 9.4 C 3.2 km/h
937 29-05-2014 05:50:00 9.4 C 8.77 g/m*3 9.4 C 4.8 km/h
938 29-05-2014 05:55:00 9.4 C 8.77 g/m*3 9.4 C 1.6 km/h
939 29-05-2014 06:00:00 9.5 C 8.83 g/m*3 9.5 C 4.8 km/h
940 29-05-2014 06:05:00 9.5 C 8.83 g/m*3 9.5 C 4.8 km/h
941 29-05-2014 06:10:00 9.4 C 8.77 g/m*3 9.4 C 0 km/h
942 29-05-2014 06:15:00 9.4 C 8.77 g/m*3 9.4 C 3.2 km/h
943 29-05-2014 06:20:00 9.4 C 8.77 g/m*3 9.4 C 4.8 km/h
944 29-05-2014 06:25:00 9.5 C 8.83 g/m*3 8.09 C 9.7 km/h
945 29-05-2014 06:30:00 9.5 C 8.83 g/m*3 9.5 C 1.6 km/h
946 29-05-2014 06:35:00 9.6 C 8.89 g/m*3 9.6 C 3.2 km/h
947 29-05-2014 06:40:00 9.6 C 8.89 g/m*3 9.6 C 4.8 km/h
948 29-05-2014 06:45:00 9.6 C 8.89 g/m*3 9.6 C 4.8 km/h
949 29-05-2014 06:50:00 9.6 C 8.89 g/m*3 9.6 C 3.2 km/h
950 29-05-2014 06:55:00 9.7 C 8.94 g/m*3 9.7 C 3.2 km/h
Sensor: Nr:Datum:Temp:Abs-Feuchte:Windchill:Wind:
Aussen-T/F 951 29-05-2014 07:00:00 9.6 C 8.89 g/m*3 9.6 C 4.8 km/h
952 29-05-2014 07:05:00 9.7 C 8.94 g/m*3 9.7 C 4.8 km/h
953 29-05-2014 07:10:00 9.7 C 8.94 g/m*3 9.7 C 3.2 km/h
954 29-05-2014 07:15:00 9.7 C 8.94 g/m*3 9.02 C 6.4 km/h
955 29-05-2014 07:20:00 9.7 C 8.94 g/m*3 9.02 C 6.4 km/h
956 29-05-2014 07:25:00 9.7 C 8.94 g/m*3 9.02 C 6.4 km/h
957 29-05-2014 07:30:00 9.7 C 8.94 g/m*3 9.02 C 6.4 km/h
958 29-05-2014 07:35:00 9.7 C 8.94 g/m*3 8.33 C 9.7 km/h
959 29-05-2014 07:40:00 9.7 C 8.94 g/m*3 9.02 C 6.4 km/h
960 29-05-2014 07:45:00 9.8 C 9 g/m*3 9.14 C 6.4 km/h
961 29-05-2014 07:50:00 9.8 C 9 g/m*3 8.75 C 8.1 km/h
962 29-05-2014 07:55:00 9.9 C 9.06 g/m*3 8.87 C 8.1 km/h
963 29-05-2014 08:00:00 9.9 C 9.06 g/m*3 9.9 C 3.2 km/h
964 29-05-2014 08:05:00 10.1 C 9.17 g/m*3 10.1 C 0 km/h
965 29-05-2014 08:10:00 10.1 C 9.17 g/m*3 10.1 C 4.8 km/h
966 29-05-2014 08:15:00 10.1 C 9.17 g/m*3 10.1 C 4.8 km/h
967 29-05-2014 08:20:00 10.3 C 9.29 g/m*3 10.3 C 4.8 km/h
968 29-05-2014 08:25:00 10.4 C 9.35 g/m*3 10.4 C 4.8 km/h
969 29-05-2014 08:30:00 10.4 C 9.35 g/m*3 10.4 C 4.8 km/h
970 29-05-2014 08:35:00 10.6 C 9.47 g/m*3 10.6 C 3.2 km/h
971 29-05-2014 08:40:00 10.7 C 9.53 g/m*3 10.7 C 3.2 km/h
972 29-05-2014 08:45:00 10.8 C 9.59 g/m*3 10.8 C 4.8 km/h
973 29-05-2014 08:50:00 10.9 C 9.55 g/m*3 10.9 C 4.8 km/h
974 29-05-2014 08:55:00 10.9 C 9.55 g/m*3 10.9 C 4.8 km/h
975 29-05-2014 09:00:00 11.1 C 9.67 g/m*3 11.1 C 3.2 km/h
Sensor: Nr:Datum:Temp:Abs-Feuchte:Windchill:Wind:
Aussen-T/F 976 29-05-2014 09:05:00 11.2 C 9.73 g/m*3 11.2 C 3.2 km/h
977 29-05-2014 09:10:00 11.2 C 9.73 g/m*3 11.2 C 4.8 km/h
978 29-05-2014 09:15:00 11.3 C 9.69 g/m*3 11.3 C 3.2 km/h
979 29-05-2014 09:20:00 11.5 C 9.81 g/m*3 11.5 C 1.6 km/h
980 29-05-2014 09:25:00 11.7 C 9.94 g/m*3 11.7 C 3.2 km/h
981 29-05-2014 09:30:00 11.8 C 10 g/m*3 11.8 C 1.6 km/h
982 29-05-2014 09:35:00 12.1 C 10.08 g/m*3 12.1 C 3.2 km/h
983 29-05-2014 09:40:00 12.2 C 10.14 g/m*3 12.2 C 3.2 km/h
984 29-05-2014 09:45:00 12.3 C 10.1 g/m*3 12.3 C 3.2 km/h
985 29-05-2014 09:50:00 12.6 C 10.29 g/m*3 12.6 C 3.2 km/h
986 29-05-2014 09:55:00 12.8 C 10.42 g/m*3 12.8 C 4.8 km/h
987 29-05-2014 10:00:00 12.9 C 10.48 g/m*3 12.9 C 3.2 km/h
988 29-05-2014 10:05:00 13.2 C 10.56 g/m*3 13.2 C 1.6 km/h
989 29-05-2014 10:10:00 13.3 C 10.51 g/m*3 13.3 C 0 km/h
990 29-05-2014 10:15:00 13.4 C 10.58 g/m*3 13.4 C 1.6 km/h
991 29-05-2014 10:20:00 13.6 C 10.71 g/m*3 13.6 C 1.6 km/h
992 29-05-2014 10:25:00 13.8 C 10.84 g/m*3 13.8 C 3.2 km/h
993 29-05-2014 10:30:00 14.1 C 10.92 g/m*3 14.1 C 0 km/h
994 29-05-2014 10:35:00 14.2 C 10.99 g/m*3 14.2 C 0 km/h
995 29-05-2014 10:40:00 14.5 C 11.07 g/m*3 14.5 C 0 km/h
996 29-05-2014 10:45:00 14.7 C 11.21 g/m*3 14.7 C 3.2 km/h
997 29-05-2014 10:50:00 14.9 C 11.22 g/m*3 14.9 C 1.6 km/h
998 29-05-2014 10:55:00 15.1 C 11.22 g/m*3 15.1 C 3.2 km/h
999 29-05-2014 11:00:00 15.2 C 11.29 g/m*3 15.2 C 1.6 km/h
1000 29-05-2014 11:05:00 15.2 C 11.03 g/m*3 15.2 C 0 km/h
Sensor: Nr:Datum:Temp:Abs-Feuchte:Windchill:Wind:
Aussen-T/F 1001 29-05-2014 11:10:00 15.3 C 11.1 g/m*3 15.3 C 3.2 km/h
1002 29-05-2014 11:15:00 15.4 C 11.04 g/m*3 15.4 C 4.8 km/h
1003 29-05-2014 11:20:00 15.6 C 11.17 g/m*3 15.6 C 3.2 km/h
1004 29-05-2014 11:25:00 15.7 C 11.11 g/m*3 15.7 C 1.6 km/h
1005 29-05-2014 11:30:00 15.9 C 11.51 g/m*3 15.9 C 3.2 km/h
1006 29-05-2014 11:35:00 16.2 C 11.72 g/m*3 16.2 C 0 km/h
1007 29-05-2014 11:40:00 16.3 C 11.52 g/m*3 16.3 C 3.2 km/h
1008 29-05-2014 11:45:00 16.4 C 11.31 g/m*3 16.4 C 0 km/h
1009 29-05-2014 11:50:00 16.6 C 11.44 g/m*3 16.6 C 0 km/h
1010 29-05-2014 11:55:00 16.7 C 11.51 g/m*3 16.7 C 6.4 km/h
1011 29-05-2014 12:00:00 16.9 C 11.36 g/m*3 16.9 C 6.4 km/h
1012 29-05-2014 12:05:00 17.1 C 11.5 g/m*3 17.1 C 0 km/h
1013 29-05-2014 12:10:00 17.2 C 11.72 g/m*3 17.2 C 1.6 km/h
1014 29-05-2014 12:15:00 17.3 C 11.49 g/m*3 17.3 C 8.1 km/h
1015 29-05-2014 12:20:00 17.5 C 11.78 g/m*3 17.5 C 4.8 km/h
1016 29-05-2014 12:25:00 17.5 C 11.33 g/m*3 17.5 C 4.8 km/h
1017 29-05-2014 12:30:00 17.8 C 11.69 g/m*3 17.8 C 1.6 km/h
1018 29-05-2014 12:35:00 17.8 C 11.38 g/m*3 17.8 C 4.8 km/h
1019 29-05-2014 12:40:00 17.8 C 11.23 g/m*3 17.8 C 4.8 km/h
1020 29-05-2014 12:45:00 17.7 C 11.01 g/m*3 17.7 C 4.8 km/h
1021 29-05-2014 12:50:00 17.7 C 11.01 g/m*3 17.7 C 9.7 km/h
1022 29-05-2014 12:55:00 17.8 C 11.54 g/m*3 17.8 C 6.4 km/h
1023 29-05-2014 13:00:00 17.9 C 11.45 g/m*3 17.9 C 8.1 km/h
1024 29-05-2014 13:05:00 18.2 C 11.35 g/m*3 18.2 C 9.7 km/h
1025 29-05-2014 13:10:00 18.4 C 11.17 g/m*3 18.4 C 8.1 km/h
Sensor: Nr:Datum:Temp:Abs-Feuchte:Windchill:Wind:
Aussen-T/F 1026 29-05-2014 13:15:00 18.7 C 11.21 g/m*3 18.7 C 6.4 km/h
1027 29-05-2014 13:20:00 18.9 C 11.02 g/m*3 18.9 C 8.1 km/h
1028 29-05-2014 13:25:00 19.1 C 11.31 g/m*3 19.1 C 8.1 km/h
1029 29-05-2014 13:30:00 19.3 C 11.61 g/m*3 19.3 C 8.1 km/h
1030 29-05-2014 13:35:00 19.4 C 11.35 g/m*3 19.4 C 9.7 km/h
1031 29-05-2014 13:40:00 19.2 C 11.38 g/m*3 19.2 C 11.3 km/h
1032 29-05-2014 13:45:00 19.1 C 11.31 g/m*3 19.1 C 9.7 km/h
1033 29-05-2014 13:50:00 19.1 C 11.31 g/m*3 19.1 C 11.3 km/h
1034 29-05-2014 13:55:00 19.1 C 11.31 g/m*3 19.1 C 11.3 km/h
1035 29-05-2014 14:00:00 19.2 C 11.38 g/m*3 19.2 C 9.7 km/h
1036 29-05-2014 14:05:00 19.2 C 11.05 g/m*3 19.2 C 9.7 km/h
1037 29-05-2014 14:10:00 19.1 C 11.15 g/m*3 19.1 C 4.8 km/h
1038 29-05-2014 14:15:00 19 C 11.08 g/m*3 19 C 8.1 km/h
1039 29-05-2014 14:20:00 18.9 C 11.18 g/m*3 18.9 C 8.1 km/h
1040 29-05-2014 14:25:00 18.8 C 10.95 g/m*3 18.8 C 11.3 km/h
1041 29-05-2014 14:30:00 18.8 C 11.11 g/m*3 18.8 C 11.3 km/h
1042 29-05-2014 14:35:00 18.8 C 11.11 g/m*3 18.8 C 12.9 km/h
1043 29-05-2014 14:40:00 18.7 C 11.05 g/m*3 18.7 C 12.9 km/h
1044 29-05-2014 14:45:00 18.5 C 11.23 g/m*3 18.5 C 6.4 km/h
1045 29-05-2014 14:50:00 18.4 C 11.17 g/m*3 18.4 C 9.7 km/h
1046 29-05-2014 14:55:00 18.4 C 11.17 g/m*3 18.4 C 11.3 km/h
1047 29-05-2014 15:00:00 18.3 C 11.26 g/m*3 18.3 C 9.7 km/h
1048 29-05-2014 15:05:00 18.2 C 11.19 g/m*3 18.2 C 8.1 km/h
1049 29-05-2014 15:10:00 18.2 C 11.19 g/m*3 18.2 C 11.3 km/h
1050 29-05-2014 15:15:00 18.2 C 11.35 g/m*3 18.2 C 11.3 km/h
Sensor: Nr:Datum:Temp:Abs-Feuchte:Windchill:Wind:
Aussen-T/F 1051 29-05-2014 15:20:00 18.2 C 11.04 g/m*3 18.2 C 9.7 km/h
1052 29-05-2014 15:25:00 18.1 C 10.97 g/m*3 18.1 C 11.3 km/h
1053 29-05-2014 15:30:00 18.1 C 10.97 g/m*3 18.1 C 9.7 km/h
1054 29-05-2014 15:35:00 17.9 C 10.69 g/m*3 17.9 C 14.5 km/h
1055 29-05-2014 15:40:00 17.7 C 10.71 g/m*3 17.7 C 9.7 km/h
1056 29-05-2014 15:45:00 17.5 C 10.73 g/m*3 17.5 C 8.1 km/h
1057 29-05-2014 15:50:00 17.3 C 10.61 g/m*3 17.3 C 6.4 km/h
1058 29-05-2014 15:55:00 17.2 C 10.54 g/m*3 17.2 C 8.1 km/h
1059 29-05-2014 16:00:00 17.1 C 10.63 g/m*3 17.1 C 8.1 km/h
1060 29-05-2014 16:05:00 17.1 C 10.63 g/m*3 17.1 C 6.4 km/h
1061 29-05-2014 16:10:00 17 C 10.56 g/m*3 17 C 6.4 km/h
1062 29-05-2014 16:15:00 17 C 10.85 g/m*3 17 C 8.1 km/h
1063 29-05-2014 16:20:00 16.9 C 10.79 g/m*3 16.9 C 8.1 km/h
1064 29-05-2014 16:25:00 16.9 C 10.79 g/m*3 16.9 C 8.1 km/h
1065 29-05-2014 16:30:00 16.9 C 10.64 g/m*3 16.9 C 8.1 km/h
1066 29-05-2014 16:35:00 16.8 C 10.58 g/m*3 16.8 C 12.9 km/h
1067 29-05-2014 16:40:00 16.7 C 10.52 g/m*3 16.7 C 9.7 km/h
1068 29-05-2014 16:45:00 16.7 C 10.66 g/m*3 16.7 C 8.1 km/h
1069 29-05-2014 16:50:00 16.7 C 10.66 g/m*3 16.7 C 8.1 km/h
1070 29-05-2014 16:55:00 16.7 C 10.8 g/m*3 16.7 C 8.1 km/h
1071 29-05-2014 17:00:00 16.7 C 10.8 g/m*3 16.7 C 8.1 km/h
1072 29-05-2014 17:05:00 16.6 C 10.74 g/m*3 16.6 C 8.1 km/h
1073 29-05-2014 17:10:00 16.6 C 10.74 g/m*3 16.6 C 6.4 km/h
1074 29-05-2014 17:15:00 16.5 C 10.53 g/m*3 16.5 C 9.7 km/h
1075 29-05-2014 17:20:00 16.5 C 10.67 g/m*3 16.5 C 8.1 km/h
Sensor: Nr:Datum:Temp:Abs-Feuchte:Windchill:Wind:
Aussen-T/F 1076 29-05-2014 17:25:00 16.4 C 10.47 g/m*3 16.4 C 9.7 km/h
1077 29-05-2014 17:30:00 16.4 C 10.61 g/m*3 16.4 C 9.7 km/h
1078 29-05-2014 17:35:00 16.3 C 10.68 g/m*3 16.3 C 9.7 km/h
1079 29-05-2014 17:40:00 16.3 C 10.82 g/m*3 16.3 C 9.7 km/h
1080 29-05-2014 17:45:00 16.3 C 10.68 g/m*3 16.3 C 9.7 km/h
1081 29-05-2014 17:50:00 16.2 C 10.62 g/m*3 16.2 C 8.1 km/h
1082 29-05-2014 17:55:00 16.1 C 10.55 g/m*3 16.1 C 6.4 km/h
1083 29-05-2014 18:00:00 16 C 10.63 g/m*3 16 C 6.4 km/h
1084 29-05-2014 18:05:00 15.9 C 10.7 g/m*3 15.9 C 8.1 km/h
1085 29-05-2014 18:10:00 15.9 C 10.56 g/m*3 15.9 C 9.7 km/h
1086 29-05-2014 18:15:00 15.8 C 10.5 g/m*3 15.8 C 4.8 km/h
1087 29-05-2014 18:20:00 15.7 C 10.57 g/m*3 15.7 C 6.4 km/h
1088 29-05-2014 18:25:00 15.7 C 10.57 g/m*3 15.7 C 8.1 km/h
1089 29-05-2014 18:30:00 15.6 C 10.51 g/m*3 15.6 C 8.1 km/h
1090 29-05-2014 18:35:00 15.6 C 10.64 g/m*3 15.6 C 4.8 km/h
1091 29-05-2014 18:40:00 15.6 C 10.91 g/m*3 15.6 C 4.8 km/h
1092 29-05-2014 18:45:00 15.4 C 10.77 g/m*3 15.4 C 6.4 km/h
1093 29-05-2014 18:50:00 15.3 C 10.84 g/m*3 15.3 C 4.8 km/h
1094 29-05-2014 18:55:00 15.3 C 10.97 g/m*3 15.3 C 3.2 km/h
1095 29-05-2014 19:00:00 15.2 C 11.16 g/m*3 15.2 C 3.2 km/h
1096 29-05-2014 19:05:00 15.1 C 10.84 g/m*3 15.1 C 4.8 km/h
1097 29-05-2014 19:10:00 14.9 C 10.58 g/m*3 14.9 C 6.4 km/h
1098 29-05-2014 19:15:00 14.8 C 10.77 g/m*3 14.8 C 3.2 km/h
1099 29-05-2014 19:20:00 14.8 C 10.77 g/m*3 14.8 C 4.8 km/h
1100 29-05-2014 19:25:00 14.8 C 10.89 g/m*3 14.8 C 0 km/h
Sensor: Nr:Datum:Temp:Abs-Feuchte:Windchill:Wind:
Aussen-T/F 1101 29-05-2014 19:30:00 14.8 C 11.02 g/m*3 14.8 C 0 km/h
1102 29-05-2014 19:35:00 14.8 C 10.77 g/m*3 14.8 C 4.8 km/h
1103 29-05-2014 19:40:00 14.8 C 10.77 g/m*3 14.8 C 3.2 km/h
1104 29-05-2014 19:45:00 14.7 C 10.7 g/m*3 14.7 C 3.2 km/h
1105 29-05-2014 19:50:00 14.8 C 10.89 g/m*3 14.8 C 3.2 km/h
1106 29-05-2014 19:55:00 14.7 C 10.7 g/m*3 14.7 C 4.8 km/h
1107 29-05-2014 20:00:00 14.7 C 10.7 g/m*3 14.7 C 4.8 km/h
1108 29-05-2014 20:05:00 14.7 C 10.7 g/m*3 14.7 C 4.8 km/h
1109 29-05-2014 20:10:00 14.6 C 10.64 g/m*3 14.6 C 4.8 km/h
1110 29-05-2014 20:15:00 14.6 C 10.64 g/m*3 14.6 C 4.8 km/h
1111 29-05-2014 20:20:00 14.6 C 10.76 g/m*3 14.6 C 0 km/h
1112 29-05-2014 20:25:00 14.5 C 10.82 g/m*3 14.5 C 0 km/h
1113 29-05-2014 20:30:00 14.4 C 10.88 g/m*3 14.4 C 0 km/h
1114 29-05-2014 20:35:00 14.3 C 10.93 g/m*3 14.3 C 0 km/h
1115 29-05-2014 20:40:00 14.2 C 10.87 g/m*3 14.2 C 0 km/h
1116 29-05-2014 20:45:00 14.1 C 10.92 g/m*3 14.1 C 1.6 km/h
1117 29-05-2014 20:50:00 13.9 C 10.79 g/m*3 13.9 C 3.2 km/h
1118 29-05-2014 20:55:00 13.9 C 10.91 g/m*3 13.9 C 0 km/h
1119 29-05-2014 21:00:00 13.8 C 10.84 g/m*3 13.8 C 0 km/h
1120 29-05-2014 21:05:00 13.8 C 10.84 g/m*3 13.8 C 0 km/h
1121 29-05-2014 21:10:00 13.8 C 10.96 g/m*3 13.8 C 0 km/h
1122 29-05-2014 21:15:00 13.7 C 10.89 g/m*3 13.7 C 0 km/h
1123 29-05-2014 21:20:00 13.7 C 10.89 g/m*3 13.7 C 0 km/h
1124 29-05-2014 21:25:00 13.7 C 10.89 g/m*3 13.7 C 1.6 km/h
1125 29-05-2014 21:30:00 13.7 C 10.89 g/m*3 13.7 C 0 km/h
Sensor: Nr:Datum:Temp:Abs-Feuchte:Windchill:Wind:
Aussen-T/F 1126 29-05-2014 21:35:00 13.7 C 10.89 g/m*3 13.7 C 0 km/h
1127 29-05-2014 21:40:00 13.6 C 10.95 g/m*3 13.6 C 0 km/h
1128 29-05-2014 21:45:00 13.6 C 10.95 g/m*3 13.6 C 0 km/h
1129 29-05-2014 21:50:00 13.6 C 10.95 g/m*3 13.6 C 0 km/h
1130 29-05-2014 21:55:00 13.5 C 10.88 g/m*3 13.5 C 0 km/h
1131 29-05-2014 22:00:00 13.5 C 10.76 g/m*3 13.5 C 9.7 km/h
1132 29-05-2014 22:05:00 13.4 C 10.46 g/m*3 13.4 C 3.2 km/h
1133 29-05-2014 22:10:00 13.3 C 10.28 g/m*3 13.3 C 8.1 km/h
1134 29-05-2014 22:15:00 13.3 C 10.17 g/m*3 13.3 C 11.3 km/h
1135 29-05-2014 22:20:00 13.2 C 10.1 g/m*3 13.2 C 8.1 km/h
1136 29-05-2014 22:25:00 13.1 C 9.93 g/m*3 13.1 C 4.8 km/h
1137 29-05-2014 22:30:00 13 C 9.87 g/m*3 13 C 8.1 km/h
1138 29-05-2014 22:35:00 12.9 C 9.81 g/m*3 12.9 C 8.1 km/h
1139 29-05-2014 22:40:00 12.8 C 9.63 g/m*3 12.8 C 6.4 km/h
1140 29-05-2014 22:45:00 12.8 C 9.63 g/m*3 12.8 C 1.6 km/h
1141 29-05-2014 22:50:00 12.7 C 9.57 g/m*3 12.7 C 6.4 km/h
1142 29-05-2014 22:55:00 12.6 C 9.4 g/m*3 12.6 C 4.8 km/h
1143 29-05-2014 23:00:00 12.6 C 9.51 g/m*3 12.6 C 11.3 km/h
1144 29-05-2014 23:05:00 12.5 C 9.35 g/m*3 12.5 C 12.9 km/h
1145 29-05-2014 23:10:00 12.4 C 9.4 g/m*3 12.4 C 8.1 km/h
1146 29-05-2014 23:15:00 12.4 C 9.4 g/m*3 12.4 C 6.4 km/h
1147 29-05-2014 23:20:00 12.4 C 9.4 g/m*3 12.4 C 4.8 km/h
1148 29-05-2014 23:25:00 12.3 C 9.34 g/m*3 12.3 C 4.8 km/h
1149 29-05-2014 23:30:00 12.3 C 9.34 g/m*3 12.3 C 4.8 km/h
1150 29-05-2014 23:35:00 12.3 C 9.34 g/m*3 12.3 C 8.1 km/h
Sensor: Nr:Datum:Temp:Abs-Feuchte:Windchill:Wind:
Aussen-T/F 1151 29-05-2014 23:40:00 12.3 C 9.34 g/m*3 12.3 C 11.3 km/h
1152 29-05-2014 23:45:00 12.3 C 9.34 g/m*3 12.3 C 4.8 km/h
1153 29-05-2014 23:50:00 12.2 C 9.28 g/m*3 12.2 C 4.8 km/h
1154 29-05-2014 23:55:00 12.1 C 9.22 g/m*3 12.1 C 6.4 km/h
1155 30-05-2014 00:00:00 12.1 C 9.22 g/m*3 12.1 C 8.1 km/h
1156 30-05-2014 00:05:00 12.1 C 9.22 g/m*3 12.1 C 4.8 km/h
1157 30-05-2014 00:10:00 12 C 9.06 g/m*3 12 C 6.4 km/h
1158 30-05-2014 00:15:00 11.9 C 9 g/m*3 11.9 C 6.4 km/h
1159 30-05-2014 00:20:00 11.9 C 9 g/m*3 11.9 C 8.1 km/h
1160 30-05-2014 00:25:00 11.9 C 9 g/m*3 11.9 C 8.1 km/h
1161 30-05-2014 00:30:00 11.8 C 8.95 g/m*3 11.8 C 8.1 km/h
1162 30-05-2014 00:35:00 11.8 C 8.95 g/m*3 11.8 C 3.2 km/h
1163 30-05-2014 00:40:00 11.8 C 8.95 g/m*3 11.8 C 4.8 km/h
1164 30-05-2014 00:45:00 11.7 C 8.89 g/m*3 11.7 C 9.7 km/h
1165 30-05-2014 00:50:00 11.7 C 8.89 g/m*3 11.7 C 9.7 km/h
1166 30-05-2014 00:55:00 11.6 C 8.94 g/m*3 11.6 C 4.8 km/h
1167 30-05-2014 01:00:00 11.6 C 8.94 g/m*3 11.6 C 6.4 km/h
1168 30-05-2014 01:05:00 11.5 C 8.88 g/m*3 11.5 C 8.1 km/h
1169 30-05-2014 01:10:00 11.5 C 8.88 g/m*3 11.5 C 6.4 km/h
1170 30-05-2014 01:15:00 11.4 C 8.72 g/m*3 11.4 C 8.1 km/h
1171 30-05-2014 01:20:00 11.4 C 8.72 g/m*3 11.4 C 8.1 km/h
1172 30-05-2014 01:25:00 11.3 C 8.57 g/m*3 11.3 C 8.1 km/h
1173 30-05-2014 01:30:00 11.3 C 8.57 g/m*3 11.3 C 4.8 km/h
1174 30-05-2014 01:35:00 11.2 C 8.51 g/m*3 11.2 C 9.7 km/h
1175 30-05-2014 01:40:00 11.2 C 8.51 g/m*3 11.2 C 6.4 km/h
Sensor: Nr:Datum:Temp:Abs-Feuchte:Windchill:Wind:
Aussen-T/F 1176 30-05-2014 01:45:00 11.2 C 8.51 g/m*3 11.2 C 6.4 km/h
1177 30-05-2014 01:50:00 11.2 C 8.41 g/m*3 11.2 C 14.5 km/h
1178 30-05-2014 01:55:00 11.1 C 8.36 g/m*3 11.1 C 12.9 km/h
1179 30-05-2014 02:00:00 11.1 C 8.46 g/m*3 11.1 C 3.2 km/h
1180 30-05-2014 02:05:00 11.1 C 8.36 g/m*3 11.1 C 4.8 km/h
1181 30-05-2014 02:10:00 11.1 C 8.36 g/m*3 11.1 C 3.2 km/h
1182 30-05-2014 02:15:00 11.1 C 8.36 g/m*3 11.1 C 3.2 km/h
1183 30-05-2014 02:20:00 11.1 C 8.46 g/m*3 11.1 C 1.6 km/h
1184 30-05-2014 02:25:00 11.1 C 8.46 g/m*3 11.1 C 4.8 km/h
1185 30-05-2014 02:30:00 11.1 C 8.46 g/m*3 11.1 C 3.2 km/h
1186 30-05-2014 02:35:00 11.1 C 8.56 g/m*3 11.1 C 1.6 km/h
1187 30-05-2014 02:40:00 11.1 C 8.56 g/m*3 11.1 C 3.2 km/h
1188 30-05-2014 02:45:00 11.1 C 8.56 g/m*3 11.1 C 1.6 km/h
1189 30-05-2014 02:50:00 11.1 C 8.56 g/m*3 11.1 C 1.6 km/h
1190 30-05-2014 02:55:00 11.1 C 8.56 g/m*3 11.1 C 6.4 km/h
1191 30-05-2014 03:00:00 11.1 C 8.56 g/m*3 11.1 C 0 km/h
1192 30-05-2014 03:05:00 11 C 8.51 g/m*3 11 C 3.2 km/h
1193 30-05-2014 03:10:00 10.9 C 8.26 g/m*3 10.41 C 6.4 km/h
1194 30-05-2014 03:15:00 10.9 C 8.26 g/m*3 10.9 C 3.2 km/h
1195 30-05-2014 03:20:00 10.9 C 8.26 g/m*3 10.9 C 3.2 km/h
1196 30-05-2014 03:25:00 10.9 C 8.26 g/m*3 10.9 C 3.2 km/h
1197 30-05-2014 03:30:00 10.9 C 8.36 g/m*3 10.9 C 1.6 km/h
1198 30-05-2014 03:35:00 10.9 C 8.26 g/m*3 10.9 C 4.8 km/h
1199 30-05-2014 03:40:00 10.9 C 8.26 g/m*3 10.9 C 3.2 km/h
1200 30-05-2014 03:45:00 10.8 C 8.2 g/m*3 10.8 C 3.2 km/h
Sensor: Nr:Datum:Temp:Abs-Feuchte:Windchill:Wind:
Aussen-T/F 1201 30-05-2014 03:50:00 10.8 C 8.2 g/m*3 10.8 C 4.8 km/h
1202 30-05-2014 03:55:00 10.8 C 8.2 g/m*3 10.8 C 3.2 km/h
1203 30-05-2014 04:00:00 10.8 C 8.11 g/m*3 10.8 C 1.6 km/h
1204 30-05-2014 04:05:00 10.8 C 8.2 g/m*3 10.8 C 4.8 km/h
1205 30-05-2014 04:10:00 10.7 C 8.05 g/m*3 10.7 C 1.6 km/h
1206 30-05-2014 04:15:00 10.7 C 8.05 g/m*3 10.7 C 0 km/h
1207 30-05-2014 04:20:00 10.7 C 8.15 g/m*3 10.7 C 0 km/h
1208 30-05-2014 04:25:00 10.7 C 8.15 g/m*3 10.7 C 0 km/h
1209 30-05-2014 04:30:00 10.7 C 8.25 g/m*3 10.7 C 0 km/h
1210 30-05-2014 04:35:00 10.7 C 8.15 g/m*3 10.7 C 4.8 km/h
1211 30-05-2014 04:40:00 10.6 C 8 g/m*3 10.6 C 4.8 km/h
1212 30-05-2014 04:45:00 10.6 C 8.1 g/m*3 10.6 C 1.6 km/h
1213 30-05-2014 04:50:00 10.6 C 8 g/m*3 10.6 C 3.2 km/h
1214 30-05-2014 04:55:00 10.6 C 8 g/m*3 10.6 C 3.2 km/h
1215 30-05-2014 05:00:00 10.6 C 8.1 g/m*3 10.6 C 0 km/h
1216 30-05-2014 05:05:00 10.6 C 8 g/m*3 10.6 C 3.2 km/h
1217 30-05-2014 05:10:00 10.6 C 8.1 g/m*3 10.6 C 0 km/h
1218 30-05-2014 05:15:00 10.6 C 8.2 g/m*3 10.6 C 1.6 km/h
1219 30-05-2014 05:20:00 10.5 C 8.15 g/m*3 10.5 C 0 km/h
1220 30-05-2014 05:25:00 10.4 C 8.1 g/m*3 10.4 C 0 km/h
1221 30-05-2014 05:30:00 10.4 C 8 g/m*3 10.4 C 1.6 km/h
1222 30-05-2014 05:35:00 10.4 C 8.1 g/m*3 10.4 C 0 km/h
1223 30-05-2014 05:40:00 10.4 C 7.9 g/m*3 10.4 C 3.2 km/h
1224 30-05-2014 05:45:00 10.3 C 7.95 g/m*3 10.3 C 0 km/h
1225 30-05-2014 05:50:00 10.3 C 8.04 g/m*3 10.3 C 0 km/h
Sensor: Nr:Datum:Temp:Abs-Feuchte:Windchill:Wind:
Aussen-T/F 1226 30-05-2014 05:55:00 10.3 C 7.95 g/m*3 10.3 C 1.6 km/h
1227 30-05-2014 06:00:00 10.3 C 7.95 g/m*3 10.3 C 1.6 km/h
1228 30-05-2014 06:05:00 10.3 C 7.95 g/m*3 10.3 C 0 km/h
1229 30-05-2014 06:10:00 10.3 C 7.95 g/m*3 10.3 C 1.6 km/h
1230 30-05-2014 06:15:00 10.3 C 7.95 g/m*3 10.3 C 3.2 km/h
1231 30-05-2014 06:20:00 10.3 C 7.95 g/m*3 10.3 C 3.2 km/h
1232 30-05-2014 06:25:00 10.3 C 7.85 g/m*3 10.3 C 3.2 km/h
1233 30-05-2014 06:30:00 10.4 C 7.9 g/m*3 10.4 C 3.2 km/h
1234 30-05-2014 06:35:00 10.4 C 7.9 g/m*3 10.4 C 4.8 km/h
1235 30-05-2014 06:40:00 10.4 C 7.81 g/m*3 10.4 C 4.8 km/h
1236 30-05-2014 06:45:00 10.4 C 7.81 g/m*3 9.83 C 6.4 km/h
1237 30-05-2014 06:50:00 10.4 C 7.71 g/m*3 9.83 C 6.4 km/h
1238 30-05-2014 06:55:00 10.5 C 7.76 g/m*3 10.5 C 3.2 km/h
1239 30-05-2014 07:00:00 10.5 C 7.76 g/m*3 10.5 C 1.6 km/h
1240 30-05-2014 07:05:00 10.5 C 7.86 g/m*3 10.5 C 1.6 km/h
1241 30-05-2014 07:10:00 10.6 C 7.81 g/m*3 10.6 C 1.6 km/h
1242 30-05-2014 07:15:00 10.6 C 7.71 g/m*3 10.6 C 3.2 km/h
1243 30-05-2014 07:20:00 10.6 C 7.61 g/m*3 10.6 C 4.8 km/h
1244 30-05-2014 07:25:00 10.6 C 7.71 g/m*3 10.6 C 1.6 km/h
1245 30-05-2014 07:30:00 10.7 C 7.66 g/m*3 10.7 C 1.6 km/h
1246 30-05-2014 07:35:00 10.7 C 7.66 g/m*3 9.52 C 9.7 km/h
1247 30-05-2014 07:40:00 10.8 C 7.61 g/m*3 10.29 C 6.4 km/h
1248 30-05-2014 07:45:00 10.8 C 7.61 g/m*3 10.8 C 4.8 km/h
1249 30-05-2014 07:50:00 10.9 C 7.66 g/m*3 10.9 C 3.2 km/h
1250 30-05-2014 07:55:00 11 C 7.71 g/m*3 10.16 C 8.1 km/h
Sensor: Nr:Datum:Temp:Abs-Feuchte:Windchill:Wind:
Aussen-T/F 1251 30-05-2014 08:00:00 11.2 C 7.7 g/m*3 11.2 C 4.8 km/h
1252 30-05-2014 08:05:00 11.3 C 7.75 g/m*3 11.3 C 4.8 km/h
1253 30-05-2014 08:10:00 11.4 C 7.8 g/m*3 11.4 C 4.8 km/h
1254 30-05-2014 08:15:00 11.7 C 7.74 g/m*3 11.7 C 6.4 km/h
1255 30-05-2014 08:20:00 11.9 C 7.84 g/m*3 11.9 C 9.7 km/h
1256 30-05-2014 08:25:00 12 C 7.67 g/m*3 12 C 8.1 km/h
1257 30-05-2014 08:30:00 12.1 C 7.72 g/m*3 12.1 C 8.1 km/h
1258 30-05-2014 08:35:00 12.1 C 7.61 g/m*3 12.1 C 11.3 km/h
1259 30-05-2014 08:40:00 12 C 7.46 g/m*3 12 C 4.8 km/h
1260 30-05-2014 08:45:00 12.1 C 7.51 g/m*3 12.1 C 4.8 km/h
1261 30-05-2014 08:50:00 12.2 C 7.45 g/m*3 12.2 C 6.4 km/h
1262 30-05-2014 08:55:00 12.4 C 7.43 g/m*3 12.4 C 8.1 km/h
1263 30-05-2014 09:00:00 12.5 C 7.37 g/m*3 12.5 C 8.1 km/h
1264 30-05-2014 09:05:00 12.7 C 7.24 g/m*3 12.7 C 11.3 km/h
1265 30-05-2014 09:10:00 12.7 C 7.35 g/m*3 12.7 C 12.9 km/h
1266 30-05-2014 09:15:00 12.7 C 7.35 g/m*3 12.7 C 8.1 km/h
1267 30-05-2014 09:20:00 12.7 C 7.46 g/m*3 12.7 C 11.3 km/h
1268 30-05-2014 09:25:00 12.6 C 7.3 g/m*3 12.6 C 8.1 km/h
1269 30-05-2014 09:30:00 12.5 C 7.26 g/m*3 12.5 C 9.7 km/h
1270 30-05-2014 09:35:00 12.4 C 7.21 g/m*3 12.4 C 3.2 km/h
1271 30-05-2014 09:40:00 12.3 C 7.38 g/m*3 12.3 C 6.4 km/h
1272 30-05-2014 09:45:00 12.3 C 7.38 g/m*3 12.3 C 11.3 km/h
1273 30-05-2014 09:50:00 12.5 C 7.37 g/m*3 12.5 C 9.7 km/h
1274 30-05-2014 09:55:00 12.7 C 7.46 g/m*3 12.7 C 8.1 km/h
1275 30-05-2014 10:00:00 12.9 C 7.44 g/m*3 12.9 C 9.7 km/h
Sensor: Nr:Datum:Temp:Abs-Feuchte:Windchill:Wind:
Aussen-T/F 1276 30-05-2014 10:05:00 13.3 C 7.63 g/m*3 13.3 C 12.9 km/h
1277 30-05-2014 10:10:00 13.7 C 7.82 g/m*3 13.7 C 11.3 km/h
1278 30-05-2014 10:15:00 14 C 7.84 g/m*3 14 C 12.9 km/h
1279 30-05-2014 10:20:00 14.3 C 7.86 g/m*3 14.3 C 12.9 km/h
1280 30-05-2014 10:25:00 14.4 C 7.66 g/m*3 14.4 C 11.3 km/h
1281 30-05-2014 10:30:00 14.6 C 8.01 g/m*3 14.6 C 9.7 km/h
1282 30-05-2014 10:35:00 14.7 C 8.18 g/m*3 14.7 C 12.9 km/h
1283 30-05-2014 10:40:00 14.9 C 8.03 g/m*3 14.9 C 11.3 km/h
1284 30-05-2014 10:45:00 15.2 C 8.05 g/m*3 15.2 C 9.7 km/h
1285 30-05-2014 10:50:00 15.2 C 8.05 g/m*3 15.2 C 11.3 km/h
1286 30-05-2014 10:55:00 14.9 C 7.9 g/m*3 14.9 C 4.8 km/h
1287 30-05-2014 11:00:00 14.7 C 7.81 g/m*3 14.7 C 6.4 km/h
1288 30-05-2014 11:05:00 14.5 C 7.71 g/m*3 14.5 C 8.1 km/h
1289 30-05-2014 11:10:00 14.5 C 8.08 g/m*3 14.5 C 8.1 km/h
1290 30-05-2014 11:15:00 14.6 C 8.13 g/m*3 14.6 C 11.3 km/h
1291 30-05-2014 11:20:00 14.5 C 7.84 g/m*3 14.5 C 8.1 km/h
1292 30-05-2014 11:25:00 14.6 C 7.88 g/m*3 14.6 C 8.1 km/h
1293 30-05-2014 11:30:00 14.6 C 7.76 g/m*3 14.6 C 9.7 km/h
1294 30-05-2014 11:35:00 14.4 C 7.42 g/m*3 14.4 C 8.1 km/h
1295 30-05-2014 11:40:00 14.3 C 7.74 g/m*3 14.3 C 11.3 km/h
1296 30-05-2014 11:45:00 14.6 C 8.13 g/m*3 14.6 C 12.9 km/h
1297 30-05-2014 11:50:00 15.2 C 8.31 g/m*3 15.2 C 9.7 km/h
1298 30-05-2014 11:55:00 15.7 C 8.3 g/m*3 15.7 C 11.3 km/h
1299 30-05-2014 12:00:00 16.1 C 7.81 g/m*3 16.1 C 11.3 km/h
1300 30-05-2014 12:05:00 16 C 7.9 g/m*3 16 C 8.1 km/h
Sensor: Nr:Datum:Temp:Abs-Feuchte:Windchill:Wind:
Aussen-T/F 1301 30-05-2014 12:10:00 15.6 C 7.45 g/m*3 15.6 C 11.3 km/h
1302 30-05-2014 12:15:00 15.2 C 7.53 g/m*3 15.2 C 12.9 km/h
1303 30-05-2014 12:20:00 15.2 C 7.53 g/m*3 15.2 C 9.7 km/h
1304 30-05-2014 12:25:00 15.2 C 7.66 g/m*3 15.2 C 6.4 km/h
1305 30-05-2014 12:30:00 15.2 C 7.79 g/m*3 15.2 C 9.7 km/h
1306 30-05-2014 12:35:00 15.4 C 7.75 g/m*3 15.4 C 9.7 km/h
1307 30-05-2014 12:40:00 15.9 C 8.8 g/m*3 15.9 C 12.9 km/h
1308 30-05-2014 12:45:00 16.4 C 8.1 g/m*3 16.4 C 8.1 km/h
1309 30-05-2014 12:50:00 16.7 C 7.67 g/m*3 16.7 C 11.3 km/h
1310 30-05-2014 12:55:00 16.7 C 7.82 g/m*3 16.7 C 9.7 km/h
1311 30-05-2014 13:00:00 16.8 C 8.44 g/m*3 16.8 C 11.3 km/h
1312 30-05-2014 13:05:00 16.9 C 7.77 g/m*3 16.9 C 14.5 km/h
1313 30-05-2014 13:10:00 17.1 C 8.44 g/m*3 17.1 C 14.5 km/h
1314 30-05-2014 13:15:00 17.1 C 9.17 g/m*3 17.1 C 11.3 km/h
1315 30-05-2014 13:20:00 17.3 C 7.96 g/m*3 17.3 C 17.7 km/h
1316 30-05-2014 13:25:00 17.1 C 8.15 g/m*3 17.1 C 12.9 km/h
1317 30-05-2014 13:30:00 17.1 C 8.3 g/m*3 17.1 C 8.1 km/h
1318 30-05-2014 13:35:00 17.1 C 8.15 g/m*3 17.1 C 11.3 km/h
1319 30-05-2014 13:40:00 17.2 C 8.64 g/m*3 17.2 C 12.9 km/h
1320 30-05-2014 13:45:00 17.1 C 8.01 g/m*3 17.1 C 11.3 km/h
1321 30-05-2014 13:50:00 17.3 C 8.54 g/m*3 17.3 C 11.3 km/h
1322 30-05-2014 13:55:00 17.3 C 7.81 g/m*3 17.3 C 8.1 km/h
1323 30-05-2014 14:00:00 17.6 C 8.7 g/m*3 17.6 C 8.1 km/h
1324 30-05-2014 14:05:00 17.8 C 8.04 g/m*3 17.8 C 11.3 km/h
1325 30-05-2014 14:10:00 18 C 8.6 g/m*3 18 C 14.5 km/h
Sensor: Nr:Datum:Temp:Abs-Feuchte:Windchill:Wind:
Aussen-T/F 1326 30-05-2014 14:15:00 17.8 C 8.04 g/m*3 17.8 C 11.3 km/h
1327 30-05-2014 14:20:00 17.3 C 7.81 g/m*3 17.3 C 8.1 km/h
1328 30-05-2014 14:25:00 17 C 7.67 g/m*3 17 C 8.1 km/h
1329 30-05-2014 14:30:00 17.1 C 8.3 g/m*3 17.1 C 9.7 km/h
1330 30-05-2014 14:35:00 17.2 C 7.61 g/m*3 17.2 C 6.4 km/h
1331 30-05-2014 14:40:00 17.2 C 7.47 g/m*3 17.2 C 14.5 km/h
1332 30-05-2014 14:45:00 17.6 C 7.8 g/m*3 17.6 C 12.9 km/h
1333 30-05-2014 14:50:00 17.2 C 7.91 g/m*3 17.2 C 14.5 km/h
1334 30-05-2014 14:55:00 16.8 C 7.72 g/m*3 16.8 C 11.3 km/h
1335 30-05-2014 15:00:00 16.6 C 7.63 g/m*3 16.6 C 9.7 km/h
1336 30-05-2014 15:05:00 16.4 C 7.54 g/m*3 16.4 C 17.7 km/h
1337 30-05-2014 15:10:00 16.1 C 7.54 g/m*3 16.1 C 8.1 km/h
1338 30-05-2014 15:15:00 16 C 7.77 g/m*3 16 C 11.3 km/h
1339 30-05-2014 15:20:00 16.4 C 8.23 g/m*3 16.4 C 11.3 km/h
1340 30-05-2014 15:25:00 16.7 C 7.96 g/m*3 16.7 C 14.5 km/h
1341 30-05-2014 15:30:00 16.7 C 7.96 g/m*3 16.7 C 9.7 km/h
1342 30-05-2014 15:35:00 16.9 C 7.91 g/m*3 16.9 C 11.3 km/h
1343 30-05-2014 15:40:00 17.2 C 8.05 g/m*3 17.2 C 8.1 km/h
1344 30-05-2014 15:45:00 17.3 C 8.25 g/m*3 17.3 C 14.5 km/h
1345 30-05-2014 15:50:00 17.9 C 8.24 g/m*3 17.9 C 14.5 km/h
1346 30-05-2014 15:55:00 17.8 C 8.2 g/m*3 17.8 C 8.1 km/h
1347 30-05-2014 16:00:00 17.3 C 7.96 g/m*3 17.3 C 12.9 km/h
1348 30-05-2014 16:05:00 17 C 8.1 g/m*3 17 C 11.3 km/h
1349 30-05-2014 16:10:00 16.8 C 8.01 g/m*3 16.8 C 8.1 km/h
1350 30-05-2014 16:15:00 16.6 C 8.05 g/m*3 16.6 C 6.4 km/h
Sensor: Nr:Datum:Temp:Abs-Feuchte:Windchill:Wind:
Aussen-T/F 1351 30-05-2014 16:20:00 16.5 C 7.72 g/m*3 16.5 C 6.4 km/h
1352 30-05-2014 16:25:00 16.3 C 8.19 g/m*3 16.3 C 6.4 km/h
1353 30-05-2014 16:30:00 16.6 C 8.76 g/m*3 16.6 C 8.1 km/h
1354 30-05-2014 16:35:00 17.3 C 8.4 g/m*3 17.3 C 8.1 km/h
1355 30-05-2014 16:40:00 17.9 C 8.24 g/m*3 17.9 C 11.3 km/h
1356 30-05-2014 16:45:00 18 C 8.29 g/m*3 18 C 11.3 km/h
1357 30-05-2014 16:50:00 17.6 C 8.1 g/m*3 17.6 C 9.7 km/h
1358 30-05-2014 16:55:00 17.2 C 7.91 g/m*3 17.2 C 4.8 km/h
1359 30-05-2014 17:00:00 16.7 C 7.82 g/m*3 16.7 C 9.7 km/h
1360 30-05-2014 17:05:00 16.4 C 7.96 g/m*3 16.4 C 9.7 km/h
1361 30-05-2014 17:10:00 16.2 C 7.86 g/m*3 16.2 C 8.1 km/h
1362 30-05-2014 17:15:00 16.2 C 8 g/m*3 16.2 C 11.3 km/h
1363 30-05-2014 17:20:00 16.1 C 7.95 g/m*3 16.1 C 9.7 km/h
1364 30-05-2014 17:25:00 16.1 C 8.36 g/m*3 16.1 C 12.9 km/h
1365 30-05-2014 17:30:00 16.1 C 8.09 g/m*3 16.1 C 8.1 km/h
1366 30-05-2014 17:35:00 15.9 C 7.99 g/m*3 15.9 C 11.3 km/h
1367 30-05-2014 17:40:00 15.7 C 7.76 g/m*3 15.7 C 12.9 km/h
1368 30-05-2014 17:45:00 15.9 C 8.4 g/m*3 15.9 C 12.9 km/h
1369 30-05-2014 17:50:00 16.3 C 7.77 g/m*3 16.3 C 12.9 km/h
1370 30-05-2014 17:55:00 16.4 C 8.1 g/m*3 16.4 C 14.5 km/h
1371 30-05-2014 18:00:00 16.7 C 7.96 g/m*3 16.7 C 11.3 km/h
1372 30-05-2014 18:05:00 16.8 C 7.86 g/m*3 16.8 C 11.3 km/h
1373 30-05-2014 18:10:00 16.9 C 8.05 g/m*3 16.9 C 9.7 km/h
1374 30-05-2014 18:15:00 16.8 C 8.01 g/m*3 16.8 C 11.3 km/h
1375 30-05-2014 18:20:00 16.6 C 7.77 g/m*3 16.6 C 12.9 km/h
Sensor: Nr:Datum:Temp:Abs-Feuchte:Windchill:Wind:
Aussen-T/F 1376 30-05-2014 18:25:00 16.4 C 7.82 g/m*3 16.4 C 8.1 km/h
1377 30-05-2014 18:30:00 16.1 C 7.68 g/m*3 16.1 C 4.8 km/h
1378 30-05-2014 18:35:00 15.9 C 7.85 g/m*3 15.9 C 8.1 km/h
1379 30-05-2014 18:40:00 16 C 8.04 g/m*3 16 C 8.1 km/h
1380 30-05-2014 18:45:00 16.3 C 8.05 g/m*3 16.3 C 11.3 km/h
1381 30-05-2014 18:50:00 16.7 C 8.24 g/m*3 16.7 C 9.7 km/h
1382 30-05-2014 18:55:00 17 C 8.25 g/m*3 17 C 11.3 km/h
1383 30-05-2014 19:00:00 16.7 C 7.96 g/m*3 16.7 C 14.5 km/h
1384 30-05-2014 19:05:00 16.2 C 7.86 g/m*3 16.2 C 6.4 km/h
1385 30-05-2014 19:10:00 15.6 C 7.58 g/m*3 15.6 C 12.9 km/h
1386 30-05-2014 19:15:00 15.3 C 7.84 g/m*3 15.3 C 8.1 km/h
1387 30-05-2014 19:20:00 15.1 C 7.74 g/m*3 15.1 C 9.7 km/h
1388 30-05-2014 19:25:00 15 C 7.82 g/m*3 15 C 9.7 km/h
1389 30-05-2014 19:30:00 15.1 C 7.87 g/m*3 15.1 C 6.4 km/h
1390 30-05-2014 19:35:00 15.1 C 7.74 g/m*3 15.1 C 8.1 km/h
1391 30-05-2014 19:40:00 15 C 7.69 g/m*3 15 C 8.1 km/h
1392 30-05-2014 19:45:00 14.9 C 7.65 g/m*3 14.9 C 9.7 km/h
1393 30-05-2014 19:50:00 14.8 C 7.73 g/m*3 14.8 C 8.1 km/h
1394 30-05-2014 19:55:00 14.7 C 7.55 g/m*3 14.7 C 9.7 km/h
1395 30-05-2014 20:00:00 14.6 C 7.63 g/m*3 14.6 C 3.2 km/h
1396 30-05-2014 20:05:00 14.6 C 7.63 g/m*3 14.6 C 6.4 km/h
1397 30-05-2014 20:10:00 14.6 C 7.51 g/m*3 14.6 C 3.2 km/h
1398 30-05-2014 20:15:00 14.6 C 7.76 g/m*3 14.6 C 1.6 km/h
1399 30-05-2014 20:20:00 14.4 C 7.29 g/m*3 14.4 C 3.2 km/h
1400 30-05-2014 20:25:00 14.4 C 7.42 g/m*3 14.4 C 0 km/h
Sensor: Nr:Datum:Temp:Abs-Feuchte:Windchill:Wind:
Aussen-T/F 1401 30-05-2014 20:30:00 14.3 C 7.25 g/m*3 14.3 C 1.6 km/h
1402 30-05-2014 20:35:00 14.2 C 8.06 g/m*3 14.2 C 0 km/h
1403 30-05-2014 20:40:00 14.1 C 7.4 g/m*3 14.1 C 0 km/h
1404 30-05-2014 20:45:00 14 C 7.72 g/m*3 14 C 0 km/h
1405 30-05-2014 20:50:00 13.8 C 8.22 g/m*3 13.8 C 0 km/h
1406 30-05-2014 20:55:00 13.6 C 8.47 g/m*3 13.6 C 0 km/h
1407 30-05-2014 21:00:00 13.2 C 8.5 g/m*3 13.2 C 0 km/h
1408 30-05-2014 21:05:00 12.8 C 8.4 g/m*3 12.8 C 0 km/h
1409 30-05-2014 21:10:00 12.4 C 8.19 g/m*3 12.4 C 0 km/h
1410 30-05-2014 21:15:00 12.1 C 8.15 g/m*3 12.1 C 1.6 km/h
1411 30-05-2014 21:20:00 11.7 C 8.05 g/m*3 11.7 C 0 km/h
1412 30-05-2014 21:25:00 11.5 C 7.95 g/m*3 11.5 C 0 km/h
1413 30-05-2014 21:30:00 11.3 C 7.85 g/m*3 11.3 C 1.6 km/h
1414 30-05-2014 21:35:00 11.1 C 7.76 g/m*3 11.1 C 1.6 km/h
1415 30-05-2014 21:40:00 10.9 C 7.66 g/m*3 10.9 C 0 km/h
1416 30-05-2014 21:45:00 10.7 C 7.66 g/m*3 10.7 C 0 km/h
1417 30-05-2014 21:50:00 10.6 C 7.52 g/m*3 10.6 C 1.6 km/h
1418 30-05-2014 21:55:00 10.5 C 7.57 g/m*3 10.5 C 0 km/h
1419 30-05-2014 22:00:00 10.4 C 7.52 g/m*3 10.4 C 0 km/h
1420 30-05-2014 22:05:00 10.3 C 7.57 g/m*3 10.3 C 1.6 km/h
1421 30-05-2014 22:10:00 10.2 C 7.61 g/m*3 10.2 C 0 km/h
1422 30-05-2014 22:15:00 10.1 C 7.66 g/m*3 10.1 C 0 km/h
1423 30-05-2014 22:20:00 10.1 C 7.66 g/m*3 10.1 C 0 km/h
1424 30-05-2014 22:25:00 10 C 7.61 g/m*3 10 C 0 km/h
1425 30-05-2014 22:30:00 9.9 C 7.56 g/m*3 9.9 C 0 km/h
Sensor: Nr:Datum:Temp:Abs-Feuchte:Windchill:Wind:
Aussen-T/F 1426 30-05-2014 22:35:00 9.8 C 7.61 g/m*3 9.8 C 0 km/h
1427 30-05-2014 22:40:00 9.7 C 7.56 g/m*3 9.7 C 0 km/h
1428 30-05-2014 22:45:00 9.6 C 7.69 g/m*3 9.6 C 0 km/h
1429 30-05-2014 22:50:00 9.5 C 7.65 g/m*3 9.5 C 0 km/h
1430 30-05-2014 22:55:00 9.4 C 7.6 g/m*3 9.4 C 0 km/h
1431 30-05-2014 23:00:00 9.4 C 7.6 g/m*3 9.4 C 0 km/h
1432 30-05-2014 23:05:00 9.3 C 7.55 g/m*3 9.3 C 0 km/h
1433 30-05-2014 23:10:00 9.2 C 7.5 g/m*3 9.2 C 0 km/h
1434 30-05-2014 23:15:00 9.1 C 7.54 g/m*3 9.1 C 0 km/h
1435 30-05-2014 23:20:00 8.9 C 7.45 g/m*3 8.9 C 0 km/h
1436 30-05-2014 23:25:00 8.8 C 7.4 g/m*3 8.8 C 0 km/h
1437 30-05-2014 23:30:00 8.7 C 7.44 g/m*3 8.7 C 0 km/h
1438 30-05-2014 23:35:00 8.6 C 7.39 g/m*3 8.6 C 0 km/h
1439 30-05-2014 23:40:00 8.5 C 7.34 g/m*3 8.5 C 0 km/h
1440 30-05-2014 23:45:00 8.4 C 7.38 g/m*3 8.4 C 0 km/h
1441 30-05-2014 23:50:00 8.4 C 7.38 g/m*3 8.4 C 0 km/h
1442 30-05-2014 23:55:00 8.3 C 7.33 g/m*3 8.3 C 0 km/h
1443 31-05-2014 00:00:00 8.3 C 7.33 g/m*3 8.3 C 0 km/h
1444 31-05-2014 00:05:00 8.2 C 7.2 g/m*3 8.2 C 0 km/h
1445 31-05-2014 00:10:00 8.2 C 7.29 g/m*3 8.2 C 0 km/h
1446 31-05-2014 00:15:00 8.2 C 7.29 g/m*3 8.2 C 0 km/h
1447 31-05-2014 00:20:00 8.1 C 7.24 g/m*3 8.1 C 0 km/h
1448 31-05-2014 00:25:00 8 C 7.19 g/m*3 8 C 0 km/h
1449 31-05-2014 00:30:00 8 C 7.28 g/m*3 8 C 0 km/h
1450 31-05-2014 00:35:00 7.9 C 7.23 g/m*3 7.9 C 0 km/h
Sensor: Nr:Datum:Temp:Abs-Feuchte:Windchill:Wind:
Aussen-T/F 1451 31-05-2014 00:40:00 7.8 C 7.18 g/m*3 7.8 C 0 km/h
1452 31-05-2014 00:45:00 7.8 C 7.26 g/m*3 7.8 C 0 km/h
1453 31-05-2014 00:50:00 7.7 C 7.22 g/m*3 7.7 C 0 km/h
1454 31-05-2014 00:55:00 7.7 C 7.22 g/m*3 7.7 C 0 km/h
1455 31-05-2014 01:00:00 7.7 C 7.22 g/m*3 7.7 C 0 km/h
1456 31-05-2014 01:05:00 7.6 C 7.25 g/m*3 7.6 C 0 km/h
1457 31-05-2014 01:10:00 7.6 C 7.25 g/m*3 7.6 C 0 km/h
1458 31-05-2014 01:15:00 7.5 C 7.2 g/m*3 7.5 C 0 km/h
1459 31-05-2014 01:20:00 7.5 C 7.2 g/m*3 7.5 C 0 km/h
1460 31-05-2014 01:25:00 7.4 C 7.16 g/m*3 7.4 C 0 km/h
1461 31-05-2014 01:30:00 7.4 C 7.16 g/m*3 7.4 C 0 km/h
1462 31-05-2014 01:35:00 7.3 C 7.19 g/m*3 7.3 C 0 km/h
1463 31-05-2014 01:40:00 7.3 C 7.11 g/m*3 7.3 C 0 km/h
1464 31-05-2014 01:45:00 7.3 C 7.19 g/m*3 7.3 C 0 km/h
1465 31-05-2014 01:50:00 7.3 C 7.19 g/m*3 7.3 C 0 km/h
1466 31-05-2014 01:55:00 7.2 C 7.14 g/m*3 7.2 C 0 km/h
1467 31-05-2014 02:00:00 7.2 C 7.14 g/m*3 7.2 C 0 km/h
1468 31-05-2014 02:05:00 7.2 C 7.14 g/m*3 7.2 C 0 km/h
1469 31-05-2014 02:10:00 7.1 C 7.18 g/m*3 7.1 C 0 km/h
1470 31-05-2014 02:15:00 7.1 C 7.18 g/m*3 7.1 C 0 km/h
1471 31-05-2014 02:20:00 7 C 7.13 g/m*3 7 C 0 km/h
1472 31-05-2014 02:25:00 6.9 C 7.08 g/m*3 6.9 C 0 km/h
1473 31-05-2014 02:30:00 6.9 C 7.08 g/m*3 6.9 C 0 km/h
1474 31-05-2014 02:35:00 6.8 C 7.11 g/m*3 6.8 C 0 km/h
1475 31-05-2014 02:40:00 6.8 C 7.11 g/m*3 6.8 C 0 km/h
Sensor: Nr:Datum:Temp:Abs-Feuchte:Windchill:Wind:
Aussen-T/F 1476 31-05-2014 02:45:00 6.7 C 7.07 g/m*3 6.7 C 1.6 km/h
1477 31-05-2014 02:50:00 6.7 C 7.07 g/m*3 6.7 C 1.6 km/h
1478 31-05-2014 02:55:00 6.7 C 7.07 g/m*3 6.7 C 0 km/h
1479 31-05-2014 03:00:00 6.7 C 7.07 g/m*3 6.7 C 0 km/h
1480 31-05-2014 03:05:00 6.6 C 7.02 g/m*3 6.6 C 0 km/h
1481 31-05-2014 03:10:00 6.6 C 7.02 g/m*3 6.6 C 0 km/h
1482 31-05-2014 03:15:00 6.6 C 7.02 g/m*3 6.6 C 0 km/h
1483 31-05-2014 03:20:00 6.5 C 6.97 g/m*3 6.5 C 0 km/h
1484 31-05-2014 03:25:00 6.4 C 7 g/m*3 6.4 C 0 km/h
1485 31-05-2014 03:30:00 6.4 C 7 g/m*3 6.4 C 0 km/h
1486 31-05-2014 03:35:00 6.4 C 7 g/m*3 6.4 C 0 km/h
1487 31-05-2014 03:40:00 6.3 C 6.96 g/m*3 6.3 C 0 km/h
1488 31-05-2014 03:45:00 6.3 C 6.96 g/m*3 6.3 C 0 km/h
1489 31-05-2014 03:50:00 6.3 C 6.96 g/m*3 6.3 C 0 km/h
1490 31-05-2014 03:55:00 6.2 C 6.91 g/m*3 6.2 C 0 km/h
1491 31-05-2014 04:00:00 6.2 C 6.91 g/m*3 6.2 C 1.6 km/h
1492 31-05-2014 04:05:00 6.1 C 6.87 g/m*3 6.1 C 0 km/h
1493 31-05-2014 04:10:00 6.1 C 6.87 g/m*3 6.1 C 0 km/h
1494 31-05-2014 04:15:00 6.1 C 6.87 g/m*3 6.1 C 0 km/h
1495 31-05-2014 04:20:00 6 C 6.82 g/m*3 6 C 0 km/h
1496 31-05-2014 04:25:00 6 C 6.82 g/m*3 6 C 0 km/h
1497 31-05-2014 04:30:00 6 C 6.9 g/m*3 6 C 0 km/h
1498 31-05-2014 04:35:00 6 C 6.9 g/m*3 6 C 0 km/h
1499 31-05-2014 04:40:00 5.9 C 6.85 g/m*3 5.9 C 0 km/h
1500 31-05-2014 04:45:00 5.9 C 6.85 g/m*3 5.9 C 0 km/h
Sensor: Nr:Datum:Temp:Abs-Feuchte:Windchill:Wind:
Aussen-T/F 1501 31-05-2014 04:50:00 5.8 C 6.81 g/m*3 5.8 C 0 km/h
1502 31-05-2014 04:55:00 5.8 C 6.81 g/m*3 5.8 C 0 km/h
1503 31-05-2014 05:00:00 5.8 C 6.81 g/m*3 5.8 C 1.6 km/h
1504 31-05-2014 05:05:00 5.8 C 6.81 g/m*3 5.8 C 0 km/h
1505 31-05-2014 05:10:00 5.7 C 6.76 g/m*3 5.7 C 0 km/h
1506 31-05-2014 05:15:00 5.7 C 6.76 g/m*3 5.7 C 0 km/h
1507 31-05-2014 05:20:00 5.6 C 6.72 g/m*3 5.6 C 0 km/h
1508 31-05-2014 05:25:00 5.5 C 6.67 g/m*3 5.5 C 0 km/h
1509 31-05-2014 05:30:00 5.4 C 6.63 g/m*3 5.4 C 0 km/h
1510 31-05-2014 05:35:00 5.4 C 6.63 g/m*3 5.4 C 0 km/h
1511 31-05-2014 05:40:00 5.4 C 6.63 g/m*3 5.4 C 0 km/h
1512 31-05-2014 05:45:00 5.4 C 6.63 g/m*3 5.4 C 0 km/h
1513 31-05-2014 05:50:00 5.4 C 6.63 g/m*3 5.4 C 0 km/h
1514 31-05-2014 05:55:00 5.3 C 6.58 g/m*3 5.3 C 0 km/h
1515 31-05-2014 06:00:00 5.3 C 6.58 g/m*3 5.3 C 0 km/h
1516 31-05-2014 06:05:00 5.3 C 6.58 g/m*3 5.3 C 0 km/h
1517 31-05-2014 06:10:00 5.4 C 6.63 g/m*3 5.4 C 0 km/h
1518 31-05-2014 06:15:00 5.4 C 6.63 g/m*3 5.4 C 1.6 km/h
1519 31-05-2014 06:20:00 5.5 C 6.74 g/m*3 5.5 C 3.2 km/h
1520 31-05-2014 06:25:00 5.5 C 6.74 g/m*3 5.5 C 4.8 km/h
1521 31-05-2014 06:30:00 5.6 C 6.79 g/m*3 5.6 C 3.2 km/h
1522 31-05-2014 06:35:00 5.6 C 6.79 g/m*3 5.6 C 4.8 km/h
1523 31-05-2014 06:40:00 5.7 C 6.83 g/m*3 5.7 C 3.2 km/h
1524 31-05-2014 06:45:00 5.7 C 6.83 g/m*3 5.7 C 3.2 km/h
1525 31-05-2014 06:50:00 5.7 C 6.83 g/m*3 5.7 C 3.2 km/h
Sensor: Nr:Datum:Temp:Abs-Feuchte:Windchill:Wind:
Aussen-T/F 1526 31-05-2014 06:55:00 5.7 C 6.83 g/m*3 5.7 C 3.2 km/h
1527 31-05-2014 07:00:00 5.8 C 6.88 g/m*3 5.8 C 4.8 km/h
1528 31-05-2014 07:05:00 5.8 C 6.88 g/m*3 5.8 C 3.2 km/h
1529 31-05-2014 07:10:00 5.8 C 6.88 g/m*3 5.8 C 3.2 km/h
1530 31-05-2014 07:15:00 5.9 C 6.92 g/m*3 5.9 C 3.2 km/h
1531 31-05-2014 07:20:00 6 C 6.97 g/m*3 6 C 1.6 km/h
1532 31-05-2014 07:25:00 6.1 C 7.01 g/m*3 6.1 C 3.2 km/h
1533 31-05-2014 07:30:00 6.1 C 7.01 g/m*3 6.1 C 3.2 km/h
1534 31-05-2014 07:35:00 6.3 C 7.11 g/m*3 6.3 C 0 km/h
1535 31-05-2014 07:40:00 6.4 C 7.15 g/m*3 6.4 C 1.6 km/h
1536 31-05-2014 07:45:00 6.6 C 7.25 g/m*3 6.6 C 1.6 km/h
1537 31-05-2014 07:50:00 6.7 C 7.29 g/m*3 6.7 C 0 km/h
1538 31-05-2014 07:55:00 7 C 7.44 g/m*3 7 C 0 km/h
1539 31-05-2014 08:00:00 7.3 C 7.58 g/m*3 7.3 C 0 km/h
1540 31-05-2014 08:05:00 7.5 C 7.6 g/m*3 7.5 C 0 km/h
1541 31-05-2014 08:10:00 7.8 C 7.67 g/m*3 7.8 C 0 km/h
1542 31-05-2014 08:15:00 8.1 C 7.82 g/m*3 8.1 C 0 km/h
1543 31-05-2014 08:20:00 8.4 C 7.8 g/m*3 8.4 C 0 km/h
1544 31-05-2014 08:25:00 8.6 C 7.91 g/m*3 8.6 C 0 km/h
1545 31-05-2014 08:30:00 8.8 C 7.83 g/m*3 8.8 C 0 km/h
1546 31-05-2014 08:35:00 8.9 C 7.88 g/m*3 8.9 C 0 km/h
1547 31-05-2014 08:40:00 9.1 C 7.99 g/m*3 9.1 C 0 km/h
1548 31-05-2014 08:45:00 9.3 C 8.09 g/m*3 9.3 C 0 km/h
1549 31-05-2014 08:50:00 9.5 C 8.19 g/m*3 9.5 C 0 km/h
1550 31-05-2014 08:55:00 9.8 C 8.26 g/m*3 9.8 C 0 km/h
Sensor: Nr:Datum:Temp:Abs-Feuchte:Windchill:Wind:
Aussen-T/F 1551 31-05-2014 09:00:00 10.1 C 8.32 g/m*3 10.1 C 0 km/h
1552 31-05-2014 09:05:00 10.3 C 8.33 g/m*3 10.3 C 1.6 km/h
1553 31-05-2014 09:10:00 10.5 C 8.44 g/m*3 10.5 C 0 km/h
1554 31-05-2014 09:15:00 10.3 C 8.33 g/m*3 10.3 C 0 km/h
1555 31-05-2014 09:20:00 10.2 C 8.37 g/m*3 10.2 C 0 km/h
1556 31-05-2014 09:25:00 10.2 C 8.47 g/m*3 10.2 C 0 km/h
1557 31-05-2014 09:30:00 10.2 C 8.56 g/m*3 10.2 C 0 km/h
1558 31-05-2014 09:35:00 10.2 C 8.56 g/m*3 10.2 C 0 km/h
1559 31-05-2014 09:40:00 10.3 C 8.62 g/m*3 10.3 C 0 km/h
1560 31-05-2014 09:45:00 10.4 C 8.58 g/m*3 10.4 C 0 km/h
1561 31-05-2014 09:50:00 10.7 C 8.74 g/m*3 10.7 C 0 km/h
1562 31-05-2014 09:55:00 11.2 C 8.92 g/m*3 11.2 C 1.6 km/h
1563 31-05-2014 10:00:00 11.9 C 9.11 g/m*3 11.9 C 0 km/h
1564 31-05-2014 10:05:00 12.5 C 9.24 g/m*3 12.5 C 0 km/h
1565 31-05-2014 10:10:00 12.9 C 9.24 g/m*3 12.9 C 0 km/h
1566 31-05-2014 10:15:00 13.2 C 9.42 g/m*3 13.2 C 0 km/h
1567 31-05-2014 10:20:00 13.7 C 9.59 g/m*3 13.7 C 0 km/h
1568 31-05-2014 10:25:00 13.9 C 9.59 g/m*3 13.9 C 0 km/h
1569 31-05-2014 10:30:00 14.1 C 9.95 g/m*3 14.1 C 0 km/h
1570 31-05-2014 10:35:00 14.2 C 9.77 g/m*3 14.2 C 1.6 km/h
1571 31-05-2014 10:40:00 14.5 C 9.58 g/m*3 14.5 C 0 km/h
1572 31-05-2014 10:45:00 14.8 C 9.37 g/m*3 14.8 C 1.6 km/h
1573 31-05-2014 10:50:00 15.3 C 9.92 g/m*3 15.3 C 0 km/h
1574 31-05-2014 10:55:00 15.6 C 10.24 g/m*3 15.6 C 0 km/h
1575 31-05-2014 11:00:00 15.9 C 9.34 g/m*3 15.9 C 1.6 km/h
Sensor: Nr:Datum:Temp:Abs-Feuchte:Windchill:Wind:
Aussen-T/F 1576 31-05-2014 11:05:00 16.3 C 9.71 g/m*3 16.3 C 4.8 km/h
1577 31-05-2014 11:10:00 16.9 C 10.07 g/m*3 16.9 C 6.4 km/h
1578 31-05-2014 11:15:00 17.3 C 10.16 g/m*3 17.3 C 4.8 km/h
1579 31-05-2014 11:20:00 17.6 C 9.9 g/m*3 17.6 C 3.2 km/h
1580 31-05-2014 11:25:00 17.6 C 10.05 g/m*3 17.6 C 1.6 km/h
1581 31-05-2014 11:30:00 17.7 C 9.66 g/m*3 17.7 C 6.4 km/h
1582 31-05-2014 11:35:00 17.9 C 10.54 g/m*3 17.9 C 1.6 km/h
1583 31-05-2014 11:40:00 18 C 10.44 g/m*3 18 C 3.2 km/h
1584 31-05-2014 11:45:00 18.3 C 9.69 g/m*3 18.3 C 3.2 km/h
1585 31-05-2014 11:50:00 18.7 C 9.45 g/m*3 18.7 C 8.1 km/h
1586 31-05-2014 11:55:00 18.8 C 9.82 g/m*3 18.8 C 4.8 km/h
1587 31-05-2014 12:00:00 19.2 C 9.56 g/m*3 19.2 C 8.1 km/h
1588 31-05-2014 12:05:00 19.6 C 9.62 g/m*3 19.6 C 4.8 km/h
1589 31-05-2014 12:10:00 19.7 C 8.83 g/m*3 19.7 C 9.7 km/h
1590 31-05-2014 12:15:00 19.6 C 9.12 g/m*3 19.6 C 8.1 km/h
1591 31-05-2014 12:20:00 19.3 C 8.79 g/m*3 19.3 C 3.2 km/h
1592 31-05-2014 12:25:00 18.9 C 8.91 g/m*3 18.9 C 8.1 km/h
1593 31-05-2014 12:30:00 18.8 C 8.54 g/m*3 18.8 C 6.4 km/h
1594 31-05-2014 12:35:00 18.8 C 8.54 g/m*3 18.8 C 4.8 km/h
1595 31-05-2014 12:40:00 18.9 C 8.75 g/m*3 18.9 C 9.7 km/h
1596 31-05-2014 12:45:00 18.7 C 8.81 g/m*3 18.7 C 8.1 km/h
1597 31-05-2014 12:50:00 18.6 C 8.59 g/m*3 18.6 C 8.1 km/h
1598 31-05-2014 12:55:00 18.8 C 9.02 g/m*3 18.8 C 9.7 km/h
1599 31-05-2014 13:00:00 19.2 C 9.07 g/m*3 19.2 C 6.4 km/h
1600 31-05-2014 13:05:00 19.4 C 8.84 g/m*3 19.4 C 9.7 km/h
Sensor: Nr:Datum:Temp:Abs-Feuchte:Windchill:Wind:
Aussen-T/F 1601 31-05-2014 13:10:00 19.4 C 8.51 g/m*3 19.4 C 8.1 km/h
1602 31-05-2014 13:15:00 19.4 C 8.84 g/m*3 19.4 C 4.8 km/h
1603 31-05-2014 13:20:00 19.7 C 8.49 g/m*3 19.7 C 4.8 km/h
1604 31-05-2014 13:25:00 19.9 C 8.59 g/m*3 19.9 C 3.2 km/h
1605 31-05-2014 13:30:00 20.2 C 9.09 g/m*3 20.2 C 4.8 km/h
1606 31-05-2014 13:35:00 20.4 C 9.38 g/m*3 20.4 C 6.4 km/h
1607 31-05-2014 13:40:00 20.7 C 9.36 g/m*3 20.7 C 9.7 km/h
1608 31-05-2014 13:45:00 20.8 C 8.51 g/m*3 20.8 C 6.4 km/h
1609 31-05-2014 13:50:00 21.1 C 9.4 g/m*3 21.1 C 6.4 km/h
1610 31-05-2014 13:55:00 20.8 C 7.97 g/m*3 20.8 C 3.2 km/h
1611 31-05-2014 14:00:00 20.5 C 8.19 g/m*3 20.5 C 6.4 km/h
1612 31-05-2014 14:05:00 20.1 C 8.17 g/m*3 20.1 C 9.7 km/h
1613 31-05-2014 14:10:00 19.8 C 8.37 g/m*3 19.8 C 6.4 km/h
1614 31-05-2014 14:15:00 19.6 C 8.27 g/m*3 19.6 C 6.4 km/h
1615 31-05-2014 14:20:00 19.4 C 8.34 g/m*3 19.4 C 6.4 km/h
1616 31-05-2014 14:25:00 19.3 C 8.29 g/m*3 19.3 C 3.2 km/h
1617 31-05-2014 14:30:00 19.3 C 8.63 g/m*3 19.3 C 3.2 km/h
1618 31-05-2014 14:35:00 19.3 C 8.13 g/m*3 19.3 C 3.2 km/h
1619 31-05-2014 14:40:00 19.3 C 7.8 g/m*3 19.3 C 4.8 km/h
1620 31-05-2014 14:45:00 19.7 C 8.49 g/m*3 19.7 C 6.4 km/h
1621 31-05-2014 14:50:00 20.4 C 8.67 g/m*3 20.4 C 4.8 km/h
1622 31-05-2014 14:55:00 21 C 8.24 g/m*3 21 C 6.4 km/h
1623 31-05-2014 15:00:00 21.3 C 8.02 g/m*3 21.3 C 4.8 km/h
1624 31-05-2014 15:05:00 21.1 C 7.92 g/m*3 21.1 C 4.8 km/h
1625 31-05-2014 15:10:00 20.8 C 8.15 g/m*3 20.8 C 3.2 km/h
Sensor: Nr:Datum:Temp:Abs-Feuchte:Windchill:Wind:
Aussen-T/F 1626 31-05-2014 15:15:00 20.6 C 8.23 g/m*3 20.6 C 4.8 km/h
1627 31-05-2014 15:20:00 20.5 C 8.19 g/m*3 20.5 C 6.4 km/h
1628 31-05-2014 15:25:00 20.3 C 8.27 g/m*3 20.3 C 6.4 km/h
1629 31-05-2014 15:30:00 20.2 C 9.27 g/m*3 20.2 C 4.8 km/h
1630 31-05-2014 15:35:00 19.7 C 10.19 g/m*3 19.7 C 0 km/h
1631 31-05-2014 15:40:00 19.7 C 10.02 g/m*3 19.7 C 0 km/h
1632 31-05-2014 15:45:00 20.3 C 8.62 g/m*3 20.3 C 1.6 km/h
1633 31-05-2014 15:50:00 20.7 C 7.56 g/m*3 20.7 C 4.8 km/h
1634 31-05-2014 15:55:00 20.6 C 10.2 g/m*3 20.6 C 4.8 km/h
1635 31-05-2014 16:00:00 20.3 C 8.09 g/m*3 20.3 C 8.1 km/h
1636 31-05-2014 16:05:00 20.3 C 8.44 g/m*3 20.3 C 1.6 km/h
1637 31-05-2014 16:10:00 20.3 C 8.62 g/m*3 20.3 C 6.4 km/h
1638 31-05-2014 16:15:00 20.3 C 9.5 g/m*3 20.3 C 4.8 km/h
1639 31-05-2014 16:20:00 19.7 C 9.68 g/m*3 19.7 C 1.6 km/h
1640 31-05-2014 16:25:00 19.2 C 9.89 g/m*3 19.2 C 3.2 km/h
1641 31-05-2014 16:30:00 18.9 C 8.42 g/m*3 18.9 C 4.8 km/h
1642 31-05-2014 16:35:00 19.1 C 8.52 g/m*3 19.1 C 6.4 km/h
1643 31-05-2014 16:40:00 19.3 C 9.12 g/m*3 19.3 C 4.8 km/h
1644 31-05-2014 16:45:00 18.8 C 10.47 g/m*3 18.8 C 0 km/h
1645 31-05-2014 16:50:00 18.4 C 9.75 g/m*3 18.4 C 1.6 km/h
1646 31-05-2014 16:55:00 18.2 C 10.57 g/m*3 18.2 C 0 km/h
1647 31-05-2014 17:00:00 18 C 10.75 g/m*3 18 C 0 km/h
1648 31-05-2014 17:05:00 17.9 C 10.38 g/m*3 17.9 C 0 km/h
1649 31-05-2014 17:10:00 18.4 C 10.54 g/m*3 18.4 C 3.2 km/h
1650 31-05-2014 17:15:00 19.9 C 9.11 g/m*3 19.9 C 11.3 km/h
Sensor: Nr:Datum:Temp:Abs-Feuchte:Windchill:Wind:
Aussen-T/F 1651 31-05-2014 17:20:00 20.9 C 9.11 g/m*3 20.9 C 8.1 km/h
1652 31-05-2014 17:25:00 21.2 C 8.71 g/m*3 21.2 C 8.1 km/h
1653 31-05-2014 17:30:00 20.9 C 8.38 g/m*3 20.9 C 4.8 km/h
1654 31-05-2014 17:35:00 20.8 C 8.33 g/m*3 20.8 C 9.7 km/h
1655 31-05-2014 17:40:00 20.8 C 8.51 g/m*3 20.8 C 9.7 km/h
1656 31-05-2014 17:45:00 20.8 C 8.69 g/m*3 20.8 C 4.8 km/h
1657 31-05-2014 17:50:00 20.7 C 8.64 g/m*3 20.7 C 4.8 km/h
1658 31-05-2014 17:55:00 20.4 C 8.49 g/m*3 20.4 C 8.1 km/h
1659 31-05-2014 18:00:00 20.3 C 8.97 g/m*3 20.3 C 4.8 km/h
1660 31-05-2014 18:05:00 20.2 C 8.92 g/m*3 20.2 C 4.8 km/h
1661 31-05-2014 18:10:00 20.2 C 8.39 g/m*3 20.2 C 6.4 km/h
1662 31-05-2014 18:15:00 20.2 C 8.39 g/m*3 20.2 C 6.4 km/h
1663 31-05-2014 18:20:00 20.4 C 8.67 g/m*3 20.4 C 4.8 km/h
1664 31-05-2014 18:25:00 21 C 8.61 g/m*3 21 C 4.8 km/h
1665 31-05-2014 18:30:00 21.6 C 8.16 g/m*3 21.6 C 4.8 km/h
1666 31-05-2014 18:35:00 21.7 C 8.39 g/m*3 21.7 C 4.8 km/h
1667 31-05-2014 18:40:00 21.4 C 10.31 g/m*3 21.4 C 3.2 km/h
1668 31-05-2014 18:45:00 21.4 C 8.44 g/m*3 21.4 C 6.4 km/h
1669 31-05-2014 18:50:00 21.7 C 8.01 g/m*3 21.7 C 6.4 km/h
1670 31-05-2014 18:55:00 21.9 C 8.3 g/m*3 21.9 C 6.4 km/h
1671 31-05-2014 19:00:00 22.1 C 8.59 g/m*3 22.1 C 11.3 km/h
1672 31-05-2014 19:05:00 22 C 8.73 g/m*3 22 C 9.7 km/h
1673 31-05-2014 19:10:00 21.8 C 8.25 g/m*3 21.8 C 9.7 km/h
1674 31-05-2014 19:15:00 21.7 C 8.58 g/m*3 21.7 C 6.4 km/h
1675 31-05-2014 19:20:00 21.5 C 8.3 g/m*3 21.5 C 6.4 km/h
Sensor: Nr:Datum:Temp:Abs-Feuchte:Windchill:Wind:
Aussen-T/F 1676 31-05-2014 19:25:00 21.3 C 8.2 g/m*3 21.3 C 6.4 km/h
1677 31-05-2014 19:30:00 21 C 8.24 g/m*3 21 C 4.8 km/h
1678 31-05-2014 19:35:00 20.6 C 7.87 g/m*3 20.6 C 8.1 km/h
1679 31-05-2014 19:40:00 20.4 C 7.96 g/m*3 20.4 C 9.7 km/h
1680 31-05-2014 19:45:00 20.2 C 7.87 g/m*3 20.2 C 4.8 km/h
1681 31-05-2014 19:50:00 20.1 C 7.82 g/m*3 20.1 C 4.8 km/h
1682 31-05-2014 19:55:00 19.9 C 8.08 g/m*3 19.9 C 1.6 km/h
1683 31-05-2014 20:00:00 19.7 C 9.85 g/m*3 19.7 C 0 km/h
1684 31-05-2014 20:05:00 18.9 C 10.37 g/m*3 18.9 C 0 km/h
1685 31-05-2014 20:10:00 18.2 C 10.41 g/m*3 18.2 C 0 km/h
1686 31-05-2014 20:15:00 17.7 C 10.26 g/m*3 17.7 C 0 km/h
1687 31-05-2014 20:20:00 17.3 C 10.16 g/m*3 17.3 C 0 km/h
1688 31-05-2014 20:25:00 16.9 C 10.07 g/m*3 16.9 C 0 km/h
1689 31-05-2014 20:30:00 16.7 C 10.37 g/m*3 16.7 C 0 km/h
1690 31-05-2014 20:35:00 16.4 C 10.19 g/m*3 16.4 C 1.6 km/h
1691 31-05-2014 20:40:00 16.2 C 10.07 g/m*3 16.2 C 1.6 km/h
1692 31-05-2014 20:45:00 16 C 10.08 g/m*3 16 C 0 km/h
1693 31-05-2014 20:50:00 15.8 C 9.96 g/m*3 15.8 C 0 km/h
1694 31-05-2014 20:55:00 15.6 C 9.97 g/m*3 15.6 C 0 km/h
1695 31-05-2014 21:00:00 15.3 C 9.79 g/m*3 15.3 C 0 km/h
1696 31-05-2014 21:05:00 15.2 C 9.73 g/m*3 15.2 C 0 km/h
1697 31-05-2014 21:10:00 15 C 9.75 g/m*3 15 C 1.6 km/h
1698 31-05-2014 21:15:00 14.8 C 9.63 g/m*3 14.8 C 1.6 km/h
1699 31-05-2014 21:20:00 14.7 C 9.57 g/m*3 14.7 C 1.6 km/h
1700 31-05-2014 21:25:00 14.4 C 9.64 g/m*3 14.4 C 0 km/h
Sensor: Nr:Datum:Temp:Abs-Feuchte:Windchill:Wind:
Aussen-T/F 1701 31-05-2014 21:30:00 14.3 C 9.58 g/m*3 14.3 C 1.6 km/h
1702 31-05-2014 21:35:00 14.2 C 9.52 g/m*3 14.2 C 1.6 km/h
1703 31-05-2014 21:40:00 14.1 C 9.59 g/m*3 14.1 C 1.6 km/h
1704 31-05-2014 21:45:00 13.9 C 9.47 g/m*3 13.9 C 0 km/h
1705 31-05-2014 21:50:00 13.8 C 9.41 g/m*3 13.8 C 0 km/h
1706 31-05-2014 21:55:00 13.8 C 9.29 g/m*3 13.8 C 0 km/h
1707 31-05-2014 22:00:00 13.7 C 9.35 g/m*3 13.7 C 0 km/h
1708 31-05-2014 22:05:00 13.7 C 9.35 g/m*3 13.7 C 0 km/h
1709 31-05-2014 22:10:00 13.6 C 9.18 g/m*3 13.6 C 0 km/h
1710 31-05-2014 22:15:00 13.6 C 9.3 g/m*3 13.6 C 0 km/h
1711 31-05-2014 22:20:00 13.6 C 9.3 g/m*3 13.6 C 0 km/h
1712 31-05-2014 22:25:00 13.5 C 9.36 g/m*3 13.5 C 0 km/h
1713 31-05-2014 22:30:00 13.5 C 9.24 g/m*3 13.5 C 0 km/h
1714 31-05-2014 22:35:00 13.5 C 9.36 g/m*3 13.5 C 0 km/h
1715 31-05-2014 22:40:00 13.4 C 9.42 g/m*3 13.4 C 0 km/h
1716 31-05-2014 22:45:00 13.4 C 9.53 g/m*3 13.4 C 0 km/h
1717 31-05-2014 22:50:00 13.4 C 9.3 g/m*3 13.4 C 0 km/h
1718 31-05-2014 22:55:00 13.4 C 9.18 g/m*3 13.4 C 0 km/h
1719 31-05-2014 23:00:00 13.4 C 9.18 g/m*3 13.4 C 0 km/h
1720 31-05-2014 23:05:00 13.4 C 9.18 g/m*3 13.4 C 0 km/h
1721 31-05-2014 23:10:00 13.3 C 9.13 g/m*3 13.3 C 0 km/h
1722 31-05-2014 23:15:00 13.3 C 9.13 g/m*3 13.3 C 0 km/h
1723 31-05-2014 23:20:00 13.3 C 9.24 g/m*3 13.3 C 0 km/h
1724 31-05-2014 23:25:00 13.3 C 9.24 g/m*3 13.3 C 0 km/h
1725 31-05-2014 23:30:00 13.2 C 9.3 g/m*3 13.2 C 0 km/h
Sensor: Nr:Datum:Temp:Abs-Feuchte:Windchill:Wind:
Aussen-T/F 1726 31-05-2014 23:35:00 13.1 C 9.36 g/m*3 13.1 C 0 km/h
1727 31-05-2014 23:40:00 13 C 9.19 g/m*3 13 C 0 km/h
1728 31-05-2014 23:45:00 12.9 C 9.13 g/m*3 12.9 C 0 km/h
1729 31-05-2014 23:50:00 12.8 C 9.07 g/m*3 12.8 C 0 km/h
1730 31-05-2014 23:55:00 12.7 C 9.13 g/m*3 12.7 C 0 km/h
1731 01-06-2014 00:00:00 12.6 C 8.96 g/m*3 12.6 C 0 km/h
1732 01-06-2014 00:05:00 12.4 C 8.96 g/m*3 12.4 C 0 km/h
1733 01-06-2014 00:10:00 12.4 C 8.96 g/m*3 12.4 C 0 km/h
1734 01-06-2014 00:15:00 12.4 C 8.96 g/m*3 12.4 C 0 km/h
1735 01-06-2014 00:20:00 12.4 C 9.07 g/m*3 12.4 C 0 km/h
1736 01-06-2014 00:25:00 12.3 C 8.9 g/m*3 12.3 C 0 km/h
1737 01-06-2014 00:30:00 12.4 C 9.07 g/m*3 12.4 C 0 km/h
1738 01-06-2014 00:35:00 12.4 C 9.07 g/m*3 12.4 C 0 km/h
1739 01-06-2014 00:40:00 12.4 C 9.07 g/m*3 12.4 C 0 km/h
1740 01-06-2014 00:45:00 12.4 C 9.07 g/m*3 12.4 C 0 km/h
1741 01-06-2014 00:50:00 12.4 C 8.96 g/m*3 12.4 C 0 km/h
1742 01-06-2014 00:55:00 12.3 C 8.9 g/m*3 12.3 C 0 km/h
1743 01-06-2014 01:00:00 12.3 C 8.9 g/m*3 12.3 C 3.2 km/h
1744 01-06-2014 01:05:00 12.3 C 8.9 g/m*3 12.3 C 0 km/h
1745 01-06-2014 01:10:00 12.2 C 8.96 g/m*3 12.2 C 0 km/h
1746 01-06-2014 01:15:00 12.2 C 8.96 g/m*3 12.2 C 0 km/h
1747 01-06-2014 01:20:00 12.2 C 8.96 g/m*3 12.2 C 0 km/h
1748 01-06-2014 01:25:00 12.3 C 9.01 g/m*3 12.3 C 0 km/h
1749 01-06-2014 01:30:00 12.3 C 9.01 g/m*3 12.3 C 0 km/h
1750 01-06-2014 01:35:00 12.3 C 9.01 g/m*3 12.3 C 0 km/h
Sensor: Nr:Datum:Temp:Abs-Feuchte:Windchill:Wind:
Aussen-T/F 1751 01-06-2014 01:40:00 12.2 C 8.96 g/m*3 12.2 C 0 km/h
1752 01-06-2014 01:45:00 12.1 C 9.01 g/m*3 12.1 C 0 km/h
1753 01-06-2014 01:50:00 12.1 C 9.01 g/m*3 12.1 C 0 km/h
1754 01-06-2014 01:55:00 12 C 8.85 g/m*3 12 C 0 km/h
1755 01-06-2014 02:00:00 11.9 C 8.9 g/m*3 11.9 C 1.6 km/h
1756 01-06-2014 02:05:00 11.8 C 8.84 g/m*3 11.8 C 0 km/h
1757 01-06-2014 02:10:00 11.8 C 8.84 g/m*3 11.8 C 0 km/h
1758 01-06-2014 02:15:00 11.7 C 8.79 g/m*3 11.7 C 0 km/h
1759 01-06-2014 02:20:00 11.6 C 8.83 g/m*3 11.6 C 0 km/h
1760 01-06-2014 02:25:00 11.5 C 8.78 g/m*3 11.5 C 0 km/h
1761 01-06-2014 02:30:00 11.4 C 8.72 g/m*3 11.4 C 0 km/h
1762 01-06-2014 02:35:00 11.3 C 8.67 g/m*3 11.3 C 0 km/h
1763 01-06-2014 02:40:00 11.3 C 8.67 g/m*3 11.3 C 0 km/h
1764 01-06-2014 02:45:00 11.2 C 8.62 g/m*3 11.2 C 0 km/h
1765 01-06-2014 02:50:00 11.1 C 8.56 g/m*3 11.1 C 0 km/h
1766 01-06-2014 02:55:00 11 C 8.51 g/m*3 11 C 0 km/h
1767 01-06-2014 03:00:00 10.9 C 8.45 g/m*3 10.9 C 0 km/h
1768 01-06-2014 03:05:00 10.8 C 8.5 g/m*3 10.8 C 0 km/h
1769 01-06-2014 03:10:00 10.6 C 8.49 g/m*3 10.6 C 0 km/h
1770 01-06-2014 03:15:00 10.5 C 8.34 g/m*3 10.5 C 0 km/h
1771 01-06-2014 03:20:00 10.4 C 8.38 g/m*3 10.4 C 0 km/h
1772 01-06-2014 03:25:00 10.3 C 8.33 g/m*3 10.3 C 0 km/h
1773 01-06-2014 03:30:00 10.3 C 8.43 g/m*3 10.3 C 0 km/h
1774 01-06-2014 03:35:00 10.3 C 8.43 g/m*3 10.3 C 0 km/h
1775 01-06-2014 03:40:00 10.3 C 8.43 g/m*3 10.3 C 1.6 km/h
Sensor: Nr:Datum:Temp:Abs-Feuchte:Windchill:Wind:
Aussen-T/F 1776 01-06-2014 03:45:00 10.4 C 8.48 g/m*3 10.4 C 1.6 km/h
1777 01-06-2014 03:50:00 10.4 C 8.48 g/m*3 10.4 C 0 km/h
1778 01-06-2014 03:55:00 10.4 C 8.48 g/m*3 10.4 C 0 km/h
1779 01-06-2014 04:00:00 10.4 C 8.48 g/m*3 10.4 C 0 km/h
1780 01-06-2014 04:05:00 10.3 C 8.43 g/m*3 10.3 C 0 km/h
1781 01-06-2014 04:10:00 10.3 C 8.52 g/m*3 10.3 C 0 km/h
1782 01-06-2014 04:15:00 10.2 C 8.47 g/m*3 10.2 C 0 km/h
1783 01-06-2014 04:20:00 10.2 C 8.47 g/m*3 10.2 C 0 km/h
1784 01-06-2014 04:25:00 10.2 C 8.47 g/m*3 10.2 C 0 km/h
1785 01-06-2014 04:30:00 10.2 C 8.47 g/m*3 10.2 C 0 km/h
1786 01-06-2014 04:35:00 10.2 C 8.56 g/m*3 10.2 C 0 km/h
1787 01-06-2014 04:40:00 10.2 C 8.56 g/m*3 10.2 C 0 km/h
1788 01-06-2014 04:45:00 10.2 C 8.56 g/m*3 10.2 C 0 km/h
1789 01-06-2014 04:50:00 10.2 C 8.56 g/m*3 10.2 C 0 km/h
1790 01-06-2014 04:55:00 10.3 C 8.62 g/m*3 10.3 C 0 km/h
1791 01-06-2014 05:00:00 10.3 C 8.62 g/m*3 10.3 C 0 km/h
1792 01-06-2014 05:05:00 10.3 C 8.62 g/m*3 10.3 C 0 km/h
1793 01-06-2014 05:10:00 10.3 C 8.62 g/m*3 10.3 C 0 km/h
1794 01-06-2014 05:15:00 10.2 C 8.56 g/m*3 10.2 C 0 km/h
1795 01-06-2014 05:20:00 10.2 C 8.56 g/m*3 10.2 C 0 km/h
1796 01-06-2014 05:25:00 10.3 C 8.71 g/m*3 10.3 C 0 km/h
1797 01-06-2014 05:30:00 10.3 C 8.71 g/m*3 10.3 C 0 km/h
1798 01-06-2014 05:35:00 10.3 C 8.71 g/m*3 10.3 C 0 km/h
1799 01-06-2014 05:40:00 10.6 C 8.78 g/m*3 10.6 C 1.6 km/h
1800 01-06-2014 05:45:00 10.7 C 8.84 g/m*3 10.7 C 1.6 km/h
Sensor: Nr:Datum:Temp:Abs-Feuchte:Windchill:Wind:
Aussen-T/F 1801 01-06-2014 05:50:00 10.8 C 8.8 g/m*3 10.8 C 0 km/h
1802 01-06-2014 05:55:00 10.9 C 8.85 g/m*3 10.9 C 0 km/h
1803 01-06-2014 06:00:00 11.1 C 8.96 g/m*3 11.1 C 1.6 km/h
1804 01-06-2014 06:05:00 11.2 C 8.92 g/m*3 11.2 C 1.6 km/h
1805 01-06-2014 06:10:00 11.2 C 8.92 g/m*3 11.2 C 0 km/h
1806 01-06-2014 06:15:00 11.3 C 8.98 g/m*3 11.3 C 1.6 km/h
1807 01-06-2014 06:20:00 11.4 C 8.83 g/m*3 11.4 C 6.4 km/h
1808 01-06-2014 06:25:00 11.4 C 8.83 g/m*3 11.4 C 0 km/h
1809 01-06-2014 06:30:00 11.6 C 8.94 g/m*3 11.6 C 3.2 km/h
1810 01-06-2014 06:35:00 11.6 C 8.73 g/m*3 11.6 C 0 km/h
1811 01-06-2014 06:40:00 11.7 C 8.79 g/m*3 11.7 C 3.2 km/h
1812 01-06-2014 06:45:00 11.8 C 8.84 g/m*3 11.8 C 1.6 km/h
1813 01-06-2014 06:50:00 11.8 C 8.74 g/m*3 11.8 C 0 km/h
1814 01-06-2014 06:55:00 11.8 C 8.84 g/m*3 11.8 C 3.2 km/h
1815 01-06-2014 07:00:00 11.8 C 8.84 g/m*3 11.8 C 4.8 km/h
1816 01-06-2014 07:05:00 11.8 C 8.74 g/m*3 11.8 C 1.6 km/h
1817 01-06-2014 07:10:00 11.9 C 8.9 g/m*3 11.9 C 0 km/h
1818 01-06-2014 07:15:00 11.9 C 8.9 g/m*3 11.9 C 0 km/h
1819 01-06-2014 07:20:00 12 C 8.85 g/m*3 12 C 0 km/h
1820 01-06-2014 07:25:00 12.1 C 8.9 g/m*3 12.1 C 0 km/h
1821 01-06-2014 07:30:00 12.2 C 9.06 g/m*3 12.2 C 0 km/h
1822 01-06-2014 07:35:00 12.3 C 9.12 g/m*3 12.3 C 6.4 km/h
1823 01-06-2014 07:40:00 12.3 C 9.01 g/m*3 12.3 C 1.6 km/h
1824 01-06-2014 07:45:00 12.4 C 8.96 g/m*3 12.4 C 1.6 km/h
1825 01-06-2014 07:50:00 12.4 C 8.96 g/m*3 12.4 C 0 km/h
Sensor: Nr:Datum:Temp:Abs-Feuchte:Windchill:Wind:
Aussen-T/F 1826 01-06-2014 07:55:00 12.4 C 8.96 g/m*3 12.4 C 1.6 km/h
1827 01-06-2014 08:00:00 12.4 C 8.85 g/m*3 12.4 C 1.6 km/h
1828 01-06-2014 08:05:00 12.6 C 9.07 g/m*3 12.6 C 0 km/h
1829 01-06-2014 08:10:00 12.8 C 9.18 g/m*3 12.8 C 3.2 km/h
1830 01-06-2014 08:15:00 12.9 C 9.13 g/m*3 12.9 C 3.2 km/h
1831 01-06-2014 08:20:00 12.9 C 9.02 g/m*3 12.9 C 3.2 km/h
1832 01-06-2014 08:25:00 13 C 9.3 g/m*3 13 C 0 km/h
1833 01-06-2014 08:30:00 13.1 C 9.24 g/m*3 13.1 C 3.2 km/h
1834 01-06-2014 08:35:00 13.2 C 9.19 g/m*3 13.2 C 0 km/h
1835 01-06-2014 08:40:00 13.2 C 9.19 g/m*3 13.2 C 0 km/h
1836 01-06-2014 08:45:00 13.2 C 9.19 g/m*3 13.2 C 1.6 km/h
1837 01-06-2014 08:50:00 13.3 C 9.36 g/m*3 13.3 C 0 km/h
1838 01-06-2014 08:55:00 13.5 C 9.47 g/m*3 13.5 C 1.6 km/h
1839 01-06-2014 09:00:00 13.7 C 9.47 g/m*3 13.7 C 3.2 km/h
1840 01-06-2014 09:05:00 13.7 C 9.47 g/m*3 13.7 C 3.2 km/h
1841 01-06-2014 09:10:00 13.7 C 9.47 g/m*3 13.7 C 1.6 km/h
1842 01-06-2014 09:15:00 13.7 C 9.47 g/m*3 13.7 C 3.2 km/h
1843 01-06-2014 09:20:00 13.7 C 9.47 g/m*3 13.7 C 1.6 km/h
1844 01-06-2014 09:25:00 14.1 C 9.59 g/m*3 14.1 C 3.2 km/h
1845 01-06-2014 09:30:00 14.1 C 9.47 g/m*3 14.1 C 3.2 km/h
1846 01-06-2014 09:35:00 14 C 9.29 g/m*3 14 C 3.2 km/h
1847 01-06-2014 09:40:00 14.1 C 9.47 g/m*3 14.1 C 1.6 km/h
1848 01-06-2014 09:45:00 14.2 C 9.65 g/m*3 14.2 C 3.2 km/h
1849 01-06-2014 09:50:00 14.4 C 9.77 g/m*3 14.4 C 1.6 km/h
1850 01-06-2014 09:55:00 14.7 C 9.57 g/m*3 14.7 C 3.2 km/h
Sensor: Nr:Datum:Temp:Abs-Feuchte:Windchill:Wind:
Aussen-T/F 1851 01-06-2014 10:00:00 15.1 C 9.8 g/m*3 15.1 C 3.2 km/h
1852 01-06-2014 10:05:00 15.5 C 9.78 g/m*3 15.5 C 3.2 km/h
1853 01-06-2014 10:10:00 15.9 C 9.62 g/m*3 15.9 C 4.8 km/h
1854 01-06-2014 10:15:00 16.1 C 9.6 g/m*3 16.1 C 4.8 km/h
1855 01-06-2014 10:20:00 16.3 C 9.85 g/m*3 16.3 C 1.6 km/h
1856 01-06-2014 10:25:00 16.4 C 9.63 g/m*3 16.4 C 3.2 km/h
1857 01-06-2014 10:30:00 16.5 C 9.55 g/m*3 16.5 C 4.8 km/h
1858 01-06-2014 10:35:00 16.5 C 9.69 g/m*3 16.5 C 4.8 km/h
1859 01-06-2014 10:40:00 16.7 C 9.52 g/m*3 16.7 C 4.8 km/h
1860 01-06-2014 10:45:00 16.9 C 9.78 g/m*3 16.9 C 8.1 km/h
1861 01-06-2014 10:50:00 17.1 C 9.61 g/m*3 17.1 C 4.8 km/h
1862 01-06-2014 10:55:00 17.3 C 9.87 g/m*3 17.3 C 6.4 km/h
1863 01-06-2014 11:00:00 17.4 C 9.19 g/m*3 17.4 C 9.7 km/h
1864 01-06-2014 11:05:00 17.6 C 9.6 g/m*3 17.6 C 9.7 km/h
1865 01-06-2014 11:10:00 17.8 C 9.71 g/m*3 17.8 C 6.4 km/h
1866 01-06-2014 11:15:00 18.1 C 9.58 g/m*3 18.1 C 4.8 km/h
1867 01-06-2014 11:20:00 18.2 C 9.33 g/m*3 18.2 C 9.7 km/h
1868 01-06-2014 11:25:00 18.3 C 9.07 g/m*3 18.3 C 8.1 km/h
1869 01-06-2014 11:30:00 18.3 C 9.85 g/m*3 18.3 C 8.1 km/h
1870 01-06-2014 11:35:00 18.4 C 9.44 g/m*3 18.4 C 9.7 km/h
1871 01-06-2014 11:40:00 18.4 C 9.91 g/m*3 18.4 C 4.8 km/h
1872 01-06-2014 11:45:00 18.6 C 9.71 g/m*3 18.6 C 4.8 km/h
1873 01-06-2014 11:50:00 18.8 C 9.34 g/m*3 18.8 C 8.1 km/h
1874 01-06-2014 11:55:00 19.1 C 9.84 g/m*3 19.1 C 4.8 km/h
1875 01-06-2014 12:00:00 19.2 C 9.56 g/m*3 19.2 C 9.7 km/h
Sensor: Nr:Datum:Temp:Abs-Feuchte:Windchill:Wind:
Aussen-T/F 1876 01-06-2014 12:05:00 19.2 C 9.73 g/m*3 19.2 C 8.1 km/h
1877 01-06-2014 12:10:00 19.4 C 9.84 g/m*3 19.4 C 11.3 km/h
1878 01-06-2014 12:15:00 19.6 C 9.62 g/m*3 19.6 C 6.4 km/h
1879 01-06-2014 12:20:00 19.7 C 10.19 g/m*3 19.7 C 6.4 km/h
1880 01-06-2014 12:25:00 19.9 C 8.93 g/m*3 19.9 C 9.7 km/h
1881 01-06-2014 12:30:00 19.7 C 9.51 g/m*3 19.7 C 8.1 km/h
1882 01-06-2014 12:35:00 20 C 9.51 g/m*3 20 C 4.8 km/h
1883 01-06-2014 12:40:00 20.3 C 9.5 g/m*3 20.3 C 11.3 km/h
1884 01-06-2014 12:45:00 20.3 C 9.15 g/m*3 20.3 C 8.1 km/h
1885 01-06-2014 12:50:00 20.4 C 9.73 g/m*3 20.4 C 11.3 km/h
1886 01-06-2014 12:55:00 20.7 C 9.18 g/m*3 20.7 C 4.8 km/h
1887 01-06-2014 13:00:00 20.6 C 9.13 g/m*3 20.6 C 11.3 km/h
1888 01-06-2014 13:05:00 20.4 C 9.2 g/m*3 20.4 C 9.7 km/h
1889 01-06-2014 13:10:00 20.5 C 9.43 g/m*3 20.5 C 6.4 km/h
1890 01-06-2014 13:15:00 20.6 C 9.13 g/m*3 20.6 C 8.1 km/h
1891 01-06-2014 13:20:00 20.7 C 9.36 g/m*3 20.7 C 8.1 km/h
1892 01-06-2014 13:25:00 20.6 C 9.84 g/m*3 20.6 C 8.1 km/h
1893 01-06-2014 13:30:00 20.8 C 8.87 g/m*3 20.8 C 8.1 km/h
1894 01-06-2014 13:35:00 21.1 C 10.32 g/m*3 21.1 C 8.1 km/h
1895 01-06-2014 13:40:00 21.1 C 9.21 g/m*3 21.1 C 3.2 km/h
1896 01-06-2014 13:45:00 21.1 C 9.03 g/m*3 21.1 C 14.5 km/h
1897 01-06-2014 13:50:00 20.9 C 9.29 g/m*3 20.9 C 8.1 km/h
1898 01-06-2014 13:55:00 20.7 C 9.36 g/m*3 20.7 C 9.7 km/h
1899 01-06-2014 14:00:00 20.4 C 9.02 g/m*3 20.4 C 11.3 km/h
1900 01-06-2014 14:05:00 20.1 C 8.87 g/m*3 20.1 C 8.1 km/h
Sensor: Nr:Datum:Temp:Abs-Feuchte:Windchill:Wind:
Aussen-T/F 1901 01-06-2014 14:10:00 19.8 C 8.71 g/m*3 19.8 C 8.1 km/h
1902 01-06-2014 14:15:00 19.8 C 8.71 g/m*3 19.8 C 11.3 km/h
1903 01-06-2014 14:55:00 21.7 C 8.58 g/m*3 21.7 C 12.9 km/h
1904 01-06-2014 15:00:00 21.7 C 8.58 g/m*3 21.7 C 12.9 km/h
1905 01-06-2014 15:05:00 21.7 C 8.58 g/m*3 21.7 C 14.5 km/h
1906 01-06-2014 15:25:00 22.1 C 8.98 g/m*3 22.1 C 8.1 km/h
1907 01-06-2014 15:30:00 22.2 C 9.23 g/m*3 22.2 C 12.9 km/h
1908 01-06-2014 15:35:00 22.3 C 9.28 g/m*3 22.3 C 9.7 km/h
1909 01-06-2014 15:40:00 22.4 C 8.94 g/m*3 22.4 C 12.9 km/h
1910 01-06-2014 15:45:00 22.3 C 8.69 g/m*3 22.3 C 11.3 km/h
1911 01-06-2014 15:50:00 21.7 C 8.77 g/m*3 21.7 C 11.3 km/h
1912 01-06-2014 15:55:00 21.2 C 8.71 g/m*3 21.2 C 11.3 km/h
1913 01-06-2014 16:00:00 21 C 8.61 g/m*3 21 C 12.9 km/h
1914 01-06-2014 16:05:00 21 C 8.98 g/m*3 21 C 9.7 km/h
1915 01-06-2014 16:10:00 21 C 8.98 g/m*3 21 C 12.9 km/h
1916 01-06-2014 16:30:00 20.9 C 8.74 g/m*3 20.9 C 12.9 km/h
1917 01-06-2014 16:35:00 20.9 C 9.11 g/m*3 20.9 C 8.1 km/h
1918 01-06-2014 16:40:00 21.1 C 8.84 g/m*3 21.1 C 11.3 km/h
1919 01-06-2014 16:45:00 21.1 C 8.66 g/m*3 21.1 C 8.1 km/h
1920 01-06-2014 16:50:00 20.9 C 8.92 g/m*3 20.9 C 11.3 km/h
1921 01-06-2014 16:55:00 20.8 C 8.33 g/m*3 20.8 C 9.7 km/h
1922 01-06-2014 17:00:00 20.4 C 8.49 g/m*3 20.4 C 11.3 km/h
1923 01-06-2014 17:05:00 20.2 C 8.22 g/m*3 20.2 C 9.7 km/h
1924 01-06-2014 17:10:00 20 C 8.47 g/m*3 20 C 11.3 km/h
1925 01-06-2014 17:15:00 19.9 C 8.76 g/m*3 19.9 C 8.1 km/h
Sensor: Nr:Datum:Temp:Abs-Feuchte:Windchill:Wind:
Aussen-T/F 1926 01-06-2014 17:20:00 19.9 C 8.59 g/m*3 19.9 C 8.1 km/h
1927 01-06-2014 17:25:00 20 C 8.64 g/m*3 20 C 8.1 km/h
1928 01-06-2014 17:30:00 20.4 C 8.85 g/m*3 20.4 C 6.4 km/h
1929 01-06-2014 17:35:00 20.5 C 8.72 g/m*3 20.5 C 11.3 km/h
1930 01-06-2014 17:40:00 20.6 C 8.41 g/m*3 20.6 C 11.3 km/h
1931 01-06-2014 17:45:00 20.6 C 8.59 g/m*3 20.6 C 9.7 km/h
1932 01-06-2014 17:50:00 20.3 C 8.27 g/m*3 20.3 C 14.5 km/h
1933 01-06-2014 17:55:00 20.1 C 8 g/m*3 20.1 C 12.9 km/h
1934 01-06-2014 18:00:00 19.9 C 8.25 g/m*3 19.9 C 6.4 km/h
1935 01-06-2014 18:05:00 19.6 C 8.1 g/m*3 19.6 C 11.3 km/h
1936 01-06-2014 18:10:00 19.6 C 8.44 g/m*3 19.6 C 6.4 km/h
1937 01-06-2014 18:15:00 19.4 C 8.18 g/m*3 19.4 C 8.1 km/h
1938 01-06-2014 18:20:00 19.3 C 8.13 g/m*3 19.3 C 9.7 km/h
1939 01-06-2014 18:25:00 19.4 C 8.51 g/m*3 19.4 C 8.1 km/h
1940 01-06-2014 18:30:00 19.4 C 8.01 g/m*3 19.4 C 8.1 km/h
1941 01-06-2014 18:35:00 19.4 C 7.84 g/m*3 19.4 C 9.7 km/h
1942 01-06-2014 18:40:00 19.4 C 8.01 g/m*3 19.4 C 8.1 km/h
1943 01-06-2014 18:45:00 19.3 C 8.13 g/m*3 19.3 C 9.7 km/h
1944 01-06-2014 18:50:00 19.2 C 8.08 g/m*3 19.2 C 9.7 km/h
1945 01-06-2014 18:55:00 19.2 C 8.08 g/m*3 19.2 C 6.4 km/h
1946 01-06-2014 19:00:00 19.3 C 8.13 g/m*3 19.3 C 6.4 km/h
1947 01-06-2014 19:05:00 19.4 C 8.01 g/m*3 19.4 C 9.7 km/h
1948 01-06-2014 19:10:00 19.3 C 7.96 g/m*3 19.3 C 6.4 km/h
1949 01-06-2014 19:15:00 19.1 C 7.7 g/m*3 19.1 C 4.8 km/h
1950 01-06-2014 19:20:00 19 C 8.15 g/m*3 19 C 4.8 km/h
Sensor: Nr:Datum:Temp:Abs-Feuchte:Windchill:Wind:
Aussen-T/F 1951 01-06-2014 19:25:00 19 C 8.31 g/m*3 19 C 8.1 km/h
1952 01-06-2014 19:30:00 19.1 C 8.2 g/m*3 19.1 C 6.4 km/h
1953 01-06-2014 19:35:00 19.1 C 8.2 g/m*3 19.1 C 8.1 km/h
1954 01-06-2014 19:40:00 19.2 C 8.24 g/m*3 19.2 C 8.1 km/h
1955 01-06-2014 19:45:00 19 C 8.15 g/m*3 19 C 8.1 km/h
1956 01-06-2014 19:50:00 18.9 C 8.1 g/m*3 18.9 C 6.4 km/h
1957 01-06-2014 19:55:00 18.8 C 8.21 g/m*3 18.8 C 4.8 km/h
1958 01-06-2014 20:00:00 18.7 C 8.01 g/m*3 18.7 C 4.8 km/h
1959 01-06-2014 20:05:00 18.6 C 8.12 g/m*3 18.6 C 6.4 km/h
1960 01-06-2014 20:10:00 18.5 C 8.07 g/m*3 18.5 C 1.6 km/h
1961 01-06-2014 20:15:00 18.3 C 7.97 g/m*3 18.3 C 3.2 km/h
1962 01-06-2014 20:20:00 18.2 C 7.93 g/m*3 18.2 C 4.8 km/h
1963 01-06-2014 20:25:00 18.1 C 8.03 g/m*3 18.1 C 3.2 km/h
1964 01-06-2014 20:30:00 18 C 8.45 g/m*3 18 C 0 km/h
1965 01-06-2014 20:35:00 17.8 C 9.26 g/m*3 17.8 C 0 km/h
1966 01-06-2014 20:40:00 17.4 C 9.34 g/m*3 17.4 C 0 km/h
1967 01-06-2014 20:45:00 17 C 9.12 g/m*3 17 C 0 km/h
1968 01-06-2014 20:50:00 16.7 C 9.24 g/m*3 16.7 C 0 km/h
1969 01-06-2014 20:55:00 16.4 C 8.93 g/m*3 16.4 C 0 km/h
1970 01-06-2014 21:00:00 16.3 C 9.02 g/m*3 16.3 C 0 km/h
1971 01-06-2014 21:05:00 16.2 C 9.38 g/m*3 16.2 C 0 km/h
1972 01-06-2014 21:10:00 16 C 9.4 g/m*3 16 C 0 km/h
1973 01-06-2014 21:15:00 15.9 C 9.62 g/m*3 15.9 C 0 km/h
1974 01-06-2014 21:20:00 15.8 C 9.83 g/m*3 15.8 C 0 km/h
1975 01-06-2014 21:25:00 15.7 C 9.63 g/m*3 15.7 C 0 km/h
Sensor: Nr:Datum:Temp:Abs-Feuchte:Windchill:Wind:
Aussen-T/F 1976 01-06-2014 21:30:00 15.6 C 9.58 g/m*3 15.6 C 0 km/h
1977 01-06-2014 21:35:00 15.5 C 9.39 g/m*3 15.5 C 0 km/h
1978 01-06-2014 21:40:00 15.4 C 9.2 g/m*3 15.4 C 0 km/h
1979 01-06-2014 21:45:00 15.3 C 9.4 g/m*3 15.3 C 0 km/h
1980 01-06-2014 21:50:00 15.3 C 9.53 g/m*3 15.3 C 0 km/h
1981 01-06-2014 21:55:00 15.3 C 9.53 g/m*3 15.3 C 1.6 km/h
1982 01-06-2014 22:00:00 15.3 C 9.4 g/m*3 15.3 C 1.6 km/h
1983 01-06-2014 22:05:00 15.6 C 9.31 g/m*3 15.6 C 1.6 km/h
1984 01-06-2014 22:10:00 15.6 C 9.44 g/m*3 15.6 C 1.6 km/h
1985 01-06-2014 22:15:00 15.4 C 9.33 g/m*3 15.4 C 0 km/h
1986 01-06-2014 22:20:00 15.2 C 9.35 g/m*3 15.2 C 0 km/h
1987 01-06-2014 22:25:00 15.1 C 9.42 g/m*3 15.1 C 0 km/h
1988 01-06-2014 22:30:00 14.9 C 9.3 g/m*3 14.9 C 0 km/h
1989 01-06-2014 22:35:00 14.8 C 9.37 g/m*3 14.8 C 0 km/h
1990 01-06-2014 22:40:00 14.7 C 9.44 g/m*3 14.7 C 0 km/h
1991 01-06-2014 22:45:00 14.6 C 9.26 g/m*3 14.6 C 0 km/h
1992 01-06-2014 22:50:00 14.6 C 9.26 g/m*3 14.6 C 0 km/h
1993 01-06-2014 22:55:00 14.6 C 9.26 g/m*3 14.6 C 0 km/h
1994 01-06-2014 23:00:00 14.5 C 9.2 g/m*3 14.5 C 0 km/h
1995 01-06-2014 23:05:00 14.4 C 9.27 g/m*3 14.4 C 0 km/h
1996 01-06-2014 23:10:00 14.3 C 9.09 g/m*3 14.3 C 0 km/h
1997 01-06-2014 23:15:00 14.2 C 8.91 g/m*3 14.2 C 0 km/h
1998 01-06-2014 23:20:00 14 C 8.68 g/m*3 14 C 0 km/h
1999 01-06-2014 23:25:00 13.9 C 8.75 g/m*3 13.9 C 0 km/h
2000 01-06-2014 23:30:00 13.8 C 8.94 g/m*3 13.8 C 0 km/h
Sensor: Nr:Datum:Temp:Abs-Feuchte:Windchill:Wind:
Aussen-T/F 2001 01-06-2014 23:35:00 13.8 C 9.06 g/m*3 13.8 C 1.6 km/h
2002 01-06-2014 23:40:00 13.7 C 9 g/m*3 13.7 C 1.6 km/h
2003 01-06-2014 23:45:00 13.7 C 9.24 g/m*3 13.7 C 1.6 km/h
2004 01-06-2014 23:50:00 13.7 C 9 g/m*3 13.7 C 0 km/h
2005 01-06-2014 23:55:00 13.8 C 9.06 g/m*3 13.8 C 0 km/h
2006 02-06-2014 00:00:00 13.7 C 9.24 g/m*3 13.7 C 0 km/h
2007 02-06-2014 00:05:00 13.7 C 9.24 g/m*3 13.7 C 0 km/h
2008 02-06-2014 00:10:00 13.6 C 8.94 g/m*3 13.6 C 0 km/h
2009 02-06-2014 00:15:00 13.6 C 9.06 g/m*3 13.6 C 0 km/h
2010 02-06-2014 00:20:00 13.5 C 9.01 g/m*3 13.5 C 0 km/h
2011 02-06-2014 00:25:00 13.5 C 9.01 g/m*3 13.5 C 0 km/h
2012 02-06-2014 00:30:00 13.4 C 8.83 g/m*3 13.4 C 0 km/h
2013 02-06-2014 00:35:00 13.4 C 8.95 g/m*3 13.4 C 0 km/h
2014 02-06-2014 00:40:00 13.3 C 8.9 g/m*3 13.3 C 0 km/h
2015 02-06-2014 00:45:00 13.3 C 9.01 g/m*3 13.3 C 0 km/h
2016 02-06-2014 00:50:00 13.2 C 8.84 g/m*3 13.2 C 0 km/h
2017 02-06-2014 00:55:00 13.2 C 9.07 g/m*3 13.2 C 0 km/h
2018 02-06-2014 01:00:00 13.1 C 8.9 g/m*3 13.1 C 0 km/h
2019 02-06-2014 01:05:00 13.1 C 8.9 g/m*3 13.1 C 0 km/h
2020 02-06-2014 01:10:00 13.1 C 9.01 g/m*3 13.1 C 0 km/h
2021 02-06-2014 01:15:00 13.1 C 8.56 g/m*3 13.1 C 0 km/h
2022 02-06-2014 01:20:00 13.2 C 8.73 g/m*3 13.2 C 1.6 km/h
2023 02-06-2014 01:25:00 13.2 C 8.73 g/m*3 13.2 C 1.6 km/h
2024 02-06-2014 01:30:00 13.3 C 9.01 g/m*3 13.3 C 0 km/h
2025 02-06-2014 01:35:00 13.2 C 8.84 g/m*3 13.2 C 0 km/h
Sensor: Nr:Datum:Temp:Abs-Feuchte:Windchill:Wind:
Aussen-T/F 2026 02-06-2014 01:40:00 13.1 C 8.79 g/m*3 13.1 C 0 km/h
2027 02-06-2014 01:45:00 12.9 C 8.9 g/m*3 12.9 C 0 km/h
2028 02-06-2014 01:50:00 12.7 C 8.68 g/m*3 12.7 C 0 km/h
2029 02-06-2014 01:55:00 12.3 C 8.47 g/m*3 12.3 C 0 km/h
2030 02-06-2014 02:00:00 12.2 C 8.52 g/m*3 12.2 C 1.6 km/h
2031 02-06-2014 02:05:00 12.1 C 8.47 g/m*3 12.1 C 0 km/h
2032 02-06-2014 02:10:00 12 C 8.42 g/m*3 12 C 0 km/h
2033 02-06-2014 02:15:00 11.9 C 8.37 g/m*3 11.9 C 0 km/h
2034 02-06-2014 02:20:00 11.8 C 8.42 g/m*3 11.8 C 0 km/h
2035 02-06-2014 02:25:00 11.7 C 8.47 g/m*3 11.7 C 0 km/h
2036 02-06-2014 02:30:00 11.6 C 8.42 g/m*3 11.6 C 0 km/h
2037 02-06-2014 02:35:00 11.4 C 8.31 g/m*3 11.4 C 0 km/h
2038 02-06-2014 02:40:00 11.3 C 8.36 g/m*3 11.3 C 0 km/h
2039 02-06-2014 02:45:00 11.2 C 8.21 g/m*3 11.2 C 0 km/h
2040 02-06-2014 02:50:00 11.1 C 8.26 g/m*3 11.1 C 0 km/h
2041 02-06-2014 02:55:00 10.9 C 8.26 g/m*3 10.9 C 0 km/h
2042 02-06-2014 03:00:00 10.8 C 8.2 g/m*3 10.8 C 0 km/h
2043 02-06-2014 03:05:00 10.7 C 8.25 g/m*3 10.7 C 0 km/h
2044 02-06-2014 03:10:00 10.6 C 8.2 g/m*3 10.6 C 0 km/h
2045 02-06-2014 03:15:00 10.5 C 8.15 g/m*3 10.5 C 0 km/h
2046 02-06-2014 03:20:00 10.4 C 8.19 g/m*3 10.4 C 0 km/h
2047 02-06-2014 03:25:00 10.3 C 8.14 g/m*3 10.3 C 0 km/h
2048 02-06-2014 03:30:00 10.2 C 8.18 g/m*3 10.2 C 0 km/h
2049 02-06-2014 03:35:00 10.1 C 8.13 g/m*3 10.1 C 0 km/h
2050 02-06-2014 03:40:00 10.1 C 8.13 g/m*3 10.1 C 0 km/h
Sensor: Nr:Datum:Temp:Abs-Feuchte:Windchill:Wind:
Aussen-T/F 2051 02-06-2014 03:45:00 10 C 8.08 g/m*3 10 C 0 km/h
2052 02-06-2014 03:50:00 9.9 C 8.12 g/m*3 9.9 C 0 km/h
2053 02-06-2014 03:55:00 9.8 C 8.07 g/m*3 9.8 C 0 km/h
2054 02-06-2014 04:00:00 9.7 C 8.02 g/m*3 9.7 C 0 km/h
2055 02-06-2014 04:05:00 9.7 C 8.02 g/m*3 9.7 C 0 km/h
2056 02-06-2014 04:10:00 9.6 C 8.06 g/m*3 9.6 C 0 km/h
2057 02-06-2014 04:15:00 9.5 C 8.01 g/m*3 9.5 C 0 km/h
2058 02-06-2014 04:20:00 9.4 C 8.05 g/m*3 9.4 C 0 km/h
2059 02-06-2014 04:25:00 9.4 C 8.05 g/m*3 9.4 C 0 km/h
2060 02-06-2014 04:30:00 9.3 C 8 g/m*3 9.3 C 0 km/h
2061 02-06-2014 04:35:00 9.3 C 8 g/m*3 9.3 C 0 km/h
2062 02-06-2014 04:40:00 9.2 C 8.04 g/m*3 9.2 C 0 km/h
2063 02-06-2014 04:45:00 9.2 C 8.04 g/m*3 9.2 C 0 km/h
2064 02-06-2014 04:50:00 9.1 C 7.9 g/m*3 9.1 C 0 km/h
2065 02-06-2014 04:55:00 9.1 C 7.99 g/m*3 9.1 C 0 km/h
2066 02-06-2014 05:00:00 9.1 C 7.99 g/m*3 9.1 C 0 km/h
2067 02-06-2014 05:05:00 8.9 C 7.88 g/m*3 8.9 C 0 km/h
2068 02-06-2014 05:10:00 8.9 C 7.88 g/m*3 8.9 C 0 km/h
2069 02-06-2014 05:15:00 8.8 C 7.92 g/m*3 8.8 C 0 km/h
2070 02-06-2014 05:20:00 8.8 C 7.92 g/m*3 8.8 C 0 km/h
2071 02-06-2014 05:25:00 8.8 C 7.92 g/m*3 8.8 C 0 km/h
2072 02-06-2014 05:30:00 8.7 C 7.87 g/m*3 8.7 C 0 km/h
2073 02-06-2014 05:35:00 8.7 C 7.96 g/m*3 8.7 C 0 km/h
2074 02-06-2014 05:40:00 8.7 C 7.96 g/m*3 8.7 C 0 km/h
2075 02-06-2014 05:45:00 8.7 C 7.96 g/m*3 8.7 C 0 km/h
Sensor: Nr:Datum:Temp:Abs-Feuchte:Windchill:Wind:
Aussen-T/F 2076 02-06-2014 05:50:00 8.7 C 7.96 g/m*3 8.7 C 0 km/h
2077 02-06-2014 05:55:00 8.7 C 7.96 g/m*3 8.7 C 0 km/h
2078 02-06-2014 06:00:00 8.7 C 7.96 g/m*3 8.7 C 0 km/h
2079 02-06-2014 06:05:00 8.7 C 7.96 g/m*3 8.7 C 0 km/h
2080 02-06-2014 06:10:00 8.7 C 7.96 g/m*3 8.7 C 0 km/h
2081 02-06-2014 06:15:00 8.7 C 7.96 g/m*3 8.7 C 0 km/h
2082 02-06-2014 06:20:00 8.7 C 7.96 g/m*3 8.7 C 1.6 km/h
2083 02-06-2014 06:25:00 8.8 C 8.01 g/m*3 8.8 C 0 km/h
2084 02-06-2014 06:30:00 8.8 C 8.09 g/m*3 8.8 C 0 km/h
2085 02-06-2014 06:35:00 8.8 C 8.09 g/m*3 8.8 C 0 km/h
2086 02-06-2014 06:40:00 8.8 C 8.09 g/m*3 8.8 C 0 km/h
2087 02-06-2014 06:45:00 8.9 C 8.15 g/m*3 8.9 C 1.6 km/h
2088 02-06-2014 06:50:00 8.9 C 8.15 g/m*3 8.9 C 0 km/h
2089 02-06-2014 06:55:00 9 C 8.11 g/m*3 9 C 0 km/h
2090 02-06-2014 07:00:00 9.1 C 8.16 g/m*3 9.1 C 0 km/h
2091 02-06-2014 07:05:00 9.2 C 8.3 g/m*3 9.2 C 3.2 km/h
2092 02-06-2014 07:10:00 9.4 C 8.32 g/m*3 8.68 C 6.4 km/h
2093 02-06-2014 07:15:00 9.5 C 8.28 g/m*3 9.5 C 4.8 km/h
2094 02-06-2014 07:20:00 9.6 C 8.34 g/m*3 9.6 C 1.6 km/h
2095 02-06-2014 07:25:00 9.7 C 8.3 g/m*3 9.7 C 3.2 km/h
2096 02-06-2014 07:30:00 9.8 C 8.35 g/m*3 9.8 C 4.8 km/h
2097 02-06-2014 07:35:00 9.8 C 8.26 g/m*3 9.8 C 0 km/h
2098 02-06-2014 07:40:00 9.9 C 8.31 g/m*3 9.9 C 0 km/h
2099 02-06-2014 07:45:00 9.9 C 8.4 g/m*3 9.9 C 3.2 km/h
2100 02-06-2014 07:50:00 10.2 C 8.56 g/m*3 10.2 C 0 km/h
Sensor: Nr:Datum:Temp:Abs-Feuchte:Windchill:Wind:
Aussen-T/F 2101 02-06-2014 07:55:00 10.4 C 8.67 g/m*3 10.4 C 0 km/h
2102 02-06-2014 08:00:00 10.7 C 8.74 g/m*3 10.7 C 0 km/h
2103 02-06-2014 08:05:00 11.1 C 8.96 g/m*3 11.1 C 0 km/h
2104 02-06-2014 08:10:00 11.2 C 8.92 g/m*3 11.2 C 0 km/h
2105 02-06-2014 08:15:00 11.4 C 9.03 g/m*3 11.4 C 0 km/h
2106 02-06-2014 08:20:00 11.6 C 8.94 g/m*3 11.6 C 0 km/h
2107 02-06-2014 08:25:00 11.8 C 9.05 g/m*3 11.8 C 0 km/h
2108 02-06-2014 08:30:00 11.9 C 9 g/m*3 11.9 C 0 km/h
2109 02-06-2014 08:35:00 11.9 C 9 g/m*3 11.9 C 0 km/h
2110 02-06-2014 08:40:00 11.9 C 9 g/m*3 11.9 C 0 km/h
2111 02-06-2014 09:15:00 14.2 C 12.21 g/m*3 14.2 C 0 km/h
2112 02-06-2014 09:20:00 14.2 C 9.65 g/m*3 14.2 C 0 km/h
2113 02-06-2014 09:25:00 14.1 C 9.34 g/m*3 14.1 C 0 km/h
2114 02-06-2014 09:30:00 14.1 C 9.47 g/m*3 14.1 C 0 km/h
2115 02-06-2014 09:35:00 14.2 C 9.52 g/m*3 14.2 C 3.2 km/h
2116 02-06-2014 09:40:00 14.5 C 9.7 g/m*3 14.5 C 3.2 km/h
2117 02-06-2014 09:45:00 14.7 C 9.44 g/m*3 14.7 C 1.6 km/h
2118 02-06-2014 09:50:00 14.8 C 9.5 g/m*3 14.8 C 1.6 km/h
2119 02-06-2014 09:55:00 14.9 C 9.43 g/m*3 14.9 C 3.2 km/h
2120 02-06-2014 10:00:00 15.2 C 9.73 g/m*3 15.2 C 4.8 km/h
2121 02-06-2014 10:05:00 15.2 C 9.73 g/m*3 15.2 C 3.2 km/h
2122 02-06-2014 10:10:00 15.5 C 9.52 g/m*3 15.5 C 1.6 km/h
2123 02-06-2014 10:15:00 15.6 C 9.31 g/m*3 15.6 C 3.2 km/h
2124 02-06-2014 10:20:00 15.7 C 9.77 g/m*3 15.7 C 3.2 km/h
2125 02-06-2014 10:25:00 15.9 C 9.34 g/m*3 15.9 C 1.6 km/h
Sensor: Nr:Datum:Temp:Abs-Feuchte:Windchill:Wind:
Aussen-T/F 2126 02-06-2014 10:30:00 16 C 9.95 g/m*3 16 C 1.6 km/h
2127 02-06-2014 10:35:00 16.1 C 9.87 g/m*3 16.1 C 3.2 km/h
2128 02-06-2014 10:40:00 16.1 C 9.87 g/m*3 16.1 C 3.2 km/h
2129 02-06-2014 12:25:00 20.8 C 9.05 g/m*3 20.8 C 4.8 km/h
2130 02-06-2014 12:30:00 20.8 C 9.05 g/m*3 20.8 C 8.1 km/h
2131 02-06-2014 12:35:00 20.8 C 9.05 g/m*3 20.8 C 9.7 km/h
2132 02-06-2014 13:25:00 20.9 C 8.92 g/m*3 20.9 C 3.2 km/h
2133 02-06-2014 13:30:00 20.8 C 8.87 g/m*3 20.8 C 6.4 km/h
2134 02-06-2014 13:35:00 20.8 C 8.87 g/m*3 20.8 C 6.4 km/h
2135 02-06-2014 13:40:00 21.2 C 8.71 g/m*3 21.2 C 9.7 km/h
2136 02-06-2014 13:45:00 21.2 C 8.71 g/m*3 21.2 C 8.1 km/h
2137 02-06-2014 13:50:00 21.3 C 8.39 g/m*3 21.3 C 3.2 km/h
2138 02-06-2014 13:55:00 21.3 C 9.13 g/m*3 21.3 C 9.7 km/h
2139 02-06-2014 14:00:00 21.3 C 9.13 g/m*3 21.3 C 9.7 km/h
2140 02-06-2014 14:05:00 21.3 C 9.13 g/m*3 21.3 C 9.7 km/h
2141 02-06-2014 14:10:00 21.4 C 9.19 g/m*3 21.4 C 8.1 km/h
2142 02-06-2014 14:15:00 21.4 C 9.56 g/m*3 21.4 C 3.2 km/h
2143 02-06-2014 14:20:00 21.7 C 8.97 g/m*3 21.7 C 4.8 km/h
2144 02-06-2014 14:25:00 21.8 C 9.59 g/m*3 21.8 C 9.7 km/h
2145 02-06-2014 14:30:00 22.2 C 9.03 g/m*3 22.2 C 9.7 km/h
2146 02-06-2014 14:35:00 22 C 8.73 g/m*3 22 C 6.4 km/h
2147 02-06-2014 14:40:00 21.9 C 8.68 g/m*3 21.9 C 4.8 km/h
2148 02-06-2014 14:45:00 22.2 C 9.03 g/m*3 22.2 C 6.4 km/h
2149 02-06-2014 14:50:00 22.4 C 8.94 g/m*3 22.4 C 11.3 km/h
2150 02-06-2014 14:55:00 22.6 C 8.84 g/m*3 22.6 C 4.8 km/h
Sensor: Nr:Datum:Temp:Abs-Feuchte:Windchill:Wind:
Aussen-T/F 2151 02-06-2014 15:00:00 22.7 C 8.89 g/m*3 22.7 C 12.9 km/h
2152 02-06-2014 15:05:00 22.6 C 8.64 g/m*3 22.6 C 12.9 km/h
2153 02-06-2014 15:10:00 22.1 C 8.39 g/m*3 22.1 C 6.4 km/h
2154 02-06-2014 15:15:00 21.9 C 8.68 g/m*3 21.9 C 6.4 km/h
2155 02-06-2014 15:20:00 22.1 C 8.78 g/m*3 22.1 C 6.4 km/h
2156 02-06-2014 15:25:00 22.3 C 8.69 g/m*3 22.3 C 6.4 km/h
2157 02-06-2014 15:30:00 22.6 C 8.84 g/m*3 22.6 C 6.4 km/h
2158 02-06-2014 15:35:00 22.6 C 8.84 g/m*3 22.6 C 4.8 km/h
2159 02-06-2014 15:40:00 22.7 C 8.69 g/m*3 22.7 C 4.8 km/h
2160 02-06-2014 15:45:00 22.8 C 9.14 g/m*3 22.8 C 4.8 km/h
2161 02-06-2014 15:50:00 23.2 C 8.52 g/m*3 23.2 C 1.6 km/h
2162 02-06-2014 15:55:00 23.2 C 8.11 g/m*3 23.2 C 4.8 km/h
2163 02-06-2014 16:00:00 22.5 C 8.59 g/m*3 22.5 C 1.6 km/h
2164 02-06-2014 16:05:00 22.1 C 8.2 g/m*3 22.1 C 4.8 km/h
2165 02-06-2014 16:10:00 21.8 C 8.06 g/m*3 21.8 C 8.1 km/h
2166 02-06-2014 16:15:00 21.8 C 8.06 g/m*3 21.8 C 6.4 km/h
2167 02-06-2014 16:20:00 22.5 C 8.99 g/m*3 22.5 C 8.1 km/h
2168 02-06-2014 16:25:00 23.1 C 8.68 g/m*3 23.1 C 9.7 km/h
2169 02-06-2014 16:30:00 23.2 C 8.52 g/m*3 23.2 C 9.7 km/h
2170 02-06-2014 16:35:00 23.4 C 9.46 g/m*3 23.4 C 9.7 km/h
2171 02-06-2014 16:40:00 23.8 C 8.6 g/m*3 23.8 C 6.4 km/h
2172 02-06-2014 16:45:00 23.6 C 8.72 g/m*3 23.6 C 6.4 km/h
2173 02-06-2014 16:50:00 23.7 C 8.77 g/m*3 23.7 C 6.4 km/h
2174 02-06-2014 16:55:00 23.6 C 8.29 g/m*3 23.6 C 8.1 km/h
2175 02-06-2014 17:00:00 23.4 C 8.83 g/m*3 23.4 C 6.4 km/h
Sensor: Nr:Datum:Temp:Abs-Feuchte:Windchill:Wind:
Aussen-T/F 2176 02-06-2014 17:05:00 23.6 C 8.93 g/m*3 23.6 C 11.3 km/h
2177 02-06-2014 17:10:00 23.8 C 8.39 g/m*3 23.8 C 8.1 km/h
2178 02-06-2014 17:15:00 23.7 C 8.13 g/m*3 23.7 C 11.3 km/h
2179 02-06-2014 17:20:00 23.7 C 8.56 g/m*3 23.7 C 8.1 km/h
2180 02-06-2014 17:25:00 23.7 C 8.56 g/m*3 23.7 C 8.1 km/h
2181 02-06-2014 17:30:00 23.8 C 8.82 g/m*3 23.8 C 11.3 km/h
2182 02-06-2014 17:35:00 23.8 C 8.82 g/m*3 23.8 C 6.4 km/h
2183 02-06-2014 17:40:00 23.8 C 8.39 g/m*3 23.8 C 4.8 km/h
2184 02-06-2014 17:45:00 24 C 8.27 g/m*3 24 C 8.1 km/h
2185 02-06-2014 17:50:00 24 C 8.27 g/m*3 24 C 6.4 km/h
2186 02-06-2014 18:30:00 23.7 C 8.56 g/m*3 23.7 C 6.4 km/h
2187 02-06-2014 18:35:00 23.6 C 8.93 g/m*3 23.6 C 9.7 km/h
2188 02-06-2014 18:40:00 23.6 C 8.29 g/m*3 23.6 C 8.1 km/h
2189 02-06-2014 18:45:00 23.7 C 8.56 g/m*3 23.7 C 6.4 km/h
2190 02-06-2014 18:50:00 23.6 C 8.29 g/m*3 23.6 C 8.1 km/h
2191 02-06-2014 18:55:00 23.5 C 8.46 g/m*3 23.5 C 4.8 km/h
2192 02-06-2014 19:00:00 23.5 C 8.46 g/m*3 23.5 C 4.8 km/h
2193 02-06-2014 19:05:00 23.4 C 8.41 g/m*3 23.4 C 8.1 km/h
2194 02-06-2014 19:10:00 23.4 C 8.2 g/m*3 23.4 C 9.7 km/h
2195 02-06-2014 19:15:00 22.8 C 8.13 g/m*3 22.8 C 6.4 km/h
2196 02-06-2014 19:20:00 22.5 C 8.19 g/m*3 22.5 C 8.1 km/h
2197 02-06-2014 19:25:00 22.4 C 8.14 g/m*3 22.4 C 8.1 km/h
2198 02-06-2014 19:30:00 22.3 C 8.29 g/m*3 22.3 C 9.7 km/h
2199 02-06-2014 19:35:00 22.1 C 8.39 g/m*3 22.1 C 8.1 km/h
2200 02-06-2014 19:40:00 22 C 8.15 g/m*3 22 C 4.8 km/h
Sensor: Nr:Datum:Temp:Abs-Feuchte:Windchill:Wind:
Aussen-T/F 2201 02-06-2014 19:45:00 21.8 C 8.25 g/m*3 21.8 C 6.4 km/h
2202 02-06-2014 19:50:00 21.7 C 8.01 g/m*3 21.7 C 6.4 km/h
2203 02-06-2014 19:55:00 21.6 C 7.97 g/m*3 21.6 C 3.2 km/h
2204 02-06-2014 20:00:00 21.4 C 7.87 g/m*3 21.4 C 4.8 km/h
2205 02-06-2014 20:05:00 21.3 C 8.02 g/m*3 21.3 C 4.8 km/h
2206 02-06-2014 20:10:00 21.2 C 7.97 g/m*3 21.2 C 4.8 km/h
2207 02-06-2014 20:15:00 21.1 C 7.92 g/m*3 21.1 C 6.4 km/h
2208 02-06-2014 20:20:00 20.9 C 8.2 g/m*3 20.9 C 3.2 km/h
2209 02-06-2014 20:25:00 20.8 C 7.97 g/m*3 20.8 C 3.2 km/h
2210 02-06-2014 20:30:00 20.4 C 9.73 g/m*3 20.4 C 6.4 km/h
2211 02-06-2014 20:35:00 19.7 C 9.51 g/m*3 19.7 C 1.6 km/h
2212 02-06-2014 20:40:00 19.3 C 9.79 g/m*3 19.3 C 1.6 km/h
2213 02-06-2014 20:45:00 18.9 C 10.53 g/m*3 18.9 C 0 km/h
2214 02-06-2014 20:50:00 18.6 C 10.35 g/m*3 18.6 C 0 km/h
2215 02-06-2014 20:55:00 18.2 C 10.26 g/m*3 18.2 C 0 km/h
2216 02-06-2014 21:00:00 17.8 C 10.17 g/m*3 17.8 C 0 km/h
2217 02-06-2014 21:05:00 17.6 C 9.9 g/m*3 17.6 C 0 km/h
2218 02-06-2014 21:10:00 17.4 C 9.93 g/m*3 17.4 C 0 km/h
2219 02-06-2014 21:15:00 17.2 C 9.96 g/m*3 17.2 C 0 km/h
2220 02-06-2014 21:20:00 17 C 9.98 g/m*3 17 C 0 km/h
2221 02-06-2014 21:25:00 16.8 C 10.01 g/m*3 16.8 C 1.6 km/h
2222 02-06-2014 21:30:00 16.7 C 9.81 g/m*3 16.7 C 0 km/h
2223 02-06-2014 21:35:00 16.6 C 9.89 g/m*3 16.6 C 1.6 km/h
2224 02-06-2014 21:40:00 16.5 C 9.97 g/m*3 16.5 C 1.6 km/h
2225 02-06-2014 21:45:00 16.4 C 9.35 g/m*3 16.4 C 0 km/h
Sensor: Nr:Datum:Temp:Abs-Feuchte:Windchill:Wind:
Aussen-T/F 2226 02-06-2014 21:50:00 16.3 C 9.57 g/m*3 16.3 C 0 km/h
2227 02-06-2014 21:55:00 16.3 C 9.57 g/m*3 16.3 C 0 km/h
2228 02-06-2014 22:00:00 16.3 C 9.57 g/m*3 16.3 C 0 km/h
2229 02-06-2014 22:05:00 16.2 C 9.38 g/m*3 16.2 C 0 km/h
2230 02-06-2014 22:10:00 16.2 C 9.24 g/m*3 16.2 C 0 km/h
2231 02-06-2014 22:15:00 16.1 C 9.46 g/m*3 16.1 C 0 km/h
2232 02-06-2014 22:20:00 16 C 9.4 g/m*3 16 C 0 km/h
2233 02-06-2014 22:25:00 15.9 C 9.48 g/m*3 15.9 C 0 km/h
2234 02-06-2014 22:30:00 15.9 C 9.48 g/m*3 15.9 C 0 km/h
2235 02-06-2014 22:35:00 15.9 C 9.48 g/m*3 15.9 C 0 km/h
2236 02-06-2014 22:40:00 15.9 C 9.75 g/m*3 15.9 C 0 km/h
2237 02-06-2014 22:45:00 15.9 C 9.75 g/m*3 15.9 C 0 km/h
2238 02-06-2014 22:50:00 15.9 C 9.34 g/m*3 15.9 C 0 km/h
2239 02-06-2014 22:55:00 15.9 C 9.62 g/m*3 15.9 C 0 km/h
2240 02-06-2014 23:00:00 15.9 C 9.34 g/m*3 15.9 C 0 km/h
2241 02-06-2014 23:05:00 15.8 C 9.42 g/m*3 15.8 C 0 km/h
2242 02-06-2014 23:10:00 15.8 C 9.29 g/m*3 15.8 C 0 km/h
2243 02-06-2014 23:15:00 15.8 C 9.29 g/m*3 15.8 C 0 km/h
2244 02-06-2014 23:20:00 15.8 C 9.69 g/m*3 15.8 C 0 km/h
2245 02-06-2014 23:25:00 15.7 C 9.37 g/m*3 15.7 C 0 km/h
2246 02-06-2014 23:30:00 15.7 C 9.5 g/m*3 15.7 C 0 km/h
2247 02-06-2014 23:35:00 15.5 C 9.25 g/m*3 15.5 C 1.6 km/h
2248 02-06-2014 23:40:00 15.4 C 9.2 g/m*3 15.4 C 0 km/h
2249 02-06-2014 23:45:00 15.3 C 9.14 g/m*3 15.3 C 1.6 km/h
2250 02-06-2014 23:50:00 15.2 C 9.35 g/m*3 15.2 C 0 km/h
Sensor: Nr:Datum:Temp:Abs-Feuchte:Windchill:Wind:
Aussen-T/F 2251 02-06-2014 23:55:00 15.1 C 9.16 g/m*3 15.1 C 0 km/h
2252 03-06-2014 00:00:00 15 C 9.23 g/m*3 15 C 0 km/h
2253 03-06-2014 00:05:00 14.9 C 9.3 g/m*3 14.9 C 0 km/h
2254 03-06-2014 00:10:00 14.8 C 9.25 g/m*3 14.8 C 0 km/h
2255 03-06-2014 00:15:00 14.8 C 9.37 g/m*3 14.8 C 0 km/h
2256 03-06-2014 00:20:00 14.7 C 9.19 g/m*3 14.7 C 0 km/h
2257 03-06-2014 00:25:00 14.7 C 9.32 g/m*3 14.7 C 0 km/h
2258 03-06-2014 00:30:00 14.6 C 9.26 g/m*3 14.6 C 0 km/h
2259 03-06-2014 00:35:00 14.6 C 9.39 g/m*3 14.6 C 0 km/h
2260 03-06-2014 00:40:00 14.4 C 9.27 g/m*3 14.4 C 0 km/h
2261 03-06-2014 00:45:00 14.2 C 9.16 g/m*3 14.2 C 0 km/h
2262 03-06-2014 00:50:00 14.1 C 9.22 g/m*3 14.1 C 0 km/h
2263 03-06-2014 00:55:00 14 C 9.17 g/m*3 14 C 0 km/h
2264 03-06-2014 01:00:00 13.9 C 9.11 g/m*3 13.9 C 0 km/h
2265 03-06-2014 01:05:00 13.8 C 9.17 g/m*3 13.8 C 0 km/h
2266 03-06-2014 01:10:00 13.7 C 9.24 g/m*3 13.7 C 0 km/h
2267 03-06-2014 01:15:00 13.7 C 9.24 g/m*3 13.7 C 0 km/h
2268 03-06-2014 01:20:00 13.6 C 9.18 g/m*3 13.6 C 0 km/h
2269 03-06-2014 01:25:00 13.4 C 9.18 g/m*3 13.4 C 0 km/h
2270 03-06-2014 01:30:00 13.4 C 9.18 g/m*3 13.4 C 0 km/h
2271 03-06-2014 01:35:00 13.3 C 9.13 g/m*3 13.3 C 0 km/h
2272 03-06-2014 01:40:00 13.2 C 9.07 g/m*3 13.2 C 0 km/h
2273 03-06-2014 01:45:00 13.2 C 9.07 g/m*3 13.2 C 0 km/h
2274 03-06-2014 01:50:00 13.1 C 9.13 g/m*3 13.1 C 0 km/h
2275 03-06-2014 01:55:00 12.9 C 9.02 g/m*3 12.9 C 0 km/h
Sensor: Nr:Datum:Temp:Abs-Feuchte:Windchill:Wind:
Aussen-T/F 2276 03-06-2014 02:00:00 12.8 C 9.07 g/m*3 12.8 C 0 km/h
2277 03-06-2014 02:05:00 12.7 C 9.02 g/m*3 12.7 C 3.2 km/h
2278 03-06-2014 02:10:00 12.7 C 9.02 g/m*3 12.7 C 3.2 km/h
2279 03-06-2014 02:15:00 12.5 C 8.91 g/m*3 12.5 C 0 km/h
2280 03-06-2014 02:20:00 12.4 C 8.96 g/m*3 12.4 C 0 km/h
2281 03-06-2014 02:25:00 12.3 C 8.9 g/m*3 12.3 C 0 km/h
2282 03-06-2014 02:30:00 12.2 C 8.85 g/m*3 12.2 C 0 km/h
2283 03-06-2014 02:35:00 12.1 C 8.79 g/m*3 12.1 C 0 km/h
2284 03-06-2014 02:40:00 11.9 C 8.79 g/m*3 11.9 C 0 km/h
2285 03-06-2014 02:45:00 11.8 C 8.74 g/m*3 11.8 C 0 km/h
2286 03-06-2014 02:50:00 11.8 C 8.74 g/m*3 11.8 C 0 km/h
2287 03-06-2014 02:55:00 11.7 C 8.79 g/m*3 11.7 C 0 km/h
2288 03-06-2014 03:00:00 11.7 C 8.79 g/m*3 11.7 C 0 km/h
2289 03-06-2014 03:05:00 11.5 C 8.78 g/m*3 11.5 C 0 km/h
2290 03-06-2014 03:10:00 11.4 C 8.72 g/m*3 11.4 C 0 km/h
2291 03-06-2014 03:15:00 11.3 C 8.67 g/m*3 11.3 C 0 km/h
2292 03-06-2014 03:20:00 11.2 C 8.62 g/m*3 11.2 C 0 km/h
2293 03-06-2014 03:25:00 11.1 C 8.66 g/m*3 11.1 C 0 km/h
2294 03-06-2014 03:30:00 11.1 C 8.66 g/m*3 11.1 C 0 km/h
2295 03-06-2014 03:35:00 10.9 C 8.55 g/m*3 10.9 C 0 km/h
2296 03-06-2014 03:40:00 10.9 C 8.55 g/m*3 10.9 C 0 km/h
2297 03-06-2014 03:45:00 10.8 C 8.6 g/m*3 10.8 C 0 km/h
2298 03-06-2014 03:50:00 10.8 C 8.6 g/m*3 10.8 C 0 km/h
2299 03-06-2014 03:55:00 10.8 C 8.6 g/m*3 10.8 C 0 km/h
2300 03-06-2014 04:00:00 10.7 C 8.55 g/m*3 10.7 C 0 km/h
Sensor: Nr:Datum:Temp:Abs-Feuchte:Windchill:Wind:
Aussen-T/F 2301 03-06-2014 04:05:00 10.6 C 8.49 g/m*3 10.6 C 0 km/h
2302 03-06-2014 04:10:00 10.5 C 8.53 g/m*3 10.5 C 0 km/h
2303 03-06-2014 04:15:00 10.4 C 8.48 g/m*3 10.4 C 0 km/h
2304 03-06-2014 04:20:00 10.4 C 8.48 g/m*3 10.4 C 0 km/h
2305 03-06-2014 04:25:00 10.3 C 8.52 g/m*3 10.3 C 0 km/h
2306 03-06-2014 04:30:00 10.3 C 8.52 g/m*3 10.3 C 0 km/h
2307 03-06-2014 04:35:00 10.2 C 8.47 g/m*3 10.2 C 0 km/h
2308 03-06-2014 04:40:00 10.2 C 8.47 g/m*3 10.2 C 0 km/h
2309 03-06-2014 04:45:00 10.1 C 8.51 g/m*3 10.1 C 0 km/h
2310 03-06-2014 04:50:00 10.1 C 8.51 g/m*3 10.1 C 0 km/h
2311 03-06-2014 04:55:00 10 C 8.46 g/m*3 10 C 0 km/h
2312 03-06-2014 05:00:00 9.9 C 8.4 g/m*3 9.9 C 0 km/h
2313 03-06-2014 05:05:00 9.9 C 8.5 g/m*3 9.9 C 0 km/h
2314 03-06-2014 05:10:00 9.9 C 8.5 g/m*3 9.9 C 0 km/h
2315 03-06-2014 05:15:00 9.9 C 8.5 g/m*3 9.9 C 0 km/h
2316 03-06-2014 05:20:00 9.8 C 8.44 g/m*3 9.8 C 0 km/h
2317 03-06-2014 05:25:00 9.8 C 8.44 g/m*3 9.8 C 0 km/h
2318 03-06-2014 05:30:00 9.8 C 8.54 g/m*3 9.8 C 0 km/h
2319 03-06-2014 05:35:00 9.8 C 8.54 g/m*3 9.8 C 0 km/h
2320 03-06-2014 05:40:00 9.8 C 8.54 g/m*3 9.8 C 0 km/h
2321 03-06-2014 05:45:00 9.8 C 8.54 g/m*3 9.8 C 0 km/h
2322 03-06-2014 05:50:00 9.8 C 8.54 g/m*3 9.8 C 0 km/h
2323 03-06-2014 05:55:00 9.8 C 8.54 g/m*3 9.8 C 0 km/h
2324 03-06-2014 06:00:00 9.8 C 8.54 g/m*3 9.8 C 0 km/h
2325 03-06-2014 06:05:00 9.8 C 8.54 g/m*3 9.8 C 0 km/h
Sensor: Nr:Datum:Temp:Abs-Feuchte:Windchill:Wind:
Aussen-T/F 2326 03-06-2014 06:10:00 9.9 C 8.68 g/m*3 9.25 C 6.4 km/h
2327 03-06-2014 06:15:00 10 C 8.74 g/m*3 9.37 C 6.4 km/h
2328 03-06-2014 06:20:00 10.1 C 8.7 g/m*3 10.1 C 0 km/h
2329 03-06-2014 06:25:00 10.1 C 8.7 g/m*3 10.1 C 0 km/h
2330 03-06-2014 06:30:00 10.2 C 8.76 g/m*3 10.2 C 0 km/h
2331 03-06-2014 06:35:00 10.2 C 8.76 g/m*3 10.2 C 0 km/h
2332 03-06-2014 06:40:00 10.3 C 8.81 g/m*3 10.3 C 0 km/h
2333 03-06-2014 06:45:00 10.4 C 8.87 g/m*3 10.4 C 0 km/h
2334 03-06-2014 06:50:00 10.5 C 8.92 g/m*3 10.5 C 3.2 km/h
2335 03-06-2014 06:55:00 10.6 C 8.88 g/m*3 10.6 C 0 km/h
2336 03-06-2014 07:00:00 10.7 C 8.94 g/m*3 10.7 C 0 km/h
2337 03-06-2014 07:05:00 10.8 C 8.99 g/m*3 10.8 C 0 km/h
2338 03-06-2014 07:10:00 10.9 C 9.05 g/m*3 10.9 C 1.6 km/h
2339 03-06-2014 07:15:00 11 C 9.01 g/m*3 11 C 3.2 km/h
2340 03-06-2014 07:20:00 11.1 C 9.07 g/m*3 11.1 C 3.2 km/h
2341 03-06-2014 07:25:00 11.3 C 9.18 g/m*3 11.3 C 4.8 km/h
2342 03-06-2014 07:30:00 11.4 C 9.14 g/m*3 11.4 C 4.8 km/h
2343 03-06-2014 07:35:00 11.6 C 9.25 g/m*3 11.6 C 3.2 km/h
2344 03-06-2014 07:40:00 11.7 C 9.2 g/m*3 11.7 C 4.8 km/h
2345 03-06-2014 07:45:00 11.8 C 9.26 g/m*3 11.8 C 4.8 km/h
2346 03-06-2014 07:50:00 12.1 C 9.44 g/m*3 12.1 C 3.2 km/h
2347 03-06-2014 07:55:00 12.2 C 9.28 g/m*3 12.2 C 4.8 km/h
2348 03-06-2014 08:00:00 12.3 C 9.34 g/m*3 12.3 C 4.8 km/h
2349 03-06-2014 08:05:00 12.4 C 9.4 g/m*3 12.4 C 3.2 km/h
2350 03-06-2014 08:10:00 12.5 C 9.35 g/m*3 12.5 C 3.2 km/h
Sensor: Nr:Datum:Temp:Abs-Feuchte:Windchill:Wind:
Aussen-T/F 2351 03-06-2014 08:15:00 12.6 C 9.4 g/m*3 12.6 C 1.6 km/h
2352 03-06-2014 08:20:00 12.7 C 9.46 g/m*3 12.7 C 1.6 km/h
2353 03-06-2014 08:25:00 12.9 C 9.58 g/m*3 12.9 C 1.6 km/h
2354 03-06-2014 08:30:00 13.1 C 9.47 g/m*3 13.1 C 3.2 km/h
2355 03-06-2014 08:35:00 13.3 C 9.59 g/m*3 13.3 C 1.6 km/h
2356 03-06-2014 08:40:00 13.4 C 9.65 g/m*3 13.4 C 3.2 km/h
2357 03-06-2014 08:45:00 13.6 C 9.53 g/m*3 13.6 C 3.2 km/h
2358 03-06-2014 08:50:00 13.7 C 9.59 g/m*3 13.7 C 4.8 km/h
2359 03-06-2014 08:55:00 13.7 C 9.47 g/m*3 13.7 C 1.6 km/h
2360 03-06-2014 09:00:00 13.8 C 9.53 g/m*3 13.8 C 3.2 km/h
2361 03-06-2014 09:05:00 13.9 C 9.59 g/m*3 13.9 C 3.2 km/h
2362 03-06-2014 09:10:00 14.1 C 9.71 g/m*3 14.1 C 3.2 km/h
2363 03-06-2014 09:15:00 14.2 C 9.77 g/m*3 14.2 C 0 km/h
2364 03-06-2014 09:20:00 14.3 C 9.95 g/m*3 14.3 C 1.6 km/h
2365 03-06-2014 09:25:00 14.4 C 10.01 g/m*3 14.4 C 1.6 km/h
2366 03-06-2014 09:30:00 14.4 C 10.01 g/m*3 14.4 C 0 km/h
2367 03-06-2014 09:35:00 14.6 C 10.26 g/m*3 14.6 C 0 km/h
2368 03-06-2014 09:40:00 14.7 C 10.2 g/m*3 14.7 C 1.6 km/h
2369 03-06-2014 09:45:00 14.8 C 10.13 g/m*3 14.8 C 0 km/h
2370 03-06-2014 09:50:00 15.1 C 10.19 g/m*3 15.1 C 1.6 km/h
2371 03-06-2014 09:55:00 15.5 C 10.18 g/m*3 15.5 C 1.6 km/h
2372 03-06-2014 10:00:00 16 C 10.63 g/m*3 16 C 1.6 km/h
2373 03-06-2014 10:05:00 16.5 C 10.95 g/m*3 16.5 C 0 km/h
2374 03-06-2014 10:10:00 17.1 C 10.77 g/m*3 17.1 C 1.6 km/h
2375 03-06-2014 10:15:00 17.4 C 10.67 g/m*3 17.4 C 3.2 km/h
Sensor: Nr:Datum:Temp:Abs-Feuchte:Windchill:Wind:
Aussen-T/F 2376 03-06-2014 10:20:00 17.8 C 10.62 g/m*3 17.8 C 3.2 km/h
2377 03-06-2014 10:25:00 17.9 C 10.69 g/m*3 17.9 C 1.6 km/h
2378 03-06-2014 10:30:00 18.2 C 10.72 g/m*3 18.2 C 0 km/h
2379 03-06-2014 10:35:00 18.4 C 10.85 g/m*3 18.4 C 4.8 km/h
2380 03-06-2014 10:40:00 18.7 C 10.89 g/m*3 18.7 C 3.2 km/h
2381 03-06-2014 10:45:00 18.9 C 10.37 g/m*3 18.9 C 3.2 km/h
2382 03-06-2014 10:50:00 18.9 C 11.02 g/m*3 18.9 C 3.2 km/h
2383 03-06-2014 10:55:00 18.9 C 10.85 g/m*3 18.9 C 1.6 km/h
2384 03-06-2014 11:00:00 18.8 C 10.79 g/m*3 18.8 C 1.6 km/h
2385 03-06-2014 11:05:00 18.7 C 10.73 g/m*3 18.7 C 0 km/h
2386 03-06-2014 11:10:00 18.6 C 11.46 g/m*3 18.6 C 0 km/h
2387 03-06-2014 11:15:00 18.6 C 11.14 g/m*3 18.6 C 3.2 km/h
2388 03-06-2014 11:20:00 18.6 C 11.14 g/m*3 18.6 C 3.2 km/h
2389 03-06-2014 11:25:00 18.9 C 11.18 g/m*3 18.9 C 3.2 km/h
2390 03-06-2014 11:30:00 19.3 C 10.78 g/m*3 19.3 C 3.2 km/h
2391 03-06-2014 11:35:00 19.7 C 11.21 g/m*3 19.7 C 3.2 km/h
2392 03-06-2014 11:40:00 20.1 C 10.95 g/m*3 20.1 C 3.2 km/h
2393 03-06-2014 11:45:00 20.6 C 11.1 g/m*3 20.6 C 6.4 km/h
2394 03-06-2014 11:50:00 20.9 C 11.47 g/m*3 20.9 C 4.8 km/h
2395 03-06-2014 11:55:00 20.8 C 10.5 g/m*3 20.8 C 4.8 km/h
2396 03-06-2014 12:00:00 20.7 C 11.34 g/m*3 20.7 C 1.6 km/h
2397 03-06-2014 12:05:00 20.1 C 11.47 g/m*3 20.1 C 0 km/h
2398 03-06-2014 12:10:00 19.2 C 11.87 g/m*3 19.2 C 0 km/h
2399 03-06-2014 12:15:00 18.6 C 11.62 g/m*3 18.6 C 0 km/h
2400 03-06-2014 12:20:00 18 C 11.52 g/m*3 18 C 0 km/h
Sensor: Nr:Datum:Temp:Abs-Feuchte:Windchill:Wind:
Aussen-T/F 2401 03-06-2014 12:25:00 17.7 C 11.62 g/m*3 17.7 C 0 km/h
2402 03-06-2014 12:30:00 17.6 C 11.7 g/m*3 17.6 C 0 km/h
2403 03-06-2014 12:35:00 17.6 C 11.55 g/m*3 17.6 C 0 km/h
2404 03-06-2014 12:40:00 17.8 C 11.84 g/m*3 17.8 C 0 km/h
2405 03-06-2014 12:45:00 18.5 C 11.08 g/m*3 18.5 C 4.8 km/h
2406 03-06-2014 12:50:00 19.7 C 10.53 g/m*3 19.7 C 3.2 km/h
2407 03-06-2014 12:55:00 20.4 C 9.73 g/m*3 20.4 C 4.8 km/h
2408 03-06-2014 13:00:00 21.1 C 9.58 g/m*3 21.1 C 3.2 km/h
2409 03-06-2014 13:05:00 21.8 C 9.98 g/m*3 21.8 C 3.2 km/h
2410 03-06-2014 13:10:00 22.2 C 9.42 g/m*3 22.2 C 6.4 km/h
2411 03-06-2014 13:15:00 22.4 C 9.14 g/m*3 22.4 C 4.8 km/h
2412 03-06-2014 13:20:00 22.7 C 9.5 g/m*3 22.7 C 4.8 km/h
2413 03-06-2014 13:25:00 22.9 C 8.99 g/m*3 22.9 C 1.6 km/h
2414 03-06-2014 13:30:00 23.1 C 8.27 g/m*3 23.1 C 6.4 km/h
2415 03-06-2014 13:35:00 23.3 C 8.36 g/m*3 23.3 C 8.1 km/h
2416 03-06-2014 13:40:00 23 C 8.22 g/m*3 23 C 4.8 km/h
2417 03-06-2014 13:45:00 23.1 C 8.27 g/m*3 23.1 C 4.8 km/h
2418 03-06-2014 13:50:00 23.3 C 8.36 g/m*3 23.3 C 8.1 km/h
2419 03-06-2014 13:55:00 23.3 C 8.36 g/m*3 23.3 C 6.4 km/h
2420 03-06-2014 14:20:00 21.7 C 10.68 g/m*3 21.7 C 1.6 km/h
2421 03-06-2014 14:25:00 21 C 10.62 g/m*3 21 C 4.8 km/h
2422 03-06-2014 14:30:00 20.9 C 11.11 g/m*3 20.9 C 1.6 km/h
2423 03-06-2014 14:35:00 20.8 C 10.5 g/m*3 20.8 C 1.6 km/h
2424 03-06-2014 14:40:00 20.8 C 9.6 g/m*3 20.8 C 14.5 km/h
2425 03-06-2014 14:45:00 20.7 C 9.72 g/m*3 20.7 C 14.5 km/h
Sensor: Nr:Datum:Temp:Abs-Feuchte:Windchill:Wind:
Aussen-T/F 2426 03-06-2014 14:50:00 20.6 C 9.84 g/m*3 20.6 C 6.4 km/h
2427 03-06-2014 14:55:00 20.4 C 9.91 g/m*3 20.4 C 4.8 km/h
2428 03-06-2014 15:00:00 20.2 C 9.79 g/m*3 20.2 C 6.4 km/h
2429 03-06-2014 15:05:00 19.9 C 9.97 g/m*3 19.9 C 9.7 km/h
2430 03-06-2014 15:10:00 19.7 C 9.85 g/m*3 19.7 C 8.1 km/h
2431 03-06-2014 15:15:00 19.6 C 9.79 g/m*3 19.6 C 6.4 km/h
2432 03-06-2014 15:20:00 19.6 C 9.79 g/m*3 19.6 C 8.1 km/h
2433 03-06-2014 15:25:00 19.7 C 9.85 g/m*3 19.7 C 11.3 km/h
2434 03-06-2014 15:30:00 19.8 C 9.57 g/m*3 19.8 C 6.4 km/h
2435 03-06-2014 15:35:00 19.9 C 9.45 g/m*3 19.9 C 3.2 km/h
2436 03-06-2014 15:40:00 20.1 C 9.73 g/m*3 20.1 C 6.4 km/h
2437 03-06-2014 15:45:00 20.3 C 10.02 g/m*3 20.3 C 8.1 km/h
2438 03-06-2014 15:50:00 20.5 C 9.25 g/m*3 20.5 C 9.7 km/h
2439 03-06-2014 15:55:00 20.3 C 9.32 g/m*3 20.3 C 8.1 km/h
2440 03-06-2014 16:00:00 20.3 C 9.32 g/m*3 20.3 C 3.2 km/h
2441 03-06-2014 16:05:00 20.3 C 9.32 g/m*3 20.3 C 1.6 km/h
2442 03-06-2014 16:10:00 20.4 C 9.73 g/m*3 20.4 C 8.1 km/h
2443 03-06-2014 16:15:00 20.4 C 10.08 g/m*3 20.4 C 3.2 km/h
2444 03-06-2014 16:20:00 20.4 C 9.91 g/m*3 20.4 C 0 km/h
2445 03-06-2014 16:25:00 20.3 C 10.55 g/m*3 20.3 C 0 km/h
2446 03-06-2014 16:30:00 20.1 C 11.65 g/m*3 20.1 C 0 km/h
2447 03-06-2014 16:35:00 19.7 C 11.72 g/m*3 19.7 C 0 km/h
2448 03-06-2014 16:40:00 19.4 C 11.51 g/m*3 19.4 C 0 km/h
2449 03-06-2014 16:45:00 19.2 C 11.71 g/m*3 19.2 C 0 km/h
2450 03-06-2014 16:50:00 19 C 11.41 g/m*3 19 C 0 km/h
Sensor: Nr:Datum:Temp:Abs-Feuchte:Windchill:Wind:
Aussen-T/F 2451 03-06-2014 16:55:00 18.8 C 11.6 g/m*3 18.8 C 0 km/h
2452 03-06-2014 17:00:00 18.8 C 11.6 g/m*3 18.8 C 0 km/h
2453 03-06-2014 17:05:00 18.8 C 11.43 g/m*3 18.8 C 0 km/h
2454 03-06-2014 17:10:00 18.9 C 11.66 g/m*3 18.9 C 0 km/h
2455 03-06-2014 17:15:00 18.9 C 11.83 g/m*3 18.9 C 0 km/h
2456 03-06-2014 17:20:00 18.9 C 11.99 g/m*3 18.9 C 0 km/h
2457 03-06-2014 17:25:00 18.9 C 11.99 g/m*3 18.9 C 0 km/h
2458 03-06-2014 17:30:00 18.8 C 11.92 g/m*3 18.8 C 0 km/h
2459 03-06-2014 17:35:00 18.8 C 12.08 g/m*3 18.8 C 0 km/h
2460 03-06-2014 17:40:00 18.9 C 11.99 g/m*3 18.9 C 0 km/h
2461 03-06-2014 17:45:00 19.1 C 10.82 g/m*3 19.1 C 0 km/h
2462 03-06-2014 17:50:00 19.4 C 11.68 g/m*3 19.4 C 1.6 km/h
2463 03-06-2014 17:55:00 19.8 C 11.44 g/m*3 19.8 C 1.6 km/h
2464 03-06-2014 18:00:00 20.1 C 10.95 g/m*3 20.1 C 3.2 km/h
2465 03-06-2014 18:05:00 20.1 C 10.08 g/m*3 20.1 C 6.4 km/h
2466 03-06-2014 18:10:00 20.2 C 10.14 g/m*3 20.2 C 4.8 km/h
2467 03-06-2014 18:15:00 20.3 C 10.2 g/m*3 20.3 C 3.2 km/h
2468 03-06-2014 18:20:00 20.4 C 11.85 g/m*3 20.4 C 1.6 km/h
2469 03-06-2014 18:25:00 20.4 C 12.21 g/m*3 20.4 C 0 km/h
2470 03-06-2014 18:30:00 20.3 C 12.31 g/m*3 20.3 C 1.6 km/h
2471 03-06-2014 18:35:00 20.4 C 9.91 g/m*3 20.4 C 4.8 km/h
2472 03-06-2014 18:40:00 20.9 C 9.83 g/m*3 20.9 C 4.8 km/h
2473 03-06-2014 18:45:00 21.4 C 9.75 g/m*3 21.4 C 4.8 km/h
2474 03-06-2014 18:50:00 21.7 C 9.73 g/m*3 21.7 C 1.6 km/h
2475 03-06-2014 18:55:00 21.5 C 11.5 g/m*3 21.5 C 0 km/h
Sensor: Nr:Datum:Temp:Abs-Feuchte:Windchill:Wind:
Aussen-T/F 2476 03-06-2014 19:00:00 21.2 C 11.68 g/m*3 21.2 C 0 km/h
2477 03-06-2014 19:05:00 20.9 C 11.47 g/m*3 20.9 C 0 km/h
2478 03-06-2014 19:10:00 20.5 C 11.57 g/m*3 20.5 C 0 km/h
2479 03-06-2014 19:15:00 20.1 C 11.99 g/m*3 20.1 C 0 km/h
2480 03-06-2014 19:20:00 19.8 C 11.61 g/m*3 19.8 C 1.6 km/h
2481 03-06-2014 19:25:00 19.6 C 11.48 g/m*3 19.6 C 1.6 km/h
2482 03-06-2014 19:30:00 19.3 C 11.78 g/m*3 19.3 C 0 km/h
2483 03-06-2014 19:35:00 18.9 C 11.66 g/m*3 18.9 C 0 km/h
2484 03-06-2014 19:40:00 18.4 C 11.48 g/m*3 18.4 C 0 km/h
2485 03-06-2014 19:45:00 18.1 C 11.59 g/m*3 18.1 C 0 km/h
2486 03-06-2014 19:50:00 17.8 C 11.38 g/m*3 17.8 C 0 km/h
2487 03-06-2014 19:55:00 17.6 C 11.4 g/m*3 17.6 C 1.6 km/h
2488 03-06-2014 20:00:00 17.5 C 11.33 g/m*3 17.5 C 1.6 km/h
2489 03-06-2014 20:05:00 17.3 C 11.2 g/m*3 17.3 C 0 km/h
2490 03-06-2014 20:10:00 17.2 C 11.28 g/m*3 17.2 C 1.6 km/h
2491 03-06-2014 20:15:00 17.2 C 11.13 g/m*3 17.2 C 0 km/h
2492 03-06-2014 20:20:00 17.1 C 11.21 g/m*3 17.1 C 0 km/h
2493 03-06-2014 20:25:00 16.9 C 11.22 g/m*3 16.9 C 0 km/h
2494 03-06-2014 20:30:00 16.9 C 11.08 g/m*3 16.9 C 0 km/h
2495 03-06-2014 20:35:00 16.8 C 11.01 g/m*3 16.8 C 0 km/h
2496 03-06-2014 20:40:00 16.8 C 11.01 g/m*3 16.8 C 1.6 km/h
2497 03-06-2014 20:45:00 16.8 C 11.01 g/m*3 16.8 C 0 km/h
2498 03-06-2014 20:50:00 16.9 C 11.22 g/m*3 16.9 C 0 km/h
2499 03-06-2014 20:55:00 16.9 C 11.22 g/m*3 16.9 C 0 km/h
2500 03-06-2014 21:00:00 16.8 C 11.29 g/m*3 16.8 C 0 km/h
Sensor: Nr:Datum:Temp:Abs-Feuchte:Windchill:Wind:
Aussen-T/F 2501 03-06-2014 21:05:00 16.8 C 11.29 g/m*3 16.8 C 0 km/h
2502 03-06-2014 21:10:00 16.7 C 11.23 g/m*3 16.7 C 1.6 km/h
2503 03-06-2014 21:15:00 16.5 C 11.09 g/m*3 16.5 C 0 km/h
2504 03-06-2014 21:20:00 16.4 C 10.89 g/m*3 16.4 C 1.6 km/h
2505 03-06-2014 21:25:00 16.2 C 10.76 g/m*3 16.2 C 0 km/h
2506 03-06-2014 21:30:00 16.1 C 10.69 g/m*3 16.1 C 0 km/h
2507 03-06-2014 21:35:00 15.9 C 10.56 g/m*3 15.9 C 0 km/h
2508 03-06-2014 21:40:00 15.8 C 10.36 g/m*3 15.8 C 0 km/h
2509 03-06-2014 21:45:00 15.7 C 10.3 g/m*3 15.7 C 0 km/h
2510 03-06-2014 21:50:00 15.6 C 10.24 g/m*3 15.6 C 0 km/h
2511 03-06-2014 21:55:00 15.4 C 10.12 g/m*3 15.4 C 0 km/h
2512 03-06-2014 22:00:00 15.3 C 10.06 g/m*3 15.3 C 0 km/h
2513 03-06-2014 22:05:00 15.2 C 10.12 g/m*3 15.2 C 0 km/h
2514 03-06-2014 22:10:00 15.1 C 10.06 g/m*3 15.1 C 0 km/h
2515 03-06-2014 22:15:00 14.9 C 9.94 g/m*3 14.9 C 0 km/h
2516 03-06-2014 22:20:00 14.8 C 10.01 g/m*3 14.8 C 0 km/h
2517 03-06-2014 22:25:00 14.7 C 9.95 g/m*3 14.7 C 0 km/h
2518 03-06-2014 22:30:00 14.6 C 9.89 g/m*3 14.6 C 0 km/h
2519 03-06-2014 22:35:00 14.4 C 9.77 g/m*3 14.4 C 0 km/h
2520 03-06-2014 22:40:00 14.3 C 9.83 g/m*3 14.3 C 0 km/h
2521 03-06-2014 22:45:00 14.2 C 9.89 g/m*3 14.2 C 0 km/h
2522 03-06-2014 22:50:00 14.2 C 9.89 g/m*3 14.2 C 0 km/h
2523 03-06-2014 22:55:00 14.1 C 9.83 g/m*3 14.1 C 0 km/h
2524 03-06-2014 23:00:00 14 C 9.77 g/m*3 14 C 1.6 km/h
2525 03-06-2014 23:05:00 13.9 C 9.71 g/m*3 13.9 C 0 km/h
Sensor: Nr:Datum:Temp:Abs-Feuchte:Windchill:Wind:
Aussen-T/F 2526 03-06-2014 23:10:00 13.9 C 9.83 g/m*3 13.9 C 0 km/h
2527 03-06-2014 23:15:00 13.8 C 9.77 g/m*3 13.8 C 0 km/h
2528 03-06-2014 23:20:00 13.7 C 9.71 g/m*3 13.7 C 0 km/h
2529 03-06-2014 23:25:00 13.6 C 9.77 g/m*3 13.6 C 0 km/h
2530 03-06-2014 23:30:00 13.6 C 9.77 g/m*3 13.6 C 0 km/h
2531 03-06-2014 23:35:00 13.4 C 9.65 g/m*3 13.4 C 0 km/h
2532 03-06-2014 23:40:00 13.4 C 9.88 g/m*3 13.4 C 0 km/h
2533 03-06-2014 23:45:00 13.5 C 9.83 g/m*3 13.5 C 6.4 km/h
2534 03-06-2014 23:50:00 13.4 C 9.76 g/m*3 13.4 C 0 km/h
2535 03-06-2014 23:55:00 13.4 C 9.76 g/m*3 13.4 C 0 km/h
2536 04-06-2014 00:00:00 13.2 C 9.76 g/m*3 13.2 C 0 km/h
2537 04-06-2014 00:05:00 13.2 C 9.76 g/m*3 13.2 C 0 km/h
2538 04-06-2014 00:10:00 13.1 C 9.81 g/m*3 13.1 C 1.6 km/h
2539 04-06-2014 00:15:00 13.1 C 9.81 g/m*3 13.1 C 0 km/h
2540 04-06-2014 00:20:00 13 C 9.75 g/m*3 13 C 0 km/h
2541 04-06-2014 00:25:00 13 C 9.75 g/m*3 13 C 0 km/h
2542 04-06-2014 00:30:00 12.9 C 9.81 g/m*3 12.9 C 0 km/h
2543 04-06-2014 00:35:00 12.9 C 9.69 g/m*3 12.9 C 0 km/h
2544 04-06-2014 00:40:00 12.8 C 9.74 g/m*3 12.8 C 0 km/h
2545 04-06-2014 00:45:00 12.8 C 9.74 g/m*3 12.8 C 0 km/h
2546 04-06-2014 00:50:00 12.8 C 9.74 g/m*3 12.8 C 0 km/h
2547 04-06-2014 00:55:00 12.8 C 9.74 g/m*3 12.8 C 0 km/h
2548 04-06-2014 01:00:00 12.7 C 9.68 g/m*3 12.7 C 0 km/h
2549 04-06-2014 01:05:00 12.7 C 9.68 g/m*3 12.7 C 0 km/h
2550 04-06-2014 01:10:00 12.5 C 9.68 g/m*3 12.5 C 0 km/h
Sensor: Nr:Datum:Temp:Abs-Feuchte:Windchill:Wind:
Aussen-T/F 2551 04-06-2014 01:15:00 12.4 C 9.62 g/m*3 12.4 C 0 km/h
2552 04-06-2014 01:20:00 12.3 C 9.56 g/m*3 12.3 C 0 km/h
2553 04-06-2014 01:25:00 12.3 C 9.66 g/m*3 12.3 C 0 km/h
2554 04-06-2014 01:30:00 12.2 C 9.5 g/m*3 12.2 C 0 km/h
2555 04-06-2014 01:35:00 12.1 C 9.54 g/m*3 12.1 C 0 km/h
2556 04-06-2014 01:40:00 11.9 C 9.43 g/m*3 11.9 C 0 km/h
2557 04-06-2014 01:45:00 11.9 C 9.43 g/m*3 11.9 C 0 km/h
2558 04-06-2014 01:50:00 11.9 C 9.43 g/m*3 11.9 C 0 km/h
2559 04-06-2014 01:55:00 11.9 C 9.43 g/m*3 11.9 C 0 km/h
2560 04-06-2014 02:00:00 11.8 C 9.47 g/m*3 11.8 C 1.6 km/h
2561 04-06-2014 02:05:00 11.8 C 9.47 g/m*3 11.8 C 1.6 km/h
2562 04-06-2014 02:10:00 11.8 C 9.47 g/m*3 11.8 C 0 km/h
2563 04-06-2014 02:15:00 11.8 C 9.47 g/m*3 11.8 C 0 km/h
2564 04-06-2014 02:20:00 11.7 C 9.52 g/m*3 11.7 C 0 km/h
2565 04-06-2014 02:25:00 11.7 C 9.52 g/m*3 11.7 C 0 km/h
2566 04-06-2014 02:30:00 11.6 C 9.46 g/m*3 11.6 C 0 km/h
2567 04-06-2014 02:35:00 11.5 C 9.4 g/m*3 11.5 C 0 km/h
2568 04-06-2014 02:40:00 11.4 C 9.34 g/m*3 11.4 C 0 km/h
2569 04-06-2014 02:45:00 11.4 C 9.34 g/m*3 11.4 C 0 km/h
2570 04-06-2014 02:50:00 11.3 C 9.38 g/m*3 11.3 C 0 km/h
2571 04-06-2014 02:55:00 11.3 C 9.38 g/m*3 11.3 C 0 km/h
2572 04-06-2014 03:00:00 11.3 C 9.38 g/m*3 11.3 C 0 km/h
2573 04-06-2014 03:05:00 11.3 C 9.38 g/m*3 11.3 C 0 km/h
2574 04-06-2014 03:10:00 11.2 C 9.33 g/m*3 11.2 C 0 km/h
2575 04-06-2014 03:15:00 11.1 C 9.27 g/m*3 11.1 C 0 km/h
Sensor: Nr:Datum:Temp:Abs-Feuchte:Windchill:Wind:
Aussen-T/F 2576 04-06-2014 03:20:00 11.1 C 9.27 g/m*3 11.1 C 0 km/h
2577 04-06-2014 03:25:00 11 C 9.31 g/m*3 11 C 0 km/h
2578 04-06-2014 03:30:00 10.9 C 9.25 g/m*3 10.9 C 0 km/h
2579 04-06-2014 03:35:00 10.9 C 9.25 g/m*3 10.9 C 0 km/h
2580 04-06-2014 03:40:00 10.8 C 9.19 g/m*3 10.8 C 0 km/h
2581 04-06-2014 03:45:00 10.8 C 9.19 g/m*3 10.8 C 0 km/h
2582 04-06-2014 03:50:00 10.8 C 9.19 g/m*3 10.8 C 0 km/h
2583 04-06-2014 03:55:00 10.8 C 9.19 g/m*3 10.8 C 0 km/h
2584 04-06-2014 04:00:00 10.8 C 9.19 g/m*3 10.8 C 0 km/h
2585 04-06-2014 04:05:00 10.8 C 9.29 g/m*3 10.8 C 0 km/h
2586 04-06-2014 04:10:00 10.8 C 9.29 g/m*3 10.8 C 1.6 km/h
2587 04-06-2014 04:15:00 10.7 C 9.23 g/m*3 10.7 C 1.6 km/h
2588 04-06-2014 04:20:00 10.7 C 9.23 g/m*3 10.7 C 0 km/h
2589 04-06-2014 04:25:00 10.7 C 9.23 g/m*3 10.7 C 0 km/h
2590 04-06-2014 04:30:00 10.6 C 9.17 g/m*3 10.6 C 0 km/h
2591 04-06-2014 04:35:00 10.5 C 9.12 g/m*3 10.5 C 0 km/h
2592 04-06-2014 04:40:00 10.5 C 9.12 g/m*3 10.5 C 0 km/h
2593 04-06-2014 04:45:00 10.6 C 9.17 g/m*3 10.6 C 1.6 km/h
2594 04-06-2014 04:50:00 10.6 C 9.17 g/m*3 10.6 C 0 km/h
2595 04-06-2014 04:55:00 10.6 C 9.17 g/m*3 10.6 C 0 km/h
2596 04-06-2014 05:00:00 10.7 C 9.23 g/m*3 10.7 C 0 km/h
2597 04-06-2014 05:05:00 10.7 C 9.23 g/m*3 10.7 C 0 km/h
2598 04-06-2014 05:10:00 10.8 C 9.39 g/m*3 10.8 C 0 km/h
2599 04-06-2014 05:15:00 10.8 C 9.39 g/m*3 10.8 C 0 km/h
2600 04-06-2014 05:20:00 10.9 C 9.45 g/m*3 10.9 C 0 km/h
Sensor: Nr:Datum:Temp:Abs-Feuchte:Windchill:Wind:
Aussen-T/F 2601 04-06-2014 05:25:00 10.9 C 9.35 g/m*3 10.9 C 0 km/h
2602 04-06-2014 05:30:00 10.9 C 9.35 g/m*3 10.9 C 0 km/h
2603 04-06-2014 05:35:00 10.9 C 9.35 g/m*3 10.9 C 0 km/h
2604 04-06-2014 05:40:00 10.9 C 9.35 g/m*3 10.9 C 0 km/h
2605 04-06-2014 05:45:00 10.9 C 9.35 g/m*3 10.9 C 0 km/h
2606 04-06-2014 05:50:00 10.9 C 9.35 g/m*3 10.9 C 0 km/h
2607 04-06-2014 05:55:00 10.9 C 9.35 g/m*3 10.9 C 0 km/h
2608 04-06-2014 06:00:00 10.9 C 9.35 g/m*3 10.9 C 0 km/h
2609 04-06-2014 06:05:00 11.1 C 9.47 g/m*3 11.1 C 0 km/h
2610 04-06-2014 06:10:00 11.2 C 9.53 g/m*3 11.2 C 1.6 km/h
2611 04-06-2014 06:15:00 11.3 C 9.59 g/m*3 11.3 C 0 km/h
2612 04-06-2014 06:20:00 11.4 C 9.65 g/m*3 11.4 C 1.6 km/h
2613 04-06-2014 06:25:00 11.6 C 9.67 g/m*3 11.6 C 0 km/h
2614 04-06-2014 06:30:00 11.7 C 9.73 g/m*3 11.7 C 0 km/h
2615 04-06-2014 06:35:00 11.8 C 9.79 g/m*3 11.8 C 0 km/h
2616 04-06-2014 06:40:00 11.9 C 9.74 g/m*3 11.9 C 1.6 km/h
2617 04-06-2014 06:45:00 12.1 C 9.87 g/m*3 12.1 C 0 km/h
2618 04-06-2014 06:50:00 12.1 C 9.76 g/m*3 12.1 C 0 km/h
2619 04-06-2014 06:55:00 12.2 C 9.82 g/m*3 12.2 C 0 km/h
2620 04-06-2014 07:00:00 12.3 C 9.77 g/m*3 12.3 C 0 km/h
2621 04-06-2014 07:05:00 12.4 C 9.83 g/m*3 12.4 C 0 km/h
2622 04-06-2014 07:10:00 12.5 C 9.89 g/m*3 12.5 C 0 km/h
2623 04-06-2014 07:15:00 12.6 C 9.85 g/m*3 12.6 C 0 km/h
2624 04-06-2014 07:20:00 12.7 C 9.91 g/m*3 12.7 C 0 km/h
2625 04-06-2014 07:25:00 12.8 C 10.08 g/m*3 12.8 C 1.6 km/h
Sensor: Nr:Datum:Temp:Abs-Feuchte:Windchill:Wind:
Aussen-T/F 2626 04-06-2014 07:30:00 12.9 C 10.03 g/m*3 12.9 C 0 km/h
2627 04-06-2014 07:35:00 13.1 C 10.16 g/m*3 13.1 C 0 km/h
2628 04-06-2014 07:40:00 13.3 C 10.17 g/m*3 13.3 C 0 km/h
2629 04-06-2014 07:45:00 13.4 C 10.23 g/m*3 13.4 C 0 km/h
2630 04-06-2014 07:50:00 13.6 C 10.36 g/m*3 13.6 C 0 km/h
2631 04-06-2014 07:55:00 13.7 C 10.3 g/m*3 13.7 C 0 km/h
2632 04-06-2014 08:00:00 13.8 C 10.37 g/m*3 13.8 C 0 km/h
2633 04-06-2014 08:05:00 14 C 10.49 g/m*3 14 C 0 km/h
2634 04-06-2014 08:10:00 14.4 C 10.75 g/m*3 14.4 C 0 km/h
2635 04-06-2014 08:15:00 14.8 C 10.77 g/m*3 14.8 C 1.6 km/h
2636 04-06-2014 08:20:00 15.3 C 10.97 g/m*3 15.3 C 1.6 km/h
2637 04-06-2014 08:25:00 15.7 C 11.11 g/m*3 15.7 C 1.6 km/h
2638 04-06-2014 08:30:00 15.9 C 11.1 g/m*3 15.9 C 1.6 km/h
2639 04-06-2014 08:35:00 16.2 C 11.17 g/m*3 16.2 C 1.6 km/h
2640 04-06-2014 08:40:00 16.4 C 11.17 g/m*3 16.4 C 1.6 km/h
2641 04-06-2014 08:45:00 16.8 C 11.58 g/m*3 16.8 C 1.6 km/h
2642 04-06-2014 08:50:00 17.1 C 11.21 g/m*3 17.1 C 6.4 km/h
2643 04-06-2014 08:55:00 17.4 C 11.12 g/m*3 17.4 C 4.8 km/h
2644 04-06-2014 09:00:00 17.5 C 11.18 g/m*3 17.5 C 3.2 km/h
2645 04-06-2014 09:05:00 17.6 C 11.1 g/m*3 17.6 C 1.6 km/h
2646 04-06-2014 09:10:00 17.7 C 10.86 g/m*3 17.7 C 9.7 km/h
2647 04-06-2014 09:15:00 17.8 C 11.08 g/m*3 17.8 C 3.2 km/h
2648 04-06-2014 09:20:00 17.8 C 11.08 g/m*3 17.8 C 4.8 km/h
2649 04-06-2014 09:25:00 17.8 C 10.93 g/m*3 17.8 C 3.2 km/h
2650 04-06-2014 09:30:00 17.9 C 11.15 g/m*3 17.9 C 8.1 km/h
Sensor: Nr:Datum:Temp:Abs-Feuchte:Windchill:Wind:
Aussen-T/F 2651 04-06-2014 09:35:00 18.1 C 11.43 g/m*3 18.1 C 4.8 km/h
2652 04-06-2014 09:40:00 18.3 C 11.26 g/m*3 18.3 C 4.8 km/h
2653 04-06-2014 09:45:00 18.3 C 11.1 g/m*3 18.3 C 14.5 km/h
2654 04-06-2014 09:50:00 18.3 C 11.1 g/m*3 18.3 C 12.9 km/h
2655 04-06-2014 09:55:00 18.3 C 11.1 g/m*3 18.3 C 4.8 km/h
2656 04-06-2014 11:40:00 20.4 C 12.21 g/m*3 20.4 C 6.4 km/h
2657 04-06-2014 11:45:00 20.6 C 12.17 g/m*3 20.6 C 3.2 km/h
2658 04-06-2014 11:50:00 20.8 C 11.77 g/m*3 20.8 C 3.2 km/h
2659 04-06-2014 11:55:00 20.9 C 11.84 g/m*3 20.9 C 3.2 km/h
2660 04-06-2014 12:00:00 21 C 11.54 g/m*3 21 C 8.1 km/h
2661 04-06-2014 12:05:00 20.9 C 11.47 g/m*3 20.9 C 3.2 km/h
2662 04-06-2014 12:10:00 20.9 C 11.84 g/m*3 20.9 C 3.2 km/h
2663 04-06-2014 12:15:00 20.8 C 11.59 g/m*3 20.8 C 3.2 km/h
2664 04-06-2014 12:20:00 20.6 C 12.35 g/m*3 20.6 C 1.6 km/h
2665 04-06-2014 12:25:00 20.3 C 11.61 g/m*3 20.3 C 3.2 km/h
2666 04-06-2014 12:30:00 20.1 C 12.34 g/m*3 20.1 C 0 km/h
2667 04-06-2014 12:35:00 19.8 C 11.27 g/m*3 19.8 C 3.2 km/h
2668 04-06-2014 12:40:00 19.7 C 11.04 g/m*3 19.7 C 6.4 km/h
2669 04-06-2014 12:45:00 19.5 C 10.91 g/m*3 19.5 C 11.3 km/h
2670 04-06-2014 12:50:00 19.3 C 10.78 g/m*3 19.3 C 9.7 km/h
2671 04-06-2014 12:55:00 19.1 C 10.66 g/m*3 19.1 C 14.5 km/h
2672 04-06-2014 13:00:00 18.8 C 10.79 g/m*3 18.8 C 19.3 km/h
2673 04-06-2014 13:05:00 18.4 C 10.85 g/m*3 18.4 C 14.5 km/h
2674 04-06-2014 13:10:00 18.2 C 11.19 g/m*3 18.2 C 11.3 km/h
2675 04-06-2014 13:15:00 17.9 C 11.15 g/m*3 17.9 C 8.1 km/h
Sensor: Nr:Datum:Temp:Abs-Feuchte:Windchill:Wind:
Aussen-T/F 2676 04-06-2014 13:20:00 17.8 C 10.93 g/m*3 17.8 C 4.8 km/h
2677 04-06-2014 13:25:00 17.9 C 11.15 g/m*3 17.9 C 6.4 km/h
2678 04-06-2014 13:30:00 18 C 11.21 g/m*3 18 C 9.7 km/h
2679 04-06-2014 13:35:00 17.9 C 11.3 g/m*3 17.9 C 12.9 km/h
2680 04-06-2014 13:40:00 17.8 C 11.23 g/m*3 17.8 C 8.1 km/h
2681 04-06-2014 13:45:00 17.7 C 11.47 g/m*3 17.7 C 9.7 km/h
2682 04-06-2014 13:50:00 17.7 C 12.07 g/m*3 17.7 C 8.1 km/h
2683 04-06-2014 13:55:00 17.6 C 12 g/m*3 17.6 C 3.2 km/h
2684 04-06-2014 14:00:00 17.5 C 11.63 g/m*3 17.5 C 4.8 km/h
2685 04-06-2014 14:05:00 17.4 C 11.71 g/m*3 17.4 C 6.4 km/h
2686 04-06-2014 14:10:00 17.3 C 11.93 g/m*3 17.3 C 6.4 km/h
2687 04-06-2014 14:15:00 17.2 C 12.01 g/m*3 17.2 C 0 km/h
2688 04-06-2014 14:20:00 17.1 C 11.94 g/m*3 17.1 C 0 km/h
2689 04-06-2014 14:25:00 16.9 C 11.94 g/m*3 16.9 C 0 km/h
2690 04-06-2014 14:30:00 16.7 C 11.94 g/m*3 16.7 C 0 km/h
2691 04-06-2014 14:35:00 16.5 C 12.08 g/m*3 16.5 C 0 km/h
2692 04-06-2014 14:40:00 16.4 C 12.14 g/m*3 16.4 C 0 km/h
2693 04-06-2014 14:45:00 16.5 C 12.36 g/m*3 16.5 C 0 km/h
2694 04-06-2014 14:50:00 16.8 C 12.87 g/m*3 16.8 C 0 km/h
2695 04-06-2014 14:55:00 17.1 C 13.1 g/m*3 17.1 C 3.2 km/h
2696 04-06-2014 15:00:00 17.4 C 13.19 g/m*3 17.4 C 4.8 km/h
2697 04-06-2014 15:05:00 17.6 C 12.9 g/m*3 17.6 C 3.2 km/h
2698 04-06-2014 15:10:00 17.8 C 12.9 g/m*3 17.8 C 4.8 km/h
2699 04-06-2014 15:15:00 17.9 C 12.83 g/m*3 17.9 C 1.6 km/h
2700 04-06-2014 15:20:00 17.8 C 12.9 g/m*3 17.8 C 0 km/h
Sensor: Nr:Datum:Temp:Abs-Feuchte:Windchill:Wind:
Aussen-T/F 2701 04-06-2014 15:25:00 17.6 C 13.05 g/m*3 17.6 C 0 km/h
2702 04-06-2014 15:30:00 17.2 C 12.89 g/m*3 17.2 C 0 km/h
2703 04-06-2014 15:35:00 17.1 C 13.1 g/m*3 17.1 C 0 km/h
2704 04-06-2014 15:40:00 17.2 C 13.33 g/m*3 17.2 C 0 km/h
2705 04-06-2014 15:45:00 17.2 C 13.18 g/m*3 17.2 C 4.8 km/h
2706 04-06-2014 15:50:00 17.2 C 13.18 g/m*3 17.2 C 3.2 km/h
2707 04-06-2014 15:55:00 17.3 C 13.26 g/m*3 17.3 C 0 km/h
2708 04-06-2014 16:00:00 17.4 C 13.34 g/m*3 17.4 C 0 km/h
2709 04-06-2014 16:05:00 17.5 C 13.42 g/m*3 17.5 C 0 km/h
2710 04-06-2014 16:10:00 17.4 C 13.34 g/m*3 17.4 C 0 km/h
2711 04-06-2014 16:15:00 17.4 C 13.34 g/m*3 17.4 C 0 km/h
2712 04-06-2014 16:20:00 17.4 C 13.49 g/m*3 17.4 C 0 km/h
2713 04-06-2014 16:25:00 17.3 C 13.41 g/m*3 17.3 C 0 km/h
2714 04-06-2014 16:30:00 17.2 C 13.33 g/m*3 17.2 C 0 km/h
2715 04-06-2014 16:35:00 17.1 C 13.39 g/m*3 17.1 C 0 km/h
2716 04-06-2014 16:40:00 16.7 C 13.07 g/m*3 16.7 C 0 km/h
2717 04-06-2014 16:45:00 16.6 C 13.14 g/m*3 16.6 C 0 km/h
2718 04-06-2014 16:50:00 16.5 C 13.06 g/m*3 16.5 C 1.6 km/h
2719 04-06-2014 16:55:00 16.6 C 13.28 g/m*3 16.6 C 0 km/h
2720 04-06-2014 17:00:00 16.4 C 12.98 g/m*3 16.4 C 0 km/h
2721 04-06-2014 17:05:00 16.6 C 13.28 g/m*3 16.6 C 0 km/h
2722 04-06-2014 17:10:00 16.6 C 13.28 g/m*3 16.6 C 0 km/h
2723 04-06-2014 17:15:00 16.7 C 13.36 g/m*3 16.7 C 0 km/h
2724 04-06-2014 17:20:00 16.8 C 13.58 g/m*3 16.8 C 0 km/h
2725 04-06-2014 17:25:00 16.8 C 13.58 g/m*3 16.8 C 0 km/h
Sensor: Nr:Datum:Temp:Abs-Feuchte:Windchill:Wind:
Aussen-T/F 2726 04-06-2014 17:30:00 16.8 C 13.58 g/m*3 16.8 C 0 km/h
2727 04-06-2014 17:35:00 16.8 C 13.58 g/m*3 16.8 C 4.8 km/h
2728 04-06-2014 17:40:00 16.8 C 13.58 g/m*3 16.8 C 0 km/h
2729 04-06-2014 17:45:00 16.5 C 13.06 g/m*3 16.5 C 3.2 km/h
2730 04-06-2014 17:50:00 16.3 C 12.9 g/m*3 16.3 C 1.6 km/h
2731 04-06-2014 17:55:00 16.2 C 12.82 g/m*3 16.2 C 0 km/h
2732 04-06-2014 18:00:00 16.1 C 12.75 g/m*3 16.1 C 0 km/h
2733 04-06-2014 18:05:00 16.1 C 12.88 g/m*3 16.1 C 0 km/h
2734 04-06-2014 18:10:00 16.2 C 12.96 g/m*3 16.2 C 0 km/h
2735 04-06-2014 18:15:00 16.2 C 13.1 g/m*3 16.2 C 0 km/h
2736 04-06-2014 18:20:00 16.3 C 13.18 g/m*3 16.3 C 0 km/h
2737 04-06-2014 18:25:00 16.5 C 13.34 g/m*3 16.5 C 0 km/h
2738 04-06-2014 18:30:00 16.6 C 13.28 g/m*3 16.6 C 0 km/h
2739 04-06-2014 18:35:00 16.9 C 13.38 g/m*3 16.9 C 6.4 km/h
2740 04-06-2014 18:40:00 17.2 C 13.47 g/m*3 17.2 C 0 km/h
2741 04-06-2014 18:45:00 17.4 C 13.34 g/m*3 17.4 C 1.6 km/h
2742 04-06-2014 18:50:00 17.8 C 13.36 g/m*3 17.8 C 1.6 km/h
2743 04-06-2014 18:55:00 17.9 C 13.59 g/m*3 17.9 C 0 km/h
2744 04-06-2014 19:00:00 17.9 C 13.44 g/m*3 17.9 C 0 km/h
2745 04-06-2014 19:05:00 18.1 C 13.44 g/m*3 18.1 C 1.6 km/h
2746 04-06-2014 19:10:00 18.1 C 13.75 g/m*3 18.1 C 3.2 km/h
2747 04-06-2014 19:15:00 18.1 C 13.13 g/m*3 18.1 C 1.6 km/h
2748 04-06-2014 19:20:00 18 C 13.52 g/m*3 18 C 0 km/h
2749 04-06-2014 19:25:00 17.8 C 13.51 g/m*3 17.8 C 0 km/h
2750 04-06-2014 19:30:00 17.6 C 13.5 g/m*3 17.6 C 0 km/h
Sensor: Nr:Datum:Temp:Abs-Feuchte:Windchill:Wind:
Aussen-T/F 2751 04-06-2014 19:35:00 17.6 C 13.5 g/m*3 17.6 C 1.6 km/h
2752 04-06-2014 21:45:00 14.6 C 11.89 g/m*3 14.6 C 0 km/h
2753 04-06-2014 21:50:00 14.5 C 11.69 g/m*3 14.5 C 0 km/h
2754 04-06-2014 21:55:00 14.5 C 11.69 g/m*3 14.5 C 1.6 km/h
2755 05-06-2014 00:35:00 13.4 C 10.69 g/m*3 13.4 C 11.3 km/h
2756 05-06-2014 00:40:00 13.4 C 10.69 g/m*3 13.4 C 6.4 km/h
2757 05-06-2014 00:45:00 13.2 C 10.22 g/m*3 13.2 C 19.3 km/h
2758 05-06-2014 00:50:00 13.2 C 10.1 g/m*3 13.2 C 16.1 km/h
2759 05-06-2014 00:55:00 13 C 9.98 g/m*3 13 C 8.1 km/h
2760 05-06-2014 01:00:00 12.9 C 10.03 g/m*3 12.9 C 4.8 km/h
2761 05-06-2014 01:05:00 12.8 C 9.86 g/m*3 12.8 C 9.7 km/h
2762 05-06-2014 01:10:00 12.7 C 9.8 g/m*3 12.7 C 14.5 km/h
2763 05-06-2014 01:15:00 12.7 C 10.02 g/m*3 12.7 C 3.2 km/h
2764 05-06-2014 01:20:00 12.7 C 10.02 g/m*3 12.7 C 1.6 km/h
2765 05-06-2014 01:25:00 12.5 C 9.89 g/m*3 12.5 C 1.6 km/h
2766 05-06-2014 01:30:00 12.4 C 9.72 g/m*3 12.4 C 4.8 km/h
2767 05-06-2014 01:35:00 12.4 C 9.62 g/m*3 12.4 C 3.2 km/h
2768 05-06-2014 01:40:00 12.4 C 9.62 g/m*3 12.4 C 8.1 km/h
2769 05-06-2014 01:45:00 12.4 C 9.62 g/m*3 12.4 C 3.2 km/h
2770 05-06-2014 01:50:00 12.3 C 9.66 g/m*3 12.3 C 1.6 km/h
2771 05-06-2014 01:55:00 12.3 C 9.66 g/m*3 12.3 C 1.6 km/h
2772 05-06-2014 02:00:00 12.2 C 9.71 g/m*3 12.2 C 1.6 km/h
2773 05-06-2014 02:05:00 12.1 C 9.65 g/m*3 12.1 C 1.6 km/h
2774 05-06-2014 02:10:00 12.1 C 9.54 g/m*3 12.1 C 1.6 km/h
2775 05-06-2014 02:15:00 12.1 C 9.54 g/m*3 12.1 C 9.7 km/h
Sensor: Nr:Datum:Temp:Abs-Feuchte:Windchill:Wind:
Aussen-T/F 2776 05-06-2014 02:20:00 12.1 C 9.54 g/m*3 12.1 C 3.2 km/h
2777 05-06-2014 02:25:00 12.1 C 9.33 g/m*3 12.1 C 1.6 km/h
2778 05-06-2014 02:30:00 12.1 C 9.44 g/m*3 12.1 C 1.6 km/h
2779 05-06-2014 02:35:00 12.1 C 9.44 g/m*3 12.1 C 1.6 km/h
2780 05-06-2014 02:40:00 12 C 9.38 g/m*3 12 C 1.6 km/h
2781 05-06-2014 02:45:00 11.9 C 9.43 g/m*3 11.9 C 0 km/h
2782 05-06-2014 02:50:00 11.8 C 9.16 g/m*3 11.8 C 9.7 km/h
2783 05-06-2014 02:55:00 11.8 C 8.95 g/m*3 11.8 C 16.1 km/h
2784 05-06-2014 03:00:00 11.9 C 8.79 g/m*3 11.9 C 14.5 km/h
2785 05-06-2014 03:05:00 11.8 C 8.42 g/m*3 11.8 C 11.3 km/h
2786 05-06-2014 03:10:00 11.6 C 8 g/m*3 11.6 C 20.9 km/h
2787 05-06-2014 03:15:00 11.4 C 7.8 g/m*3 11.4 C 20.9 km/h
2788 05-06-2014 03:20:00 11.3 C 7.65 g/m*3 11.3 C 16.1 km/h
2789 05-06-2014 03:25:00 11.2 C 7.7 g/m*3 11.2 C 16.1 km/h
2790 05-06-2014 03:30:00 11.1 C 7.76 g/m*3 11.1 C 8.1 km/h
2791 05-06-2014 03:35:00 11.1 C 7.76 g/m*3 11.1 C 9.7 km/h
2792 05-06-2014 03:40:00 11.1 C 7.76 g/m*3 11.1 C 1.6 km/h
2793 05-06-2014 03:45:00 10 C 8.08 g/m*3 10 C 1.6 km/h
2794 05-06-2014 03:50:00 9.7 C 8.11 g/m*3 9.7 C 3.2 km/h
2795 05-06-2014 03:55:00 9.4 C 8.05 g/m*3 9.4 C 1.6 km/h
2796 05-06-2014 04:00:00 9.1 C 7.99 g/m*3 9.1 C 1.6 km/h
2797 05-06-2014 04:05:00 8.9 C 7.97 g/m*3 8.9 C 1.6 km/h
2798 05-06-2014 04:10:00 8.8 C 7.92 g/m*3 8.8 C 1.6 km/h
2799 05-06-2014 04:15:00 8.8 C 8.01 g/m*3 8.8 C 1.6 km/h
2800 05-06-2014 04:20:00 8.8 C 8.01 g/m*3 8.8 C 1.6 km/h
Sensor: Nr:Datum:Temp:Abs-Feuchte:Windchill:Wind:
Aussen-T/F 2801 05-06-2014 04:25:00 8.7 C 7.96 g/m*3 8.7 C 0 km/h
2802 05-06-2014 04:30:00 8.7 C 7.96 g/m*3 8.7 C 1.6 km/h
2803 05-06-2014 04:35:00 8.7 C 7.96 g/m*3 8.7 C 0 km/h
2804 05-06-2014 04:40:00 8.7 C 7.96 g/m*3 8.7 C 1.6 km/h
2805 05-06-2014 04:45:00 8.8 C 8.01 g/m*3 8.8 C 3.2 km/h
2806 05-06-2014 04:50:00 8.9 C 7.97 g/m*3 8.9 C 3.2 km/h
2807 05-06-2014 04:55:00 9.1 C 7.99 g/m*3 9.1 C 3.2 km/h
2808 05-06-2014 05:00:00 9.2 C 8.04 g/m*3 9.2 C 3.2 km/h
2809 05-06-2014 05:05:00 9.1 C 7.99 g/m*3 9.1 C 1.6 km/h
2810 05-06-2014 05:10:00 9 C 7.93 g/m*3 9 C 0 km/h
2811 05-06-2014 05:15:00 8.9 C 7.97 g/m*3 8.9 C 0 km/h
2812 05-06-2014 05:20:00 8.8 C 7.92 g/m*3 8.8 C 0 km/h
2813 05-06-2014 05:25:00 8.7 C 7.87 g/m*3 8.7 C 0 km/h
2814 05-06-2014 05:30:00 8.6 C 7.82 g/m*3 8.6 C 0 km/h
2815 05-06-2014 05:35:00 8.6 C 7.91 g/m*3 8.6 C 1.6 km/h
2816 05-06-2014 05:40:00 8.5 C 7.94 g/m*3 8.5 C 0 km/h
2817 05-06-2014 05:45:00 8.5 C 7.94 g/m*3 8.5 C 0 km/h
2818 05-06-2014 05:50:00 8.5 C 7.94 g/m*3 8.5 C 0 km/h
2819 05-06-2014 05:55:00 8.5 C 8.03 g/m*3 8.5 C 0 km/h
2820 05-06-2014 06:00:00 8.5 C 8.03 g/m*3 8.5 C 0 km/h
2821 05-06-2014 06:05:00 8.5 C 8.03 g/m*3 8.5 C 0 km/h
2822 05-06-2014 06:10:00 8.5 C 8.11 g/m*3 8.5 C 0 km/h
2823 05-06-2014 06:15:00 8.5 C 8.11 g/m*3 8.5 C 0 km/h
2824 05-06-2014 06:20:00 8.6 C 8.16 g/m*3 8.6 C 0 km/h
2825 05-06-2014 06:25:00 8.7 C 8.22 g/m*3 8.7 C 0 km/h
Sensor: Nr:Datum:Temp:Abs-Feuchte:Windchill:Wind:
Aussen-T/F 2826 05-06-2014 06:30:00 8.7 C 8.22 g/m*3 8.7 C 0 km/h
2827 05-06-2014 06:35:00 8.7 C 8.22 g/m*3 8.7 C 0 km/h
2828 05-06-2014 06:40:00 8.7 C 8.22 g/m*3 8.7 C 0 km/h
2829 05-06-2014 06:45:00 8.8 C 8.27 g/m*3 8.8 C 0 km/h
2830 05-06-2014 06:50:00 8.8 C 8.27 g/m*3 8.8 C 0 km/h
2831 05-06-2014 06:55:00 8.9 C 8.32 g/m*3 8.9 C 0 km/h
2832 05-06-2014 07:00:00 8.9 C 8.32 g/m*3 8.9 C 1.6 km/h
2833 05-06-2014 07:05:00 9 C 8.38 g/m*3 9 C 0 km/h
2834 05-06-2014 07:10:00 9.1 C 8.43 g/m*3 9.1 C 0 km/h
2835 05-06-2014 07:15:00 9.1 C 8.43 g/m*3 9.1 C 0 km/h
2836 05-06-2014 07:20:00 9.2 C 8.48 g/m*3 9.2 C 3.2 km/h
2837 05-06-2014 07:25:00 9.3 C 8.54 g/m*3 8.56 C 6.4 km/h
2838 05-06-2014 07:30:00 9.4 C 8.5 g/m*3 7.97 C 9.7 km/h
2839 05-06-2014 07:35:00 9.7 C 8.57 g/m*3 8.33 C 9.7 km/h
2840 05-06-2014 07:40:00 9.9 C 8.59 g/m*3 9.25 C 6.4 km/h
2841 05-06-2014 07:45:00 10.3 C 8.71 g/m*3 9.34 C 8.1 km/h
2842 05-06-2014 07:50:00 10.6 C 8.59 g/m*3 9.69 C 8.1 km/h
2843 05-06-2014 07:55:00 10.9 C 8.65 g/m*3 9.28 C 12.9 km/h
2844 05-06-2014 08:00:00 11.2 C 8.62 g/m*3 11.2 C 14.5 km/h
2845 05-06-2014 08:05:00 11.4 C 8.72 g/m*3 11.4 C 12.9 km/h
2846 05-06-2014 08:10:00 11.6 C 8.73 g/m*3 11.6 C 8.1 km/h
2847 05-06-2014 08:15:00 11.7 C 8.79 g/m*3 11.7 C 4.8 km/h
2848 05-06-2014 08:20:00 11.8 C 8.74 g/m*3 11.8 C 20.9 km/h
2849 05-06-2014 08:25:00 11.8 C 8.74 g/m*3 11.8 C 8.1 km/h
2850 05-06-2014 08:30:00 12 C 8.85 g/m*3 12 C 4.8 km/h
Sensor: Nr:Datum:Temp:Abs-Feuchte:Windchill:Wind:
Aussen-T/F 2851 05-06-2014 08:35:00 12.2 C 8.85 g/m*3 12.2 C 8.1 km/h
2852 05-06-2014 08:40:00 12.2 C 8.85 g/m*3 12.2 C 6.4 km/h
2853 05-06-2014 08:45:00 12.3 C 8.69 g/m*3 12.3 C 8.1 km/h
2854 05-06-2014 08:50:00 12.6 C 8.85 g/m*3 12.6 C 6.4 km/h
2855 05-06-2014 08:55:00 12.8 C 9.07 g/m*3 12.8 C 6.4 km/h
2856 05-06-2014 09:00:00 12.9 C 8.9 g/m*3 12.9 C 3.2 km/h
2857 05-06-2014 09:05:00 13.1 C 8.9 g/m*3 13.1 C 8.1 km/h
2858 05-06-2014 09:10:00 13.1 C 8.9 g/m*3 13.1 C 9.7 km/h
2859 05-06-2014 09:15:00 13.2 C 8.61 g/m*3 13.2 C 17.7 km/h
2860 05-06-2014 09:20:00 13.1 C 8.56 g/m*3 13.1 C 9.7 km/h
2861 05-06-2014 09:25:00 13.2 C 8.61 g/m*3 13.2 C 12.9 km/h
2862 05-06-2014 09:30:00 13.3 C 8.43 g/m*3 13.3 C 11.3 km/h
2863 05-06-2014 09:35:00 13.4 C 8.6 g/m*3 13.4 C 12.9 km/h
2864 05-06-2014 09:40:00 13.6 C 8.24 g/m*3 13.6 C 22.5 km/h
2865 05-06-2014 09:45:00 13.7 C 8.53 g/m*3 13.7 C 17.7 km/h
2866 05-06-2014 09:50:00 13.9 C 8.15 g/m*3 13.9 C 16.1 km/h
2867 05-06-2014 09:55:00 14.2 C 8.3 g/m*3 14.2 C 22.5 km/h
2868 05-06-2014 10:00:00 14.3 C 8.23 g/m*3 14.3 C 27.4 km/h
2869 05-06-2014 10:05:00 14.5 C 8.46 g/m*3 14.5 C 14.5 km/h
2870 05-06-2014 10:10:00 14.7 C 8.44 g/m*3 14.7 C 19.3 km/h
2871 05-06-2014 10:15:00 14.8 C 8.36 g/m*3 14.8 C 16.1 km/h
2872 05-06-2014 10:20:00 15 C 8.21 g/m*3 15 C 20.9 km/h
2873 05-06-2014 10:25:00 15.1 C 8.26 g/m*3 15.1 C 16.1 km/h
2874 05-06-2014 10:30:00 14.8 C 8.23 g/m*3 14.8 C 14.5 km/h
2875 05-06-2014 10:35:00 14.6 C 8.13 g/m*3 14.6 C 12.9 km/h
Sensor: Nr:Datum:Temp:Abs-Feuchte:Windchill:Wind:
Aussen-T/F 2876 05-06-2014 10:40:00 14.7 C 8.31 g/m*3 14.7 C 8.1 km/h
2877 05-06-2014 10:45:00 14.8 C 8.23 g/m*3 14.8 C 19.3 km/h
2878 05-06-2014 10:50:00 14.8 C 8.23 g/m*3 14.8 C 20.9 km/h
2879 05-06-2014 10:55:00 15 C 8.21 g/m*3 15 C 19.3 km/h
2880 05-06-2014 11:00:00 15.2 C 8.44 g/m*3 15.2 C 16.1 km/h
2881 05-06-2014 11:05:00 15.3 C 8.1 g/m*3 15.3 C 24.1 km/h
2882 05-06-2014 11:10:00 15.3 C 8.1 g/m*3 15.3 C 17.7 km/h
2883 05-06-2014 11:15:00 15.5 C 8.33 g/m*3 15.5 C 12.9 km/h
2884 05-06-2014 11:20:00 15.7 C 8.03 g/m*3 15.7 C 20.9 km/h
2885 05-06-2014 11:25:00 15.5 C 8.06 g/m*3 15.5 C 19.3 km/h
2886 05-06-2014 11:30:00 15.6 C 8.38 g/m*3 15.6 C 14.5 km/h
2887 05-06-2014 11:35:00 16.1 C 8.5 g/m*3 16.1 C 16.1 km/h
2888 05-06-2014 11:40:00 16.4 C 8.1 g/m*3 16.4 C 20.9 km/h
2889 05-06-2014 11:45:00 16.6 C 8.05 g/m*3 16.6 C 17.7 km/h
2890 05-06-2014 11:50:00 16.6 C 8.05 g/m*3 16.6 C 19.3 km/h
2891 05-06-2014 11:55:00 16.8 C 8.29 g/m*3 16.8 C 16.1 km/h
2892 05-06-2014 12:00:00 16.8 C 7.72 g/m*3 16.8 C 16.1 km/h
2893 05-06-2014 12:05:00 16.7 C 7.82 g/m*3 16.7 C 29 km/h
2894 05-06-2014 12:10:00 16.4 C 7.82 g/m*3 16.4 C 19.3 km/h
2895 05-06-2014 12:15:00 16.6 C 7.91 g/m*3 16.6 C 20.9 km/h
2896 05-06-2014 12:20:00 16.7 C 7.96 g/m*3 16.7 C 14.5 km/h
2897 05-06-2014 12:25:00 16.7 C 8.24 g/m*3 16.7 C 9.7 km/h
2898 05-06-2014 12:30:00 16.7 C 8.1 g/m*3 16.7 C 17.7 km/h
2899 05-06-2014 12:35:00 17.1 C 7.86 g/m*3 17.1 C 20.9 km/h
2900 05-06-2014 12:40:00 17.1 C 8.15 g/m*3 17.1 C 16.1 km/h
Sensor: Nr:Datum:Temp:Abs-Feuchte:Windchill:Wind:
Aussen-T/F 2901 05-06-2014 12:45:00 17 C 7.81 g/m*3 17 C 20.9 km/h
2902 05-06-2014 12:50:00 17.1 C 7.86 g/m*3 17.1 C 17.7 km/h
2903 05-06-2014 12:55:00 17.3 C 7.96 g/m*3 17.3 C 24.1 km/h
2904 05-06-2014 13:00:00 17.3 C 7.96 g/m*3 17.3 C 16.1 km/h
2905 05-06-2014 13:05:00 17.4 C 7.85 g/m*3 17.4 C 16.1 km/h
2906 05-06-2014 13:10:00 17.6 C 7.95 g/m*3 17.6 C 16.1 km/h
2907 05-06-2014 13:15:00 17.8 C 7.74 g/m*3 17.8 C 16.1 km/h
2908 05-06-2014 13:20:00 17.9 C 7.79 g/m*3 17.9 C 20.9 km/h
2909 05-06-2014 13:25:00 17.9 C 7.79 g/m*3 17.9 C 19.3 km/h
2910 05-06-2014 13:30:00 17.6 C 7.65 g/m*3 17.6 C 12.9 km/h
2911 05-06-2014 13:35:00 17.6 C 7.35 g/m*3 17.6 C 11.3 km/h
2912 05-06-2014 13:40:00 17.5 C 7.6 g/m*3 17.5 C 14.5 km/h
2913 05-06-2014 13:45:00 17.6 C 7.95 g/m*3 17.6 C 14.5 km/h
2914 05-06-2014 13:50:00 18 C 7.83 g/m*3 18 C 11.3 km/h
2915 05-06-2014 13:55:00 18.1 C 7.73 g/m*3 18.1 C 14.5 km/h
2916 05-06-2014 14:00:00 18.1 C 7.57 g/m*3 18.1 C 17.7 km/h
2917 05-06-2014 14:05:00 17.9 C 7.48 g/m*3 17.9 C 16.1 km/h
2918 05-06-2014 14:10:00 17.9 C 7.48 g/m*3 17.9 C 12.9 km/h
2919 05-06-2014 14:15:00 17.8 C 7.74 g/m*3 17.8 C 16.1 km/h
2920 05-06-2014 14:20:00 18.2 C 7.93 g/m*3 18.2 C 14.5 km/h
2921 05-06-2014 14:25:00 18.4 C 7.71 g/m*3 18.4 C 12.9 km/h
2922 05-06-2014 14:30:00 18.3 C 7.35 g/m*3 18.3 C 14.5 km/h
2923 05-06-2014 14:35:00 18.1 C 7.57 g/m*3 18.1 C 16.1 km/h
2924 05-06-2014 14:40:00 17.9 C 7.33 g/m*3 17.9 C 17.7 km/h
2925 05-06-2014 14:45:00 17.7 C 7.39 g/m*3 17.7 C 14.5 km/h
Sensor: Nr:Datum:Temp:Abs-Feuchte:Windchill:Wind:
Aussen-T/F 2926 05-06-2014 14:50:00 17.7 C 7.85 g/m*3 17.7 C 8.1 km/h
2927 05-06-2014 14:55:00 17.8 C 7.89 g/m*3 17.8 C 6.4 km/h
2928 05-06-2014 15:00:00 17.9 C 7.79 g/m*3 17.9 C 12.9 km/h
2929 05-06-2014 15:05:00 18.4 C 7.71 g/m*3 18.4 C 11.3 km/h
2930 05-06-2014 15:10:00 18.9 C 7.94 g/m*3 18.9 C 12.9 km/h
2931 05-06-2014 15:15:00 19 C 7.33 g/m*3 19 C 19.3 km/h
2932 05-06-2014 15:20:00 18.7 C 7.36 g/m*3 18.7 C 12.9 km/h
2933 05-06-2014 15:25:00 18.4 C 7.24 g/m*3 18.4 C 9.7 km/h
2934 05-06-2014 15:30:00 18.3 C 7.51 g/m*3 18.3 C 14.5 km/h
2935 05-06-2014 15:35:00 18.1 C 7.73 g/m*3 18.1 C 14.5 km/h
2936 05-06-2014 15:40:00 18.3 C 7.66 g/m*3 18.3 C 19.3 km/h
2937 05-06-2014 15:45:00 18.9 C 7.61 g/m*3 18.9 C 14.5 km/h
2938 05-06-2014 15:50:00 18.9 C 7.61 g/m*3 18.9 C 12.9 km/h
2939 05-06-2014 15:55:00 18.7 C 7.52 g/m*3 18.7 C 22.5 km/h
2940 05-06-2014 16:00:00 18.6 C 7.48 g/m*3 18.6 C 20.9 km/h
2941 05-06-2014 16:05:00 19.2 C 7.42 g/m*3 19.2 C 16.1 km/h
2942 05-06-2014 16:10:00 19.7 C 7.47 g/m*3 19.7 C 24.1 km/h
2943 05-06-2014 16:15:00 20.1 C 7.65 g/m*3 20.1 C 16.1 km/h
2944 05-06-2014 16:20:00 20.1 C 7.3 g/m*3 20.1 C 12.9 km/h
2945 05-06-2014 16:25:00 19.7 C 7.81 g/m*3 19.7 C 12.9 km/h
2946 05-06-2014 16:30:00 19.6 C 7.43 g/m*3 19.6 C 12.9 km/h
2947 05-06-2014 16:35:00 19.8 C 7.52 g/m*3 19.8 C 14.5 km/h
2948 05-06-2014 16:40:00 19.8 C 7.34 g/m*3 19.8 C 17.7 km/h
2949 05-06-2014 16:45:00 19.6 C 6.92 g/m*3 19.6 C 16.1 km/h
2950 05-06-2014 16:50:00 19.8 C 7.52 g/m*3 19.8 C 12.9 km/h
Sensor: Nr:Datum:Temp:Abs-Feuchte:Windchill:Wind:
Aussen-T/F 2951 05-06-2014 16:55:00 20.1 C 6.95 g/m*3 20.1 C 11.3 km/h
2952 05-06-2014 17:00:00 19.6 C 7.09 g/m*3 19.6 C 11.3 km/h
2953 05-06-2014 17:05:00 19.2 C 7.09 g/m*3 19.2 C 11.3 km/h
2954 05-06-2014 17:10:00 18.8 C 7.25 g/m*3 18.8 C 4.8 km/h
2955 05-06-2014 17:15:00 18.6 C 7.48 g/m*3 18.6 C 6.4 km/h
2956 05-06-2014 17:20:00 18.6 C 7.48 g/m*3 18.6 C 8.1 km/h
2957 05-06-2014 17:25:00 18.7 C 7.52 g/m*3 18.7 C 11.3 km/h
2958 05-06-2014 17:30:00 18.7 C 7.84 g/m*3 18.7 C 9.7 km/h
2959 05-06-2014 17:35:00 18.7 C 7.36 g/m*3 18.7 C 9.7 km/h
2960 05-06-2014 17:40:00 18.6 C 7.64 g/m*3 18.6 C 9.7 km/h
2961 05-06-2014 17:45:00 19.2 C 7.42 g/m*3 19.2 C 12.9 km/h
2962 05-06-2014 17:50:00 20.1 C 7.3 g/m*3 20.1 C 14.5 km/h
2963 05-06-2014 17:55:00 20.5 C 6.94 g/m*3 20.5 C 17.7 km/h
2964 05-06-2014 18:00:00 20.8 C 7.42 g/m*3 20.8 C 16.1 km/h
2965 05-06-2014 18:05:00 20.8 C 7.24 g/m*3 20.8 C 14.5 km/h
2966 05-06-2014 18:10:00 21 C 7.14 g/m*3 21 C 19.3 km/h
2967 05-06-2014 18:15:00 20.8 C 7.42 g/m*3 20.8 C 17.7 km/h
2968 05-06-2014 18:20:00 20.7 C 7.02 g/m*3 20.7 C 19.3 km/h
2969 05-06-2014 18:25:00 20.7 C 7.38 g/m*3 20.7 C 11.3 km/h
2970 05-06-2014 18:30:00 20.7 C 7.38 g/m*3 20.7 C 16.1 km/h
2971 05-06-2014 18:35:00 20.6 C 7.34 g/m*3 20.6 C 24.1 km/h
2972 05-06-2014 18:40:00 20.7 C 7.02 g/m*3 20.7 C 17.7 km/h
2973 05-06-2014 18:45:00 20.7 C 7.02 g/m*3 20.7 C 14.5 km/h
2974 05-06-2014 18:50:00 20.7 C 6.84 g/m*3 20.7 C 11.3 km/h
2975 05-06-2014 18:55:00 20.5 C 7.12 g/m*3 20.5 C 9.7 km/h
Sensor: Nr:Datum:Temp:Abs-Feuchte:Windchill:Wind:
Aussen-T/F 2976 05-06-2014 19:00:00 20.6 C 7.16 g/m*3 20.6 C 11.3 km/h
2977 05-06-2014 19:05:00 20.6 C 6.8 g/m*3 20.6 C 14.5 km/h
2978 05-06-2014 19:10:00 20.3 C 7.03 g/m*3 20.3 C 17.7 km/h
2979 05-06-2014 19:15:00 20.1 C 7.13 g/m*3 20.1 C 9.7 km/h
2980 05-06-2014 19:20:00 19.9 C 6.87 g/m*3 19.9 C 16.1 km/h
2981 05-06-2014 19:25:00 19.8 C 6.66 g/m*3 19.8 C 14.5 km/h
2982 05-06-2014 19:30:00 19.7 C 6.62 g/m*3 19.7 C 9.7 km/h
2983 05-06-2014 19:35:00 19.6 C 6.92 g/m*3 19.6 C 12.9 km/h
2984 05-06-2014 19:40:00 19.6 C 7.09 g/m*3 19.6 C 14.5 km/h
2985 05-06-2014 19:45:00 19.4 C 6.51 g/m*3 19.4 C 14.5 km/h
2986 05-06-2014 19:50:00 19.3 C 6.63 g/m*3 19.3 C 20.9 km/h
2987 05-06-2014 19:55:00 19.2 C 6.6 g/m*3 19.2 C 9.7 km/h
2988 05-06-2014 20:00:00 19.2 C 6.76 g/m*3 19.2 C 14.5 km/h
2989 05-06-2014 20:05:00 19.1 C 6.56 g/m*3 19.1 C 8.1 km/h
2990 05-06-2014 20:10:00 19 C 6.68 g/m*3 19 C 11.3 km/h
2991 05-06-2014 20:15:00 19 C 6.68 g/m*3 19 C 11.3 km/h
2992 05-06-2014 20:20:00 18.9 C 6.97 g/m*3 18.9 C 4.8 km/h
2993 05-06-2014 20:25:00 18.8 C 7.57 g/m*3 18.8 C 4.8 km/h
2994 05-06-2014 20:30:00 18.7 C 7.68 g/m*3 18.7 C 6.4 km/h
2995 05-06-2014 20:35:00 18.5 C 7.44 g/m*3 18.5 C 8.1 km/h
2996 05-06-2014 20:40:00 18.3 C 8.6 g/m*3 18.3 C 1.6 km/h
2997 05-06-2014 20:45:00 17.8 C 8.8 g/m*3 17.8 C 1.6 km/h
2998 05-06-2014 20:50:00 17.4 C 8.45 g/m*3 17.4 C 1.6 km/h
2999 05-06-2014 20:55:00 17.1 C 8.73 g/m*3 17.1 C 1.6 km/h
3000 05-06-2014 21:00:00 16.8 C 8.72 g/m*3 16.8 C 1.6 km/h
Sensor: Nr:Datum:Temp:Abs-Feuchte:Windchill:Wind:
Aussen-T/F 3001 05-06-2014 21:05:00 16.4 C 9.07 g/m*3 16.4 C 0 km/h
3002 05-06-2014 21:10:00 15.9 C 8.94 g/m*3 15.9 C 1.6 km/h
3003 05-06-2014 21:15:00 15.6 C 8.64 g/m*3 15.6 C 1.6 km/h
3004 05-06-2014 21:20:00 15.4 C 8.15 g/m*3 15.4 C 1.6 km/h
3005 05-06-2014 21:25:00 15.1 C 8.64 g/m*3 15.1 C 1.6 km/h
3006 05-06-2014 21:30:00 14.8 C 8.49 g/m*3 14.8 C 1.6 km/h
3007 05-06-2014 21:35:00 14.6 C 8.51 g/m*3 14.6 C 1.6 km/h
3008 05-06-2014 21:40:00 14.3 C 8.48 g/m*3 14.3 C 1.6 km/h
3009 05-06-2014 21:45:00 14.2 C 8.43 g/m*3 14.2 C 1.6 km/h
3010 05-06-2014 21:50:00 14.1 C 8.37 g/m*3 14.1 C 1.6 km/h
3011 05-06-2014 21:55:00 13.9 C 8.39 g/m*3 13.9 C 1.6 km/h
3012 05-06-2014 22:00:00 13.7 C 8.41 g/m*3 13.7 C 0 km/h
3013 05-06-2014 22:05:00 13.6 C 8.36 g/m*3 13.6 C 0 km/h
3014 05-06-2014 22:10:00 13.4 C 8.37 g/m*3 13.4 C 0 km/h
3015 05-06-2014 22:15:00 13.2 C 8.38 g/m*3 13.2 C 0 km/h
3016 05-06-2014 22:20:00 12.9 C 8.23 g/m*3 12.9 C 0 km/h
3017 05-06-2014 22:25:00 12.8 C 8.29 g/m*3 12.8 C 0 km/h
3018 05-06-2014 22:30:00 12.7 C 8.24 g/m*3 12.7 C 0 km/h
3019 05-06-2014 22:35:00 12.6 C 8.3 g/m*3 12.6 C 0 km/h
3020 05-06-2014 22:40:00 12.4 C 8.3 g/m*3 12.4 C 0 km/h
3021 05-06-2014 22:45:00 12.3 C 8.25 g/m*3 12.3 C 0 km/h
3022 05-06-2014 22:50:00 12.1 C 8.26 g/m*3 12.1 C 0 km/h
3023 05-06-2014 22:55:00 11.9 C 8.05 g/m*3 11.9 C 0 km/h
3024 05-06-2014 23:00:00 11.8 C 8 g/m*3 11.8 C 0 km/h
3025 05-06-2014 23:05:00 11.7 C 7.95 g/m*3 11.7 C 0 km/h
Sensor: Nr:Datum:Temp:Abs-Feuchte:Windchill:Wind:
Aussen-T/F 3026 05-06-2014 23:10:00 11.6 C 8 g/m*3 11.6 C 0 km/h
3027 05-06-2014 23:15:00 11.5 C 7.85 g/m*3 11.5 C 0 km/h
3028 05-06-2014 23:20:00 11.3 C 7.75 g/m*3 11.3 C 0 km/h
3029 05-06-2014 23:25:00 11.2 C 7.91 g/m*3 11.2 C 0 km/h
3030 05-06-2014 23:30:00 11.1 C 7.96 g/m*3 11.1 C 0 km/h
3031 05-06-2014 23:35:00 10.9 C 7.76 g/m*3 10.9 C 0 km/h
3032 05-06-2014 23:40:00 10.8 C 7.71 g/m*3 10.8 C 0 km/h
3033 05-06-2014 23:45:00 10.8 C 7.81 g/m*3 10.8 C 3.2 km/h
3034 05-06-2014 23:50:00 10.8 C 7.81 g/m*3 10.8 C 3.2 km/h
3035 05-06-2014 23:55:00 10.8 C 7.81 g/m*3 10.8 C 0 km/h
3036 06-06-2014 00:00:00 10.6 C 7.81 g/m*3 10.6 C 1.6 km/h
3037 06-06-2014 00:05:00 10.5 C 7.86 g/m*3 10.5 C 0 km/h
3038 06-06-2014 00:10:00 10.3 C 7.76 g/m*3 10.3 C 0 km/h
3039 06-06-2014 00:15:00 10.2 C 7.71 g/m*3 10.2 C 0 km/h
3040 06-06-2014 00:20:00 10.1 C 7.75 g/m*3 10.1 C 0 km/h
3041 06-06-2014 00:25:00 10 C 7.71 g/m*3 10 C 0 km/h
3042 06-06-2014 00:30:00 9.9 C 7.66 g/m*3 9.9 C 0 km/h
3043 06-06-2014 00:35:00 9.9 C 7.66 g/m*3 9.9 C 0 km/h
3044 06-06-2014 00:40:00 9.8 C 7.7 g/m*3 9.8 C 0 km/h
3045 06-06-2014 00:45:00 9.7 C 7.65 g/m*3 9.7 C 0 km/h
3046 06-06-2014 00:50:00 9.7 C 7.74 g/m*3 9.7 C 0 km/h
3047 06-06-2014 00:55:00 9.6 C 7.69 g/m*3 9.6 C 0 km/h
3048 06-06-2014 01:00:00 9.5 C 7.65 g/m*3 9.5 C 0 km/h
3049 06-06-2014 01:05:00 9.4 C 7.6 g/m*3 9.4 C 0 km/h
3050 06-06-2014 01:10:00 9.3 C 7.64 g/m*3 9.3 C 0 km/h
Sensor: Nr:Datum:Temp:Abs-Feuchte:Windchill:Wind:
Aussen-T/F 3051 06-06-2014 01:15:00 9.3 C 7.64 g/m*3 9.3 C 0 km/h
3052 06-06-2014 01:20:00 9.2 C 7.68 g/m*3 9.2 C 0 km/h
3053 06-06-2014 01:25:00 9.1 C 7.63 g/m*3 9.1 C 0 km/h
3054 06-06-2014 01:30:00 9.1 C 7.63 g/m*3 9.1 C 0 km/h
3055 06-06-2014 01:35:00 9.1 C 7.63 g/m*3 9.1 C 0 km/h
3056 06-06-2014 01:40:00 9.1 C 7.54 g/m*3 9.1 C 0 km/h
3057 06-06-2014 01:45:00 8.9 C 7.53 g/m*3 8.9 C 0 km/h
3058 06-06-2014 01:50:00 8.9 C 7.53 g/m*3 8.9 C 0 km/h
3059 06-06-2014 01:55:00 8.8 C 7.57 g/m*3 8.8 C 0 km/h
3060 06-06-2014 02:00:00 8.7 C 7.52 g/m*3 8.7 C 0 km/h
3061 06-06-2014 02:05:00 8.7 C 7.44 g/m*3 8.7 C 0 km/h
3062 06-06-2014 02:10:00 8.7 C 7.52 g/m*3 8.7 C 0 km/h
3063 06-06-2014 02:15:00 8.7 C 7.44 g/m*3 8.7 C 0 km/h
3064 06-06-2014 02:20:00 8.7 C 7.52 g/m*3 8.7 C 0 km/h
3065 06-06-2014 02:25:00 8.6 C 7.39 g/m*3 8.6 C 0 km/h
3066 06-06-2014 02:30:00 8.4 C 7.38 g/m*3 8.4 C 0 km/h
3067 06-06-2014 02:35:00 8.4 C 7.38 g/m*3 8.4 C 0 km/h
3068 06-06-2014 02:40:00 8.4 C 7.38 g/m*3 8.4 C 0 km/h
3069 06-06-2014 02:45:00 8.3 C 7.33 g/m*3 8.3 C 0 km/h
3070 06-06-2014 02:50:00 8.3 C 7.42 g/m*3 8.3 C 0 km/h
3071 06-06-2014 02:55:00 8.3 C 7.42 g/m*3 8.3 C 0 km/h
3072 06-06-2014 03:00:00 8.3 C 7.42 g/m*3 8.3 C 0 km/h
3073 06-06-2014 03:05:00 8.2 C 7.37 g/m*3 8.2 C 0 km/h
3074 06-06-2014 03:10:00 8.2 C 7.37 g/m*3 8.2 C 0 km/h
3075 06-06-2014 03:15:00 8.1 C 7.32 g/m*3 8.1 C 0 km/h
Sensor: Nr:Datum:Temp:Abs-Feuchte:Windchill:Wind:
Aussen-T/F 3076 06-06-2014 03:20:00 8.1 C 7.41 g/m*3 8.1 C 0 km/h
3077 06-06-2014 03:25:00 7.9 C 7.31 g/m*3 7.9 C 0 km/h
3078 06-06-2014 03:30:00 7.9 C 7.31 g/m*3 7.9 C 0 km/h
3079 06-06-2014 03:35:00 7.8 C 7.26 g/m*3 7.8 C 0 km/h
3080 06-06-2014 03:40:00 7.8 C 7.35 g/m*3 7.8 C 0 km/h
3081 06-06-2014 03:45:00 7.7 C 7.3 g/m*3 7.7 C 0 km/h
3082 06-06-2014 03:50:00 7.7 C 7.3 g/m*3 7.7 C 0 km/h
3083 06-06-2014 03:55:00 7.7 C 7.3 g/m*3 7.7 C 0 km/h
3084 06-06-2014 04:00:00 7.6 C 7.25 g/m*3 7.6 C 0 km/h
3085 06-06-2014 04:05:00 7.5 C 7.2 g/m*3 7.5 C 0 km/h
3086 06-06-2014 04:10:00 7.4 C 7.24 g/m*3 7.4 C 0 km/h
3087 06-06-2014 04:15:00 7.4 C 7.24 g/m*3 7.4 C 1.6 km/h
3088 06-06-2014 04:20:00 7.3 C 7.19 g/m*3 7.3 C 0 km/h
3089 06-06-2014 04:25:00 7.3 C 7.19 g/m*3 7.3 C 0 km/h
3090 06-06-2014 04:30:00 7.3 C 7.19 g/m*3 7.3 C 0 km/h
3091 06-06-2014 04:35:00 7.2 C 7.22 g/m*3 7.2 C 0 km/h
3092 06-06-2014 04:40:00 7.2 C 7.22 g/m*3 7.2 C 0 km/h
3093 06-06-2014 04:45:00 7.2 C 7.22 g/m*3 7.2 C 0 km/h
3094 06-06-2014 04:50:00 7.2 C 7.22 g/m*3 7.2 C 0 km/h
3095 06-06-2014 04:55:00 7.1 C 7.18 g/m*3 7.1 C 0 km/h
3096 06-06-2014 05:00:00 7.1 C 7.18 g/m*3 7.1 C 0 km/h
3097 06-06-2014 05:05:00 7 C 7.13 g/m*3 7 C 0 km/h
3098 06-06-2014 05:10:00 7.1 C 7.25 g/m*3 7.1 C 0 km/h
3099 06-06-2014 05:15:00 7 C 7.21 g/m*3 7 C 0 km/h
3100 06-06-2014 05:20:00 7 C 7.21 g/m*3 7 C 0 km/h
Sensor: Nr:Datum:Temp:Abs-Feuchte:Windchill:Wind:
Aussen-T/F 3101 06-06-2014 05:25:00 6.9 C 7.16 g/m*3 6.9 C 0 km/h
3102 06-06-2014 05:30:00 6.8 C 7.11 g/m*3 6.8 C 0 km/h
3103 06-06-2014 05:35:00 6.8 C 7.11 g/m*3 6.8 C 0 km/h
3104 06-06-2014 05:40:00 6.8 C 7.11 g/m*3 6.8 C 0 km/h
3105 06-06-2014 05:45:00 6.8 C 7.11 g/m*3 6.8 C 0 km/h
3106 06-06-2014 05:50:00 6.8 C 7.11 g/m*3 6.8 C 0 km/h
3107 06-06-2014 05:55:00 6.8 C 7.11 g/m*3 6.8 C 0 km/h
3108 06-06-2014 06:00:00 6.8 C 7.19 g/m*3 6.8 C 0 km/h
3109 06-06-2014 06:05:00 6.8 C 7.19 g/m*3 6.8 C 0 km/h
3110 06-06-2014 06:10:00 6.8 C 7.19 g/m*3 6.8 C 0 km/h
3111 06-06-2014 06:15:00 6.8 C 7.19 g/m*3 6.8 C 0 km/h
3112 06-06-2014 06:20:00 6.8 C 7.19 g/m*3 6.8 C 0 km/h
3113 06-06-2014 06:25:00 6.8 C 7.19 g/m*3 6.8 C 0 km/h
3114 06-06-2014 06:30:00 6.9 C 7.24 g/m*3 6.9 C 0 km/h
3115 06-06-2014 06:35:00 6.9 C 7.24 g/m*3 6.9 C 0 km/h
3116 06-06-2014 06:40:00 6.9 C 7.24 g/m*3 6.9 C 0 km/h
3117 06-06-2014 06:45:00 7 C 7.28 g/m*3 7 C 0 km/h
3118 06-06-2014 06:50:00 7.1 C 7.33 g/m*3 7.1 C 0 km/h
3119 06-06-2014 06:55:00 7.1 C 7.33 g/m*3 7.1 C 0 km/h
3120 06-06-2014 07:00:00 7.2 C 7.38 g/m*3 7.2 C 0 km/h
3121 06-06-2014 07:05:00 7.2 C 7.38 g/m*3 7.2 C 0 km/h
3122 06-06-2014 07:10:00 7.3 C 7.43 g/m*3 7.3 C 0 km/h
3123 06-06-2014 07:15:00 7.4 C 7.48 g/m*3 7.4 C 0 km/h
3124 06-06-2014 07:20:00 7.5 C 7.52 g/m*3 7.5 C 1.6 km/h
3125 06-06-2014 07:25:00 7.6 C 7.57 g/m*3 7.6 C 0 km/h
Sensor: Nr:Datum:Temp:Abs-Feuchte:Windchill:Wind:
Aussen-T/F 3126 06-06-2014 07:30:00 7.7 C 7.62 g/m*3 7.7 C 0 km/h
3127 06-06-2014 07:35:00 7.8 C 7.67 g/m*3 7.8 C 0 km/h
3128 06-06-2014 07:40:00 8 C 7.77 g/m*3 8 C 0 km/h
3129 06-06-2014 07:45:00 8.2 C 7.87 g/m*3 8.2 C 0 km/h
3130 06-06-2014 07:50:00 8.5 C 8.03 g/m*3 8.5 C 0 km/h
3131 06-06-2014 07:55:00 8.8 C 8.09 g/m*3 8.8 C 0 km/h
3132 06-06-2014 08:00:00 9.1 C 8.25 g/m*3 9.1 C 0 km/h
3133 06-06-2014 08:05:00 9.5 C 8.37 g/m*3 9.5 C 0 km/h
3134 06-06-2014 08:10:00 9.8 C 8.44 g/m*3 9.8 C 0 km/h
3135 06-06-2014 08:15:00 10.2 C 8.37 g/m*3 10.2 C 0 km/h
3136 06-06-2014 08:20:00 10.4 C 8.29 g/m*3 10.4 C 0 km/h
3137 06-06-2014 08:25:00 10.7 C 8.35 g/m*3 10.7 C 0 km/h
3138 06-06-2014 08:30:00 10.9 C 8.36 g/m*3 10.9 C 0 km/h
3139 06-06-2014 08:35:00 11.2 C 8.51 g/m*3 11.2 C 0 km/h
3140 06-06-2014 08:40:00 11.5 C 8.78 g/m*3 11.5 C 0 km/h
3141 06-06-2014 08:45:00 11.9 C 8.9 g/m*3 11.9 C 1.6 km/h
3142 06-06-2014 08:50:00 12.4 C 9.07 g/m*3 12.4 C 0 km/h
3143 06-06-2014 08:55:00 13 C 9.19 g/m*3 13 C 0 km/h
3144 06-06-2014 09:00:00 13.3 C 9.01 g/m*3 13.3 C 1.6 km/h
3145 06-06-2014 09:05:00 13.3 C 8.9 g/m*3 13.3 C 0 km/h
3146 06-06-2014 09:10:00 13.3 C 8.9 g/m*3 13.3 C 1.6 km/h
3147 06-06-2014 09:15:00 13.3 C 9.13 g/m*3 13.3 C 0 km/h
3148 06-06-2014 09:20:00 13.3 C 9.24 g/m*3 13.3 C 0 km/h
3149 06-06-2014 09:25:00 13.4 C 9.18 g/m*3 13.4 C 1.6 km/h
3150 06-06-2014 09:30:00 13.5 C 9.24 g/m*3 13.5 C 4.8 km/h
Sensor: Nr:Datum:Temp:Abs-Feuchte:Windchill:Wind:
Aussen-T/F 3151 06-06-2014 09:35:00 13.6 C 9.18 g/m*3 13.6 C 4.8 km/h
3152 06-06-2014 09:40:00 13.7 C 9.24 g/m*3 13.7 C 1.6 km/h
3153 06-06-2014 09:45:00 13.8 C 9.29 g/m*3 13.8 C 1.6 km/h
3154 06-06-2014 09:50:00 14.1 C 9.47 g/m*3 14.1 C 3.2 km/h
3155 06-06-2014 09:55:00 14.3 C 9.58 g/m*3 14.3 C 3.2 km/h
3156 06-06-2014 10:00:00 14.7 C 9.69 g/m*3 14.7 C 3.2 km/h
3157 06-06-2014 10:05:00 15.1 C 9.8 g/m*3 15.1 C 1.6 km/h
3158 06-06-2014 10:10:00 15.5 C 10.18 g/m*3 15.5 C 3.2 km/h
3159 06-06-2014 10:15:00 15.8 C 9.83 g/m*3 15.8 C 0 km/h
3160 06-06-2014 10:20:00 16.3 C 10.27 g/m*3 16.3 C 1.6 km/h
3161 06-06-2014 10:25:00 16.8 C 10.15 g/m*3 16.8 C 1.6 km/h
3162 06-06-2014 10:30:00 17.2 C 9.96 g/m*3 17.2 C 1.6 km/h
3163 06-06-2014 10:35:00 17.4 C 10.23 g/m*3 17.4 C 3.2 km/h
3164 06-06-2014 10:40:00 17.4 C 10.52 g/m*3 17.4 C 3.2 km/h
3165 06-06-2014 10:45:00 17.5 C 9.99 g/m*3 17.5 C 3.2 km/h
3166 06-06-2014 10:50:00 17.6 C 10.35 g/m*3 17.6 C 3.2 km/h
3167 06-06-2014 10:55:00 17.7 C 10.56 g/m*3 17.7 C 0 km/h
3168 06-06-2014 11:00:00 17.8 C 10.93 g/m*3 17.8 C 1.6 km/h
3169 06-06-2014 11:05:00 17.9 C 11.15 g/m*3 17.9 C 0 km/h
3170 06-06-2014 11:10:00 17.7 C 11.16 g/m*3 17.7 C 0 km/h
3171 06-06-2014 11:15:00 17.8 C 11.38 g/m*3 17.8 C 3.2 km/h
3172 06-06-2014 11:20:00 18.2 C 10.57 g/m*3 18.2 C 4.8 km/h
3173 06-06-2014 11:25:00 19.1 C 10.33 g/m*3 19.1 C 6.4 km/h
3174 06-06-2014 11:30:00 20.2 C 10.32 g/m*3 20.2 C 8.1 km/h
3175 06-06-2014 11:35:00 20.8 C 10.5 g/m*3 20.8 C 9.7 km/h
Sensor: Nr:Datum:Temp:Abs-Feuchte:Windchill:Wind:
Aussen-T/F 3176 06-06-2014 11:40:00 21.1 C 10.69 g/m*3 21.1 C 11.3 km/h
3177 06-06-2014 11:45:00 21.4 C 10.69 g/m*3 21.4 C 11.3 km/h
3178 06-06-2014 11:50:00 21.7 C 10.87 g/m*3 21.7 C 8.1 km/h
3179 06-06-2014 11:55:00 21.9 C 10.42 g/m*3 21.9 C 11.3 km/h
3180 06-06-2014 12:00:00 22.2 C 10.41 g/m*3 22.2 C 11.3 km/h
3181 06-06-2014 12:05:00 22.3 C 9.87 g/m*3 22.3 C 11.3 km/h
3182 06-06-2014 12:10:00 22.6 C 9.84 g/m*3 22.6 C 9.7 km/h
3183 06-06-2014 12:15:00 22.8 C 9.96 g/m*3 22.8 C 4.8 km/h
3184 06-06-2014 12:20:00 23.1 C 11.16 g/m*3 23.1 C 6.4 km/h
3185 06-06-2014 12:25:00 23.3 C 9.83 g/m*3 23.3 C 6.4 km/h
3186 06-06-2014 12:30:00 23.4 C 10.3 g/m*3 23.4 C 6.4 km/h
3187 06-06-2014 12:35:00 23.6 C 9.57 g/m*3 23.6 C 11.3 km/h
3188 06-06-2014 12:40:00 23.5 C 9.52 g/m*3 23.5 C 6.4 km/h
3189 06-06-2014 12:45:00 23.6 C 8.93 g/m*3 23.6 C 4.8 km/h
3190 06-06-2014 12:50:00 23.8 C 9.25 g/m*3 23.8 C 4.8 km/h
3191 06-06-2014 12:55:00 23.9 C 8.65 g/m*3 23.9 C 4.8 km/h
3192 06-06-2014 13:00:00 24.1 C 8.97 g/m*3 24.1 C 3.2 km/h
3193 06-06-2014 13:05:00 24.3 C 9.52 g/m*3 24.3 C 6.4 km/h
3194 06-06-2014 13:10:00 24.5 C 10.07 g/m*3 24.5 C 8.1 km/h
3195 06-06-2014 13:15:00 24.6 C 8.78 g/m*3 24.6 C 6.4 km/h
3196 06-06-2014 13:20:00 24.4 C 9.79 g/m*3 24.4 C 8.1 km/h
3197 06-06-2014 13:25:00 24.7 C 9.05 g/m*3 24.7 C 6.4 km/h
3198 06-06-2014 13:30:00 24.8 C 10.02 g/m*3 24.8 C 6.4 km/h
3199 06-06-2014 13:35:00 25 C 9.21 g/m*3 25 C 9.7 km/h
3200 06-06-2014 13:40:00 25 C 9.44 g/m*3 25 C 11.3 km/h
Sensor: Nr:Datum:Temp:Abs-Feuchte:Windchill:Wind:
Aussen-T/F 3201 06-06-2014 13:45:00 24.8 C 9.79 g/m*3 24.8 C 6.4 km/h
3202 06-06-2014 13:50:00 25 C 8.75 g/m*3 25 C 6.4 km/h
3203 06-06-2014 13:55:00 25.3 C 10.07 g/m*3 25.3 C 6.4 km/h
3204 06-06-2014 14:00:00 25.6 C 9.28 g/m*3 25.6 C 6.4 km/h
3205 06-06-2014 14:05:00 25.6 C 10 g/m*3 25.6 C 9.7 km/h
3206 06-06-2014 14:10:00 25.7 C 10.29 g/m*3 25.7 C 6.4 km/h
3207 06-06-2014 14:15:00 25.8 C 9.87 g/m*3 25.8 C 11.3 km/h
3208 06-06-2014 14:20:00 25.8 C 9.39 g/m*3 25.8 C 14.5 km/h
3209 06-06-2014 14:25:00 25.9 C 9.44 g/m*3 25.9 C 14.5 km/h
3210 06-06-2014 14:30:00 26 C 9.98 g/m*3 26 C 14.5 km/h
3211 06-06-2014 14:35:00 26.1 C 9.79 g/m*3 26.1 C 12.9 km/h
3212 06-06-2014 14:40:00 26.2 C 10.34 g/m*3 26.2 C 11.3 km/h
3213 06-06-2014 14:45:00 26.2 C 10.09 g/m*3 26.2 C 11.3 km/h
3214 06-06-2014 14:50:00 26.3 C 9.9 g/m*3 26.3 C 6.4 km/h
3215 06-06-2014 14:55:00 26.4 C 10.21 g/m*3 26.4 C 6.4 km/h
3216 06-06-2014 15:00:00 26.7 C 9.87 g/m*3 26.7 C 6.4 km/h
3217 06-06-2014 15:05:00 26.6 C 9.57 g/m*3 26.6 C 6.4 km/h
3218 06-06-2014 15:10:00 26.5 C 10.01 g/m*3 26.5 C 8.1 km/h
3219 06-06-2014 15:15:0